Darstellungsparameter: Aktuell verwendete Einstellungen:
Skalierung der Graphiken ... ?
xyx+y,   Skalierungsfaktor:      Skalierung: Modus: x, Faktor: 1
Darstellungszeitraum ... ?
Vom - - bis: - -   Zeitraum: 11.02.2020 - 10.03.2020
Min/Max/Avg-Anzeige ... ?
Zeige MMA aktuell
Zeige MMA Monat
Zeige MMA alles
Zeige --A aktuell
Zeige --A Monat
Zeige --A alles
Keine MMA-Anzeige
MMA:
Average (ber die Originaldaten)
MMA-Basis: 11.02.2020 - 10.03.2020
Quicknavigation für Darstellung... ?
Tage:      1T, 2T, 3T, 5T -1T -2T -3T -5T +1T +2T +3T +5T
Wochen: 1W, 2W, 3W -1W -2W -3W +1W +2W +3W
Monate: 1M, 3M, 6M -1M -3M -6M +1M +3M +6M
Jahre:    1J, 3J, 5J, 10J -1J -3J -5J -10J +1J +3J +5J +10J
Nutze für die Darstellung ... ?
Originaldaten oder Mittelwerte auf ...
Stundenbasis Tagesbasis Wochenbasis
Monatsbasis Jahresbasis      Datenbasis: Original-Daten
Darstellen als:
Statistik (Auto) Statistik J:M      Darstellung:
Zur Graphik,    zurück zur Übersicht aller Sensoren.
 
Tabellarische Datenbersicht: ?
 
Sensor: Nr:Datum:Temp:Feuchte:
Aussen-T/F 1 11-02-2020 00:06:17 7.5 C 26 %
2 11-02-2020 00:16:17 7.4 C 26 %
3 11-02-2020 00:26:17 7.7 C 25 %
4 11-02-2020 00:36:17 4.6 C 35 %
5 11-02-2020 00:46:17 4.4 C 36 %
6 11-02-2020 00:56:17 4.4 C 35 %
7 11-02-2020 01:06:17 4.5 C 34 %
8 11-02-2020 01:16:17 4.6 C 33 %
9 11-02-2020 01:26:17 4.7 C 32 %
10 11-02-2020 01:36:17 4.7 C 31 %
11 11-02-2020 01:46:17 4.5 C 31 %
12 11-02-2020 01:56:17 4.7 C 30 %
13 11-02-2020 02:06:17 5.1 C 27 %
14 11-02-2020 02:16:17 5.3 C 26 %
15 11-02-2020 02:26:17 5.3 C 26 %
16 11-02-2020 02:36:17 4.8 C 27 %
17 11-02-2020 02:46:17 4.3 C 30 %
18 11-02-2020 02:56:17 4.1 C 30 %
19 11-02-2020 03:06:17 4.8 C 29 %
20 11-02-2020 03:16:17 5.3 C 26 %
21 11-02-2020 03:26:17 5.4 C 25 %
22 11-02-2020 03:36:17 5.3 C 25 %
23 11-02-2020 03:46:18 5.6 C 23 %
24 11-02-2020 03:56:18 5.5 C 21 %
25 11-02-2020 04:06:18 5.4 C 20 %
Sensor: Nr:Datum:Temp:Feuchte:
Aussen-T/F 26 11-02-2020 04:16:17 5.4 C 20 %
27 11-02-2020 04:26:17 5.6 C 20 %
28 11-02-2020 04:36:17 5.3 C 20 %
29 11-02-2020 04:46:17 5.6 C 20 %
30 11-02-2020 04:56:17 5.6 C 20 %
31 11-02-2020 05:06:18 5.5 C 20 %
32 11-02-2020 05:16:18 5.8 C 20 %
33 11-02-2020 05:26:18 3.9 C 33 %
34 11-02-2020 05:36:18 4.2 C 32 %
35 11-02-2020 05:46:17 4.1 C 32 %
36 11-02-2020 05:56:18 3.7 C 34 %
37 11-02-2020 06:06:18 3.8 C 33 %
38 11-02-2020 06:16:17 4.8 C 30 %
39 11-02-2020 06:26:17 5 C 25 %
40 11-02-2020 06:36:18 5.1 C 23 %
41 11-02-2020 06:46:17 5 C 23 %
42 11-02-2020 06:56:18 4 C 29 %
43 11-02-2020 07:06:18 3.7 C 32 %
44 11-02-2020 07:16:18 3.2 C 34 %
45 11-02-2020 07:26:18 4.1 C 31 %
46 11-02-2020 07:36:18 3.8 C 31 %
47 11-02-2020 07:46:17 4.4 C 30 %
48 11-02-2020 07:56:17 4.5 C 29 %
49 11-02-2020 08:06:18 4.5 C 29 %
50 11-02-2020 08:16:17 4.6 C 28 %
Sensor: Nr:Datum:Temp:Feuchte:
Aussen-T/F 51 11-02-2020 08:26:17 4.9 C 27 %
52 11-02-2020 08:36:17 4 C 31 %
53 11-02-2020 08:46:17 3.9 C 33 %
54 11-02-2020 08:56:17 4.1 C 32 %
55 11-02-2020 09:06:17 4.3 C 31 %
56 11-02-2020 09:16:17 4.6 C 31 %
57 11-02-2020 09:26:17 4.6 C 31 %
58 11-02-2020 09:36:18 4.5 C 31 %
59 11-02-2020 09:46:18 4.6 C 31 %
60 11-02-2020 09:56:18 5.1 C 29 %
61 11-02-2020 10:06:18 5.3 C 28 %
62 11-02-2020 10:16:17 5.9 C 26 %
63 11-02-2020 10:26:17 5.9 C 25 %
64 11-02-2020 10:36:17 5.9 C 25 %
65 11-02-2020 10:46:17 5.4 C 25 %
66 11-02-2020 10:56:17 5.8 C 25 %
67 11-02-2020 11:06:17 6.2 C 26 %
68 11-02-2020 11:16:17 6.6 C 20 %
69 11-02-2020 11:26:17 6.9 C 20 %
70 11-02-2020 11:36:18 6.7 C 20 %
71 11-02-2020 11:46:18 6.5 C 20 %
72 11-02-2020 11:56:18 6.7 C 20 %
73 11-02-2020 12:06:18 6.8 C 20 %
74 11-02-2020 12:16:17 6.7 C 20 %
75 11-02-2020 12:26:17 6.8 C 20 %
Sensor: Nr:Datum:Temp:Feuchte:
Aussen-T/F 76 11-02-2020 12:36:17 7 C 20 %
77 11-02-2020 12:46:17 7.3 C 20 %
78 11-02-2020 12:56:17 6.4 C 20 %
79 11-02-2020 13:06:18 5.7 C 20 %
80 11-02-2020 13:16:18 6.4 C 20 %
81 11-02-2020 13:26:18 5.9 C 20 %
82 11-02-2020 13:36:18 7.8 C 20 %
83 11-02-2020 13:46:17 7.4 C 20 %
84 11-02-2020 13:56:17 7.1 C 20 %
85 11-02-2020 14:06:17 6.9 C 20 %
86 11-02-2020 14:16:17 4.6 C 20 %
87 11-02-2020 14:26:17 3.8 C 35 %
88 11-02-2020 14:36:17 5 C 32 %
89 11-02-2020 14:46:17 5 C 31 %
90 11-02-2020 14:56:17 5.6 C 25 %
91 11-02-2020 15:06:17 5.7 C 25 %
92 11-02-2020 15:16:17 5.3 C 25 %
93 11-02-2020 15:26:17 6.6 C 25 %
94 11-02-2020 15:36:17 6.8 C 25 %
95 11-02-2020 15:46:17 6.9 C 25 %
96 11-02-2020 15:56:17 7 C 25 %
97 11-02-2020 16:06:17 7.4 C 20 %
98 11-02-2020 16:16:18 7.1 C 20 %
99 11-02-2020 16:26:18 7.5 C 20 %
100 11-02-2020 16:36:17 7.2 C 20 %
Sensor: Nr:Datum:Temp:Feuchte:
Aussen-T/F 101 11-02-2020 16:46:17 6.5 C 20 %
102 11-02-2020 16:56:17 6.5 C 20 %
103 11-02-2020 17:06:18 6.1 C 20 %
104 11-02-2020 17:16:17 5.9 C 21 %
105 11-02-2020 17:26:17 5.6 C 21 %
106 11-02-2020 17:36:17 5.8 C 21 %
107 11-02-2020 17:46:17 5.8 C 20 %
108 11-02-2020 17:56:17 5.9 C 20 %
109 11-02-2020 18:06:17 5.8 C 20 %
110 11-02-2020 18:16:17 5.7 C 20 %
111 11-02-2020 18:26:17 5.2 C 20 %
112 11-02-2020 18:36:17 5.3 C 20 %
113 11-02-2020 18:46:17 5.4 C 21 %
114 11-02-2020 18:56:18 5.2 C 23 %
115 11-02-2020 19:06:18 5.1 C 23 %
116 11-02-2020 19:16:18 4.9 C 26 %
117 11-02-2020 19:26:18 4.8 C 26 %
118 11-02-2020 19:36:17 4.6 C 27 %
119 11-02-2020 19:46:18 4.6 C 27 %
120 11-02-2020 19:56:18 4.8 C 26 %
121 11-02-2020 20:06:17 4.8 C 26 %
122 11-02-2020 20:16:17 5.5 C 20 %
123 11-02-2020 20:26:17 5.4 C 20 %
124 11-02-2020 20:36:17 5.3 C 20 %
125 11-02-2020 20:46:17 4.8 C 20 %
Sensor: Nr:Datum:Temp:Feuchte:
Aussen-T/F 126 11-02-2020 20:56:17 4.7 C 20 %
127 11-02-2020 21:06:18 4.8 C 20 %
128 11-02-2020 21:16:17 4.4 C 20 %
129 11-02-2020 21:26:17 4.6 C 20 %
130 11-02-2020 21:36:17 4.7 C 20 %
131 11-02-2020 21:46:18 4.4 C 20 %
132 11-02-2020 21:56:18 4.4 C 20 %
133 11-02-2020 22:06:17 4.5 C 20 %
134 11-02-2020 22:16:18 4.3 C 20 %
135 11-02-2020 22:26:18 4.2 C 20 %
136 11-02-2020 22:36:17 4.3 C 21 %
137 11-02-2020 22:46:17 4.3 C 21 %
138 11-02-2020 22:56:17 3.8 C 25 %
139 11-02-2020 23:06:17 4 C 23 %
140 11-02-2020 23:16:18 3.9 C 25 %
141 11-02-2020 23:26:18 4.3 C 21 %
142 11-02-2020 23:36:17 4.6 C 20 %
143 11-02-2020 23:46:18 4.6 C 20 %
144 11-02-2020 23:56:18 4.7 C 20 %
145 12-02-2020 00:06:18 4.9 C 20 %
146 12-02-2020 00:16:17 4.8 C 20 %
147 12-02-2020 00:26:17 4.6 C 21 %
148 12-02-2020 00:36:18 4.7 C 21 %
149 12-02-2020 00:46:17 4.9 C 21 %
150 12-02-2020 00:56:18 4.6 C 25 %
Sensor: Nr:Datum:Temp:Feuchte:
Aussen-T/F 151 12-02-2020 01:06:18 4.6 C 25 %
152 12-02-2020 01:16:18 4.3 C 25 %
153 12-02-2020 01:26:18 4.5 C 26 %
154 12-02-2020 01:36:17 4.6 C 26 %
155 12-02-2020 01:46:18 4.7 C 25 %
156 12-02-2020 01:56:18 4.7 C 26 %
157 12-02-2020 02:06:18 4.5 C 25 %
158 12-02-2020 02:16:17 4.5 C 25 %
159 12-02-2020 02:26:17 4.3 C 26 %
160 12-02-2020 02:36:18 4.2 C 25 %
161 12-02-2020 02:46:18 4.2 C 26 %
162 12-02-2020 02:56:18 4.2 C 26 %
163 12-02-2020 03:06:18 4.1 C 26 %
164 12-02-2020 03:16:17 4.2 C 26 %
165 12-02-2020 03:26:17 4.3 C 26 %
166 12-02-2020 03:36:17 4.2 C 26 %
167 12-02-2020 03:46:17 4.1 C 26 %
168 12-02-2020 03:56:17 3.8 C 28 %
169 12-02-2020 04:06:17 4.2 C 27 %
170 12-02-2020 04:16:17 4.3 C 26 %
171 12-02-2020 04:26:17 4.4 C 26 %
172 12-02-2020 04:36:18 4.4 C 26 %
173 12-02-2020 04:46:17 4.5 C 26 %
174 12-02-2020 04:56:18 4.4 C 27 %
175 12-02-2020 05:06:18 4.5 C 27 %
Sensor: Nr:Datum:Temp:Feuchte:
Aussen-T/F 176 12-02-2020 05:16:18 4.4 C 27 %
177 12-02-2020 05:26:18 4.5 C 27 %
178 12-02-2020 05:36:18 4.5 C 27 %
179 12-02-2020 05:46:17 4.6 C 27 %
180 12-02-2020 05:56:18 4.5 C 27 %
181 12-02-2020 06:06:17 4.5 C 27 %
182 12-02-2020 06:16:18 4.5 C 28 %
183 12-02-2020 06:26:18 4.3 C 29 %
184 12-02-2020 06:36:17 4.3 C 30 %
185 12-02-2020 06:46:18 4.3 C 29 %
186 12-02-2020 06:56:18 4.3 C 29 %
187 12-02-2020 07:06:17 4.3 C 30 %
188 12-02-2020 07:16:17 3.2 C 35 %
189 12-02-2020 07:26:17 2.8 C 38 %
190 12-02-2020 07:36:17 2.8 C 38 %
191 12-02-2020 07:46:18 2.9 C 38 %
192 12-02-2020 07:56:18 3 C 37 %
193 12-02-2020 08:06:17 3.1 C 37 %
194 12-02-2020 08:16:17 3.2 C 36 %
195 12-02-2020 08:26:17 3.3 C 36 %
196 12-02-2020 08:36:17 3.2 C 36 %
197 12-02-2020 08:46:17 3.5 C 35 %
198 12-02-2020 08:56:17 3.6 C 35 %
199 12-02-2020 09:06:17 3.5 C 35 %
200 12-02-2020 09:16:17 3.7 C 35 %
Sensor: Nr:Datum:Temp:Feuchte:
Aussen-T/F 201 12-02-2020 09:26:18 3.9 C 34 %
202 12-02-2020 09:36:18 3.7 C 34 %
203 12-02-2020 09:46:17 4.2 C 32 %
204 12-02-2020 09:56:17 4.7 C 32 %
205 12-02-2020 10:06:17 4.3 C 32 %
206 12-02-2020 10:16:18 3.6 C 35 %
207 12-02-2020 10:26:18 3.6 C 37 %
208 12-02-2020 10:36:17 3.9 C 38 %
209 12-02-2020 10:46:17 4.4 C 35 %
210 12-02-2020 10:56:17 5.4 C 32 %
211 12-02-2020 11:06:17 5.3 C 32 %
212 12-02-2020 11:16:17 5.4 C 31 %
213 12-02-2020 11:26:17 5.7 C 31 %
214 12-02-2020 11:36:17 5.3 C 31 %
215 12-02-2020 11:46:17 4.7 C 32 %
216 12-02-2020 11:56:17 4.5 C 32 %
217 12-02-2020 12:06:18 4.7 C 32 %
218 12-02-2020 12:16:18 5.4 C 31 %
219 12-02-2020 12:26:18 5.1 C 31 %
220 12-02-2020 12:36:17 4.3 C 34 %
221 12-02-2020 12:46:17 4.3 C 34 %
222 12-02-2020 12:56:17 5.2 C 32 %
223 12-02-2020 13:06:18 5.8 C 31 %
224 12-02-2020 13:16:17 6.3 C 30 %
225 12-02-2020 13:26:17 6.8 C 27 %
Sensor: Nr:Datum:Temp:Feuchte:
Aussen-T/F 226 12-02-2020 13:36:17 6.7 C 27 %
227 12-02-2020 13:46:17 6.4 C 26 %
228 12-02-2020 13:56:17 6.3 C 27 %
229 12-02-2020 14:06:17 6.3 C 27 %
230 12-02-2020 14:16:18 6.7 C 26 %
231 12-02-2020 14:26:18 7 C 26 %
232 12-02-2020 14:36:17 7.3 C 20 %
233 12-02-2020 14:46:17 6.9 C 21 %
234 12-02-2020 14:56:17 7.2 C 21 %
235 12-02-2020 15:06:17 7 C 21 %
236 12-02-2020 15:16:17 7.5 C 20 %
237 12-02-2020 15:26:17 7.6 C 20 %
238 12-02-2020 15:36:18 7.5 C 20 %
239 12-02-2020 15:46:18 6.4 C 23 %
240 12-02-2020 15:56:18 6.9 C 25 %
241 12-02-2020 16:06:18 6.3 C 25 %
242 12-02-2020 16:16:18 6.3 C 25 %
243 12-02-2020 16:26:18 7 C 20 %
244 12-02-2020 16:36:17 7.2 C 20 %
245 12-02-2020 16:46:17 7 C 23 %
246 12-02-2020 16:56:18 6.6 C 23 %
247 12-02-2020 17:06:18 5.8 C 25 %
248 12-02-2020 17:16:17 5.4 C 25 %
249 12-02-2020 17:26:17 5.4 C 25 %
250 12-02-2020 17:36:17 5.1 C 26 %
Sensor: Nr:Datum:Temp:Feuchte:
Aussen-T/F 251 12-02-2020 17:46:17 5 C 26 %
252 12-02-2020 17:56:17 4.5 C 30 %
253 12-02-2020 18:06:17 4.2 C 31 %
254 12-02-2020 18:16:17 4.2 C 31 %
255 12-02-2020 18:26:17 4 C 32 %
256 12-02-2020 18:36:17 4.1 C 31 %
257 12-02-2020 18:46:17 3.7 C 33 %
258 12-02-2020 18:56:17 3.9 C 33 %
259 12-02-2020 19:06:18 4.1 C 32 %
260 12-02-2020 19:17:17 3.9 C 33 %
261 12-02-2020 19:27:17 3.7 C 33 %
262 12-02-2020 19:36:17 3.6 C 33 %
263 12-02-2020 19:46:17 3.3 C 35 %
264 12-02-2020 19:56:17 3 C 35 %
265 12-02-2020 20:06:17 3.1 C 36 %
266 12-02-2020 20:16:17 1.8 C 39 %
267 12-02-2020 20:26:17 1.7 C 41 %
268 12-02-2020 20:36:18 1.7 C 41 %
269 12-02-2020 20:46:17 2.5 C 39 %
270 12-02-2020 20:56:18 2.3 C 38 %
271 12-02-2020 21:06:18 2 C 40 %
272 12-02-2020 21:17:17 2.1 C 40 %
273 12-02-2020 21:27:17 2.1 C 39 %
274 12-02-2020 21:36:17 2.2 C 39 %
275 12-02-2020 21:46:17 2.2 C 39 %
Sensor: Nr:Datum:Temp:Feuchte:
Aussen-T/F 276 12-02-2020 21:56:17 2.7 C 39 %
277 12-02-2020 22:06:17 2.6 C 39 %
278 12-02-2020 22:16:17 2.1 C 40 %
279 12-02-2020 22:26:17 1.8 C 42 %
280 12-02-2020 22:36:17 2 C 42 %
281 12-02-2020 22:46:17 1.7 C 42 %
282 12-02-2020 22:56:17 1.4 C 42 %
283 12-02-2020 23:06:18 2.2 C 43 %
284 12-02-2020 23:16:18 1.3 C 42 %
285 12-02-2020 23:26:18 1.7 C 44 %
286 12-02-2020 23:37:17 1.4 C 44 %
287 12-02-2020 23:47:17 1.7 C 43 %
288 12-02-2020 23:57:17 2.4 C 41 %
289 13-02-2020 00:07:17 1.8 C 41 %
290 13-02-2020 00:17:17 1.9 C 42 %
291 13-02-2020 00:27:17 1.7 C 42 %
292 13-02-2020 00:36:18 1.5 C 43 %
293 13-02-2020 00:46:17 1.6 C 44 %
294 13-02-2020 00:56:18 2 C 41 %
295 13-02-2020 01:06:18 1.7 C 42 %
296 13-02-2020 01:17:17 1.6 C 43 %
297 13-02-2020 01:27:17 1.7 C 43 %
298 13-02-2020 01:37:17 1.6 C 43 %
299 13-02-2020 01:47:17 1.6 C 43 %
300 13-02-2020 01:57:17 1.3 C 43 %
Sensor: Nr:Datum:Temp:Feuchte:
Aussen-T/F 301 13-02-2020 02:07:18 1.3 C 43 %
302 13-02-2020 02:17:18 0.6 C 45 %
303 13-02-2020 02:27:18 0.2 C 45 %
304 13-02-2020 02:37:17 0.2 C 47 %
305 13-02-2020 02:47:17 0.1 C 47 %
306 13-02-2020 02:57:17 0.1 C 47 %
307 13-02-2020 03:07:17 0.4 C 48 %
308 13-02-2020 03:17:17 0.4 C 47 %
309 13-02-2020 03:27:17 0.4 C 46 %
310 13-02-2020 03:37:17 -0.4 C 45 %
311 13-02-2020 03:47:17 0.1 C 47 %
312 13-02-2020 03:57:17 -0.1 C 47 %
313 13-02-2020 04:07:17 -0.3 C 47 %
314 13-02-2020 04:17:17 -0.3 C 47 %
315 13-02-2020 04:27:17 -0.7 C 47 %
316 13-02-2020 04:37:18 -0.7 C 47 %
317 13-02-2020 04:47:17 -0.7 C 47 %
318 13-02-2020 04:57:17 -0.7 C 47 %
319 13-02-2020 05:07:18 -1 C 47 %
320 13-02-2020 05:17:17 -1.3 C 46 %
321 13-02-2020 05:27:17 -1.3 C 47 %
322 13-02-2020 05:37:17 -1.1 C 47 %
323 13-02-2020 05:47:17 -1 C 47 %
324 13-02-2020 05:57:17 -0.7 C 47 %
325 13-02-2020 06:07:17 -0.2 C 47 %
Sensor: Nr:Datum:Temp:Feuchte:
Aussen-T/F 326 13-02-2020 06:17:17 -0.3 C 47 %
327 13-02-2020 06:27:17 -0.3 C 47 %
328 13-02-2020 06:37:18 -0.4 C 47 %
329 13-02-2020 06:47:17 -0.4 C 47 %
330 13-02-2020 06:57:18 -0.2 C 47 %
331 13-02-2020 07:07:18 -0.2 C 47 %
332 13-02-2020 07:17:18 -0.2 C 47 %
333 13-02-2020 07:27:18 -0.2 C 47 %
334 13-02-2020 07:37:17 0.1 C 47 %
335 13-02-2020 07:47:18 0.6 C 47 %
336 13-02-2020 07:57:18 0.8 C 47 %
337 13-02-2020 08:07:17 0.9 C 47 %
338 13-02-2020 08:17:17 1.1 C 46 %
339 13-02-2020 08:27:17 1.4 C 46 %
340 13-02-2020 08:37:17 1.6 C 46 %
341 13-02-2020 08:47:17 2 C 45 %
342 13-02-2020 08:57:17 2.2 C 43 %
343 13-02-2020 09:07:18 2.3 C 43 %
344 13-02-2020 09:17:17 2.5 C 42 %
345 13-02-2020 09:27:17 2.9 C 41 %
346 13-02-2020 09:37:17 3 C 40 %
347 13-02-2020 09:47:18 3 C 40 %
348 13-02-2020 09:57:18 3 C 40 %
349 13-02-2020 10:07:17 3 C 40 %
350 13-02-2020 10:17:17 3.9 C 37 %
Sensor: Nr:Datum:Temp:Feuchte:
Aussen-T/F 351 13-02-2020 10:27:17 4.2 C 35 %
352 13-02-2020 10:37:17 4.4 C 35 %
353 13-02-2020 10:47:17 5.1 C 33 %
354 13-02-2020 10:57:17 5.1 C 32 %
355 13-02-2020 11:07:17 5.4 C 31 %
356 13-02-2020 11:17:17 5.9 C 32 %
357 13-02-2020 11:27:17 6.4 C 30 %
358 13-02-2020 11:37:17 6.4 C 29 %
359 13-02-2020 11:47:18 6.1 C 29 %
360 13-02-2020 11:57:18 6 C 29 %
361 13-02-2020 12:07:17 6 C 30 %
362 13-02-2020 12:17:17 5.4 C 31 %
363 13-02-2020 12:27:17 5 C 32 %
364 13-02-2020 12:37:18 4.9 C 35 %
365 13-02-2020 12:47:17 4.6 C 35 %
366 13-02-2020 12:57:17 4.6 C 36 %
367 13-02-2020 13:07:18 4.5 C 37 %
368 13-02-2020 13:17:17 4.3 C 39 %
369 13-02-2020 13:27:17 4.4 C 41 %
370 13-02-2020 13:37:17 4.4 C 40 %
371 13-02-2020 13:47:17 4.3 C 40 %
372 13-02-2020 13:57:17 4.6 C 39 %
373 13-02-2020 14:07:17 4.4 C 39 %
374 13-02-2020 14:17:17 4.3 C 40 %
375 13-02-2020 14:27:17 4.9 C 41 %
Sensor: Nr:Datum:Temp:Feuchte:
Aussen-T/F 376 13-02-2020 14:37:17 4.8 C 40 %
377 13-02-2020 14:47:17 4.8 C 40 %
378 13-02-2020 14:57:17 4.8 C 41 %
379 13-02-2020 15:07:17 4.8 C 42 %
380 13-02-2020 15:17:17 5.1 C 42 %
381 13-02-2020 15:27:17 5.3 C 41 %
382 13-02-2020 15:37:18 5.5 C 41 %
383 13-02-2020 15:47:18 5.4 C 41 %
384 13-02-2020 15:57:18 6.9 C 38 %
385 13-02-2020 16:07:17 8.4 C 35 %
386 13-02-2020 16:17:17 10.2 C 31 %
387 13-02-2020 16:27:17 8.7 C 32 %
388 13-02-2020 16:37:17 6.9 C 36 %
389 13-02-2020 16:47:18 5.9 C 41 %
390 13-02-2020 16:57:18 5.8 C 43 %
391 13-02-2020 17:07:17 5.8 C 43 %
392 13-02-2020 17:17:17 5.7 C 43 %
393 13-02-2020 17:27:17 5.6 C 43 %
394 13-02-2020 17:37:17 5.2 C 44 %
395 13-02-2020 17:47:17 5 C 44 %
396 13-02-2020 17:57:18 4.6 C 45 %
397 13-02-2020 18:07:18 4.5 C 45 %
398 13-02-2020 18:17:17 4.5 C 45 %
399 13-02-2020 18:27:17 4.7 C 45 %
400 13-02-2020 18:37:17 4.6 C 45 %
Sensor: Nr:Datum:Temp:Feuchte:
Aussen-T/F 401 13-02-2020 18:47:17 4.7 C 45 %
402 13-02-2020 18:57:17 4.4 C 44 %
403 13-02-2020 19:07:17 4.6 C 44 %
404 13-02-2020 19:17:17 4.3 C 43 %
405 13-02-2020 19:27:17 4.4 C 43 %
406 13-02-2020 19:37:17 4.3 C 44 %
407 13-02-2020 19:47:17 4.3 C 44 %
408 13-02-2020 19:57:17 4.4 C 44 %
409 13-02-2020 20:07:18 4.6 C 45 %
410 13-02-2020 20:17:17 4.5 C 45 %
411 13-02-2020 20:27:17 4.5 C 45 %
412 13-02-2020 20:37:17 4.6 C 45 %
413 13-02-2020 20:47:18 4.7 C 45 %
414 13-02-2020 20:57:18 4.7 C 45 %
415 13-02-2020 21:07:17 4.7 C 45 %
416 13-02-2020 21:17:17 4.8 C 45 %
417 13-02-2020 21:27:17 4.7 C 45 %
418 13-02-2020 21:37:18 4.7 C 45 %
419 13-02-2020 21:47:18 4.7 C 45 %
420 13-02-2020 21:57:18 5.3 C 45 %
421 13-02-2020 22:07:17 5.8 C 45 %
422 13-02-2020 22:17:17 5.9 C 41 %
423 13-02-2020 22:27:17 6.1 C 40 %
424 13-02-2020 22:37:17 6.3 C 40 %
425 13-02-2020 22:47:17 6.5 C 38 %
Sensor: Nr:Datum:Temp:Feuchte:
Aussen-T/F 426 13-02-2020 22:57:17 6.8 C 37 %
427 13-02-2020 23:07:17 6.4 C 37 %
428 13-02-2020 23:17:17 6.1 C 40 %
429 13-02-2020 23:27:17 5.8 C 42 %
430 13-02-2020 23:37:17 5.7 C 45 %
431 13-02-2020 23:47:18 5.8 C 44 %
432 13-02-2020 23:57:18 5.8 C 43 %
433 14-02-2020 00:07:18 5.8 C 43 %
434 14-02-2020 00:17:17 5.8 C 42 %
435 14-02-2020 00:27:17 5.8 C 42 %
436 14-02-2020 00:37:17 5.8 C 43 %
437 14-02-2020 00:47:17 5.8 C 42 %
438 14-02-2020 00:57:17 5.7 C 42 %
439 14-02-2020 01:07:17 5.6 C 41 %
440 14-02-2020 01:17:18 5.7 C 40 %
441 14-02-2020 01:27:18 5.6 C 41 %
442 14-02-2020 01:37:18 5.9 C 39 %
443 14-02-2020 01:47:18 5.6 C 40 %
444 14-02-2020 01:57:18 5.5 C 41 %
445 14-02-2020 02:07:17 5.8 C 40 %
446 14-02-2020 02:17:17 5.8 C 40 %
447 14-02-2020 02:27:17 5.6 C 41 %
448 14-02-2020 02:37:18 5.8 C 41 %
449 14-02-2020 02:47:18 5.8 C 40 %
450 14-02-2020 02:57:18 6 C 38 %
Sensor: Nr:Datum:Temp:Feuchte:
Aussen-T/F 451 14-02-2020 03:07:17 6 C 38 %
452 14-02-2020 03:17:17 5.8 C 39 %
453 14-02-2020 03:27:17 5.6 C 42 %
454 14-02-2020 03:37:17 5.6 C 42 %
455 14-02-2020 03:47:17 5.3 C 44 %
456 14-02-2020 03:57:17 5.2 C 45 %
457 14-02-2020 04:07:18 5.2 C 45 %
458 14-02-2020 04:17:18 5.1 C 45 %
459 14-02-2020 04:27:18 5 C 44 %
460 14-02-2020 04:37:17 5 C 45 %
461 14-02-2020 04:47:18 4.9 C 44 %
462 14-02-2020 04:57:18 4.8 C 44 %
463 14-02-2020 05:07:18 4.6 C 45 %
464 14-02-2020 05:17:17 4.9 C 45 %
465 14-02-2020 05:27:17 5 C 43 %
466 14-02-2020 05:37:17 4.9 C 45 %
467 14-02-2020 05:47:17 4.8 C 45 %
468 14-02-2020 05:57:17 4.8 C 46 %
469 14-02-2020 06:07:17 4.8 C 46 %
470 14-02-2020 06:17:17 4.7 C 45 %
471 14-02-2020 06:27:17 4.7 C 45 %
472 14-02-2020 06:37:17 4.7 C 45 %
473 14-02-2020 06:47:17 4.7 C 45 %
474 14-02-2020 06:57:17 4.7 C 45 %
475 14-02-2020 07:07:17 4.7 C 45 %
Sensor: Nr:Datum:Temp:Feuchte:
Aussen-T/F 476 14-02-2020 07:17:17 4.7 C 45 %
477 14-02-2020 07:27:17 4.6 C 45 %
478 14-02-2020 07:37:18 4.6 C 45 %
479 14-02-2020 07:47:17 4.6 C 43 %
480 14-02-2020 07:57:18 4.7 C 43 %
481 14-02-2020 08:07:17 4.6 C 42 %
482 14-02-2020 08:17:17 4.6 C 43 %
483 14-02-2020 08:27:17 4.6 C 43 %
484 14-02-2020 08:37:18 4.8 C 41 %
485 14-02-2020 08:47:18 5 C 40 %
486 14-02-2020 08:57:18 5.3 C 38 %
487 14-02-2020 09:07:17 5.4 C 37 %
488 14-02-2020 09:17:17 5.6 C 36 %
489 14-02-2020 09:27:17 5.9 C 36 %
490 14-02-2020 09:37:17 5.8 C 36 %
491 14-02-2020 09:47:17 5.3 C 36 %
492 14-02-2020 09:57:17 5.4 C 37 %
493 14-02-2020 10:07:17 5.5 C 36 %
494 14-02-2020 10:17:17 5.4 C 37 %
495 14-02-2020 10:27:17 5.4 C 36 %
496 14-02-2020 10:37:18 5.5 C 36 %
497 14-02-2020 10:47:17 5.8 C 36 %
498 14-02-2020 10:57:18 5.9 C 35 %
499 14-02-2020 11:07:18 6.2 C 35 %
500 14-02-2020 11:17:18 6.1 C 35 %
Sensor: Nr:Datum:Temp:Feuchte:
Aussen-T/F 501 14-02-2020 11:27:18 6.1 C 35 %
502 14-02-2020 11:37:17 6.2 C 35 %
503 14-02-2020 11:47:18 6.3 C 35 %
504 14-02-2020 11:57:18 6.4 C 35 %
505 14-02-2020 12:07:17 6.6 C 35 %
506 14-02-2020 12:17:17 6.8 C 35 %
507 14-02-2020 12:27:17 6.9 C 34 %
508 14-02-2020 12:37:17 7 C 33 %
509 14-02-2020 12:47:18 7.2 C 32 %
510 14-02-2020 12:57:18 7.3 C 32 %
511 14-02-2020 13:07:17 7.5 C 32 %
512 14-02-2020 13:17:17 7.3 C 31 %
513 14-02-2020 13:27:17 7.5 C 31 %
514 14-02-2020 13:37:17 7.5 C 31 %
515 14-02-2020 13:47:17 7.5 C 31 %
516 14-02-2020 13:57:17 7.7 C 31 %
517 14-02-2020 14:07:18 7.9 C 31 %
518 14-02-2020 14:17:18 7.9 C 31 %
519 14-02-2020 14:27:18 7.9 C 30 %
520 14-02-2020 14:37:17 7.9 C 30 %
521 14-02-2020 14:47:18 7.9 C 30 %
522 14-02-2020 14:57:18 7.9 C 30 %
523 14-02-2020 15:07:17 7.9 C 30 %
524 14-02-2020 15:17:17 7.8 C 30 %
525 14-02-2020 15:27:17 8 C 30 %
Sensor: Nr:Datum:Temp:Feuchte:
Aussen-T/F 526 14-02-2020 15:37:17 8.1 C 30 %
527 14-02-2020 15:47:17 8.2 C 30 %
528 14-02-2020 15:57:17 8.1 C 29 %
529 14-02-2020 16:07:17 8.2 C 29 %
530 14-02-2020 16:17:17 8.1 C 30 %
531 14-02-2020 16:27:17 8.1 C 30 %
532 14-02-2020 16:37:18 7.9 C 31 %
533 14-02-2020 16:47:18 7.7 C 33 %
534 14-02-2020 16:57:18 7.5 C 34 %
535 14-02-2020 17:07:18 7.1 C 34 %
536 14-02-2020 17:17:17 6.9 C 36 %
537 14-02-2020 17:27:17 6.7 C 36 %
538 14-02-2020 17:37:17 6.4 C 36 %
539 14-02-2020 17:47:17 6.2 C 37 %
540 14-02-2020 17:57:17 6.2 C 37 %
541 14-02-2020 18:07:17 6.2 C 37 %
542 14-02-2020 18:17:17 6.2 C 37 %
543 14-02-2020 18:27:18 6.1 C 37 %
544 14-02-2020 18:37:17 6.2 C 37 %
545 14-02-2020 18:47:17 6.2 C 37 %
546 14-02-2020 18:57:17 5.8 C 38 %
547 14-02-2020 19:07:18 5.7 C 38 %
548 14-02-2020 19:17:17 5.4 C 38 %
549 14-02-2020 19:27:17 5 C 38 %
550 14-02-2020 19:37:17 4.7 C 40 %
Sensor: Nr:Datum:Temp:Feuchte:
Aussen-T/F 551 14-02-2020 19:47:17 4.7 C 41 %
552 14-02-2020 19:57:17 4.5 C 42 %
553 14-02-2020 20:07:17 4.6 C 42 %
554 14-02-2020 20:17:17 4.3 C 41 %
555 14-02-2020 20:27:17 3.9 C 42 %
556 14-02-2020 20:37:18 3.6 C 45 %
557 14-02-2020 20:47:17 3.5 C 44 %
558 14-02-2020 20:57:17 3.3 C 45 %
559 14-02-2020 21:07:17 3.4 C 46 %
560 14-02-2020 21:17:17 3.3 C 45 %
561 14-02-2020 21:27:17 2.8 C 46 %
562 14-02-2020 21:37:17 2.7 C 46 %
563 14-02-2020 21:47:17 2.7 C 46 %
564 14-02-2020 21:57:17 2.5 C 46 %
565 14-02-2020 22:07:17 2.3 C 46 %
566 14-02-2020 22:17:17 2.5 C 47 %
567 14-02-2020 22:27:17 2.5 C 46 %
568 14-02-2020 22:37:17 2.1 C 46 %
569 14-02-2020 22:47:17 2 C 46 %
570 14-02-2020 22:57:17 1.8 C 47 %
571 14-02-2020 23:07:18 2.1 C 46 %
572 14-02-2020 23:17:18 2.1 C 46 %
573 14-02-2020 23:27:18 2.5 C 47 %
574 14-02-2020 23:37:17 1.9 C 47 %
575 14-02-2020 23:47:18 1.6 C 47 %
Sensor: Nr:Datum:Temp:Feuchte:
Aussen-T/F 576 14-02-2020 23:57:18 1.7 C 47 %
577 15-02-2020 00:07:18 1.6 C 47 %
578 15-02-2020 00:17:17 1.7 C 47 %
579 15-02-2020 00:27:17 1.7 C 47 %
580 15-02-2020 00:37:17 1.7 C 47 %
581 15-02-2020 00:47:17 1.8 C 47 %
582 15-02-2020 00:57:17 1.9 C 47 %
583 15-02-2020 01:07:17 2.1 C 46 %
584 15-02-2020 01:17:17 2.5 C 46 %
585 15-02-2020 01:27:17 2.4 C 46 %
586 15-02-2020 01:37:18 2.4 C 46 %
587 15-02-2020 01:47:17 2.6 C 46 %
588 15-02-2020 01:57:17 2.4 C 46 %
589 15-02-2020 02:07:18 2.3 C 46 %
590 15-02-2020 02:17:17 2.6 C 46 %
591 15-02-2020 02:27:17 2.3 C 46 %
592 15-02-2020 02:37:17 2.2 C 46 %
593 15-02-2020 02:47:17 2 C 45 %
594 15-02-2020 02:57:17 2 C 46 %
595 15-02-2020 03:07:18 1.9 C 47 %
596 15-02-2020 03:17:18 1.7 C 46 %
597 15-02-2020 03:27:18 1.7 C 46 %
598 15-02-2020 03:37:17 1.8 C 47 %
599 15-02-2020 03:47:18 1.3 C 46 %
600 15-02-2020 03:57:18 1.3 C 46 %
Sensor: Nr:Datum:Temp:Feuchte:
Aussen-T/F 601 15-02-2020 04:07:17 1.4 C 46 %
602 15-02-2020 04:17:17 1.2 C 46 %
603 15-02-2020 04:27:17 1.3 C 46 %
604 15-02-2020 04:37:17 1.2 C 46 %
605 15-02-2020 04:47:17 1.5 C 46 %
606 15-02-2020 04:57:17 1.4 C 46 %
607 15-02-2020 05:07:17 1.1 C 46 %
608 15-02-2020 05:17:17 1 C 46 %
609 15-02-2020 05:27:17 0.9 C 47 %
610 15-02-2020 05:37:18 1.2 C 46 %
611 15-02-2020 05:47:17 0.8 C 47 %
612 15-02-2020 05:57:17 0.8 C 47 %
613 15-02-2020 06:07:18 1 C 46 %
614 15-02-2020 06:17:17 0.7 C 47 %
615 15-02-2020 06:27:18 0.6 C 47 %
616 15-02-2020 06:37:18 0.5 C 47 %
617 15-02-2020 06:47:17 0.7 C 47 %
618 15-02-2020 06:57:17 0.7 C 47 %
619 15-02-2020 07:07:18 0.7 C 47 %
620 15-02-2020 07:17:18 0.3 C 47 %
621 15-02-2020 07:27:18 0.3 C 47 %
622 15-02-2020 07:37:18 0.8 C 47 %
623 15-02-2020 07:47:17 1.1 C 46 %
624 15-02-2020 07:57:18 1.1 C 46 %
625 15-02-2020 08:07:17 0.9 C 47 %
Sensor: Nr:Datum:Temp:Feuchte:
Aussen-T/F 626 15-02-2020 08:17:18 1.3 C 46 %
627 15-02-2020 08:27:18 1.8 C 46 %
628 15-02-2020 08:37:18 2 C 45 %
629 15-02-2020 08:47:17 2 C 45 %
630 15-02-2020 08:57:18 2.6 C 45 %
631 15-02-2020 09:07:18 2.8 C 45 %
632 15-02-2020 09:17:17 3.1 C 45 %
633 15-02-2020 09:27:17 3.2 C 45 %
634 15-02-2020 09:37:17 3.6 C 45 %
635 15-02-2020 09:47:17 3.7 C 45 %
636 15-02-2020 09:57:17 4.2 C 44 %
637 15-02-2020 10:07:17 3.7 C 44 %
638 15-02-2020 10:17:17 4.4 C 44 %
639 15-02-2020 10:27:17 4.6 C 44 %
640 15-02-2020 10:37:18 5.1 C 43 %
641 15-02-2020 10:47:17 5.4 C 43 %
642 15-02-2020 10:57:17 5.6 C 42 %
643 15-02-2020 11:07:18 6.4 C 40 %
644 15-02-2020 11:17:18 6.9 C 41 %
645 15-02-2020 11:27:18 6.8 C 40 %
646 15-02-2020 11:37:17 7.3 C 41 %
647 15-02-2020 11:47:18 8 C 40 %
648 15-02-2020 11:57:18 8.4 C 36 %
649 15-02-2020 12:07:18 8.7 C 36 %
650 15-02-2020 12:17:17 9.1 C 37 %
Sensor: Nr:Datum:Temp:Feuchte:
Aussen-T/F 651 15-02-2020 12:27:17 9.9 C 36 %
652 15-02-2020 12:37:17 10.3 C 33 %
653 15-02-2020 12:47:17 10.7 C 32 %
654 15-02-2020 12:57:17 11.3 C 30 %
655 15-02-2020 13:07:18 11.6 C 30 %
656 15-02-2020 13:17:17 13.7 C 21 %
657 15-02-2020 13:27:17 14.7 C 20 %
658 15-02-2020 13:37:17 15.7 C 20 %
659 15-02-2020 13:47:17 14.1 C 20 %
660 15-02-2020 13:57:17 13 C 20 %
661 15-02-2020 14:07:18 11.4 C 24 %
662 15-02-2020 14:17:17 11.2 C 25 %
663 15-02-2020 14:27:17 11.2 C 25 %
664 15-02-2020 14:37:17 11.3 C 25 %
665 15-02-2020 14:47:17 11 C 25 %
666 15-02-2020 14:57:17 11.9 C 23 %
667 15-02-2020 15:07:17 11.3 C 26 %
668 15-02-2020 15:17:17 12.5 C 21 %
669 15-02-2020 15:27:17 12.7 C 20 %
670 15-02-2020 15:37:18 12.1 C 21 %
671 15-02-2020 15:47:17 11.9 C 23 %
672 15-02-2020 15:57:18 11.7 C 25 %
673 15-02-2020 16:07:18 12.1 C 21 %
674 15-02-2020 16:17:18 12.1 C 23 %
675 15-02-2020 16:27:18 11.4 C 25 %
Sensor: Nr:Datum:Temp:Feuchte:
Aussen-T/F 676 15-02-2020 16:37:18 9.8 C 30 %
677 15-02-2020 16:47:18 9.3 C 30 %
678 15-02-2020 16:57:18 9.2 C 30 %
679 15-02-2020 17:07:17 8.5 C 32 %
680 15-02-2020 17:17:17 8.4 C 33 %
681 15-02-2020 17:27:17 7.8 C 35 %
682 15-02-2020 17:37:18 7.4 C 35 %
683 15-02-2020 17:47:18 7.3 C 35 %
684 15-02-2020 17:57:18 7.3 C 36 %
685 15-02-2020 18:07:17 7.3 C 36 %
686 15-02-2020 18:17:17 7.1 C 36 %
687 15-02-2020 18:27:17 7.1 C 36 %
688 15-02-2020 18:37:17 6.8 C 36 %
689 15-02-2020 18:47:17 7.1 C 36 %
690 15-02-2020 18:57:17 7 C 36 %
691 15-02-2020 19:07:17 6.9 C 36 %
692 15-02-2020 19:17:18 6.8 C 36 %
693 15-02-2020 19:27:18 6.9 C 37 %
694 15-02-2020 19:37:18 7.1 C 36 %
695 15-02-2020 19:47:17 6.7 C 37 %
696 15-02-2020 19:57:17 6.7 C 37 %
697 15-02-2020 20:07:17 7.1 C 35 %
698 15-02-2020 20:17:17 7.1 C 35 %
699 15-02-2020 20:27:17 7.4 C 35 %
700 15-02-2020 20:37:18 7.4 C 35 %
Sensor: Nr:Datum:Temp:Feuchte:
Aussen-T/F 701 15-02-2020 20:47:17 7.6 C 35 %
702 15-02-2020 20:57:18 7.8 C 35 %
703 15-02-2020 21:07:18 7.6 C 35 %
704 15-02-2020 21:17:18 7.6 C 35 %
705 15-02-2020 21:27:18 8.1 C 33 %
706 15-02-2020 21:37:17 7.8 C 34 %
707 15-02-2020 21:47:17 7.6 C 34 %
708 15-02-2020 21:57:17 7.7 C 34 %
709 15-02-2020 22:07:17 7.9 C 33 %
710 15-02-2020 22:17:18 7.7 C 34 %
711 15-02-2020 22:27:18 8.4 C 32 %
712 15-02-2020 22:37:18 8.2 C 32 %
713 15-02-2020 22:47:18 8.4 C 32 %
714 15-02-2020 22:57:18 8.6 C 32 %
715 15-02-2020 23:07:18 10.6 C 29 %
716 15-02-2020 23:17:17 9.7 C 30 %
717 15-02-2020 23:27:17 9.2 C 31 %
718 15-02-2020 23:37:17 9.1 C 31 %
719 15-02-2020 23:47:18 10 C 29 %
720 15-02-2020 23:57:18 9.8 C 30 %
721 16-02-2020 00:07:18 9.3 C 30 %
722 16-02-2020 00:17:17 9.8 C 30 %
723 16-02-2020 00:27:17 9.2 C 30 %
724 16-02-2020 00:37:17 9.2 C 30 %
725 16-02-2020 00:47:17 10 C 29 %
Sensor: Nr:Datum:Temp:Feuchte:
Aussen-T/F 726 16-02-2020 00:57:17 9.7 C 30 %
727 16-02-2020 01:07:18 9.7 C 30 %
728 16-02-2020 01:17:18 10.5 C 29 %
729 16-02-2020 01:27:18 10.4 C 29 %
730 16-02-2020 01:37:18 9.7 C 30 %
731 16-02-2020 01:47:18 9.7 C 30 %
732 16-02-2020 01:57:18 10 C 30 %
733 16-02-2020 02:07:17 10.5 C 30 %
734 16-02-2020 02:17:17 10.5 C 30 %
735 16-02-2020 02:27:18 10.8 C 29 %
736 16-02-2020 02:37:18 10.6 C 30 %
737 16-02-2020 02:47:18 10.9 C 30 %
738 16-02-2020 02:57:18 11.1 C 28 %
739 16-02-2020 03:07:17 11.4 C 28 %
740 16-02-2020 03:17:17 11.4 C 28 %
741 16-02-2020 03:27:17 12.1 C 27 %
742 16-02-2020 03:37:18 12 C 27 %
743 16-02-2020 03:47:17 12.3 C 27 %
744 16-02-2020 03:57:18 12.4 C 26 %
745 16-02-2020 04:07:18 12.1 C 26 %
746 16-02-2020 04:17:18 12.2 C 26 %
747 16-02-2020 04:27:18 12 C 26 %
748 16-02-2020 04:37:17 11.7 C 27 %
749 16-02-2020 04:47:17 11.8 C 26 %
750 16-02-2020 04:57:17 11.7 C 26 %
Sensor: Nr:Datum:Temp:Feuchte:
Aussen-T/F 751 16-02-2020 05:07:17 11.5 C 27 %
752 16-02-2020 05:17:17 11.3 C 27 %
753 16-02-2020 05:27:18 11.5 C 27 %
754 16-02-2020 05:37:18 11.4 C 27 %
755 16-02-2020 05:47:17 11.6 C 27 %
756 16-02-2020 05:57:18 12.2 C 25 %
757 16-02-2020 06:07:17 12.6 C 25 %
758 16-02-2020 06:17:17 12.6 C 25 %
759 16-02-2020 06:27:17 12.9 C 24 %
760 16-02-2020 06:37:18 13.1 C 21 %
761 16-02-2020 06:47:17 13.6 C 21 %
762 16-02-2020 06:57:17 13.2 C 21 %
763 16-02-2020 07:07:17 13.5 C 22 %
764 16-02-2020 07:17:17 13.5 C 23 %
765 16-02-2020 07:27:17 13.8 C 23 %
766 16-02-2020 07:37:17 14.1 C 23 %
767 16-02-2020 07:47:17 13.9 C 24 %
768 16-02-2020 07:57:17 13.7 C 25 %
769 16-02-2020 08:07:18 13.8 C 25 %
770 16-02-2020 08:17:17 13.4 C 25 %
771 16-02-2020 08:27:17 13.3 C 25 %
772 16-02-2020 08:37:18 13.4 C 25 %
773 16-02-2020 08:47:17 13.6 C 25 %
774 16-02-2020 08:57:17 13.6 C 25 %
775 16-02-2020 09:07:18 13.7 C 25 %
Sensor: Nr:Datum:Temp:Feuchte:
Aussen-T/F 776 16-02-2020 09:17:17 13.9 C 25 %
777 16-02-2020 09:27:17 14 C 25 %
778 16-02-2020 09:37:17 14 C 23 %
779 16-02-2020 09:47:18 14.1 C 23 %
780 16-02-2020 09:57:18 14.2 C 23 %
781 16-02-2020 10:07:18 14.3 C 23 %
782 16-02-2020 10:17:18 14.2 C 23 %
783 16-02-2020 10:27:18 14.5 C 23 %
784 16-02-2020 10:37:18 14.7 C 22 %
785 16-02-2020 10:47:18 15.1 C 21 %
786 16-02-2020 10:57:18 15.2 C 21 %
787 16-02-2020 11:07:17 15.2 C 20 %
788 16-02-2020 11:17:17 15.8 C 20 %
789 16-02-2020 11:27:17 16.1 C 20 %
790 16-02-2020 11:37:17 16.1 C 20 %
791 16-02-2020 11:47:17 16.4 C 20 %
792 16-02-2020 11:57:17 16.3 C 20 %
793 16-02-2020 12:07:17 16.4 C 20 %
794 16-02-2020 12:17:17 17 C 20 %
795 16-02-2020 12:27:17 17.3 C 20 %
796 16-02-2020 12:37:18 17.2 C 20 %
797 16-02-2020 12:47:18 17.9 C 20 %
798 16-02-2020 12:57:18 18.6 C 20 %
799 16-02-2020 13:07:18 17.9 C 20 %
800 16-02-2020 13:17:18 18.6 C 20 %
Sensor: Nr:Datum:Temp:Feuchte:
Aussen-T/F 801 16-02-2020 13:27:18 18.1 C 20 %
802 16-02-2020 13:37:17 20 C 20 %
803 16-02-2020 13:47:17 19.1 C 20 %
804 16-02-2020 13:57:17 18 C 20 %
805 16-02-2020 14:07:17 18 C 20 %
806 16-02-2020 14:17:17 18.2 C 20 %
807 16-02-2020 14:27:17 18.5 C 20 %
808 16-02-2020 14:37:18 18.3 C 20 %
809 16-02-2020 14:47:17 18.6 C 20 %
810 16-02-2020 14:57:17 18.5 C 20 %
811 16-02-2020 15:07:18 18.1 C 20 %
812 16-02-2020 15:17:17 18 C 20 %
813 16-02-2020 15:27:17 17.9 C 20 %
814 16-02-2020 15:37:17 18 C 20 %
815 16-02-2020 15:47:17 18.4 C 20 %
816 16-02-2020 15:57:17 18.7 C 20 %
817 16-02-2020 16:07:18 18.6 C 20 %
818 16-02-2020 16:17:17 18.4 C 20 %
819 16-02-2020 16:27:17 18.4 C 20 %
820 16-02-2020 16:37:17 17.8 C 20 %
821 16-02-2020 16:47:17 17.2 C 20 %
822 16-02-2020 16:57:17 16.6 C 20 %
823 16-02-2020 17:07:17 16.3 C 20 %
824 16-02-2020 17:17:18 16 C 20 %
825 16-02-2020 17:27:18 15.3 C 20 %
Sensor: Nr:Datum:Temp:Feuchte:
Aussen-T/F 826 16-02-2020 17:37:17 15 C 20 %
827 16-02-2020 17:47:18 14.9 C 20 %
828 16-02-2020 17:57:18 14.7 C 20 %
829 16-02-2020 18:07:17 15.3 C 20 %
830 16-02-2020 18:17:17 14.9 C 20 %
831 16-02-2020 18:27:17 15.1 C 20 %
832 16-02-2020 18:37:18 15 C 20 %
833 16-02-2020 18:47:17 15.7 C 20 %
834 16-02-2020 18:57:18 14.9 C 20 %
835 16-02-2020 19:07:18 15.9 C 20 %
836 16-02-2020 19:17:17 15.4 C 20 %
837 16-02-2020 19:27:17 15.9 C 20 %
838 16-02-2020 19:37:18 15.5 C 20 %
839 16-02-2020 19:47:17 15.8 C 20 %
840 16-02-2020 19:57:18 15.4 C 20 %
841 16-02-2020 20:07:18 15.7 C 20 %
842 16-02-2020 20:17:17 15.9 C 20 %
843 16-02-2020 20:27:17 15.9 C 20 %
844 16-02-2020 20:37:17 15.8 C 20 %
845 16-02-2020 20:47:17 16 C 20 %
846 16-02-2020 20:57:17 16.1 C 20 %
847 16-02-2020 21:07:18 16.2 C 20 %
848 16-02-2020 21:17:17 16.1 C 20 %
849 16-02-2020 21:27:17 16.3 C 20 %
850 16-02-2020 21:37:17 16.3 C 20 %
Sensor: Nr:Datum:Temp:Feuchte:
Aussen-T/F 851 16-02-2020 21:47:17 16.8 C 20 %
852 16-02-2020 21:57:17 16.5 C 20 %
853 16-02-2020 22:07:18 16.3 C 20 %
854 16-02-2020 22:17:18 16.2 C 20 %
855 16-02-2020 22:27:18 16.1 C 20 %
856 16-02-2020 22:37:17 16.1 C 20 %
857 16-02-2020 22:47:17 16 C 20 %
858 16-02-2020 22:57:17 15.8 C 20 %
859 16-02-2020 23:07:17 15.2 C 20 %
860 16-02-2020 23:17:18 12.5 C 30 %
861 16-02-2020 23:27:18 10.5 C 34 %
862 16-02-2020 23:37:18 10.1 C 35 %
863 16-02-2020 23:47:18 9.8 C 35 %
864 16-02-2020 23:57:18 9.6 C 35 %
865 17-02-2020 00:07:18 9.3 C 36 %
866 17-02-2020 00:17:17 9.1 C 39 %
867 17-02-2020 00:27:17 9.1 C 37 %
868 17-02-2020 00:37:17 9.4 C 36 %
869 17-02-2020 00:47:18 9.1 C 35 %
870 17-02-2020 00:57:18 9.1 C 35 %
871 17-02-2020 01:07:18 8.9 C 36 %
872 17-02-2020 01:17:17 8.9 C 36 %
873 17-02-2020 01:27:17 9 C 35 %
874 17-02-2020 01:37:18 8.4 C 36 %
875 17-02-2020 01:47:17 8.2 C 37 %
Sensor: Nr:Datum:Temp:Feuchte:
Aussen-T/F 876 17-02-2020 01:57:18 7.9 C 41 %
877 17-02-2020 02:07:18 8.2 C 39 %
878 17-02-2020 02:17:17 8.4 C 35 %
879 17-02-2020 02:27:17 8.2 C 33 %
880 17-02-2020 02:37:17 8.1 C 32 %
881 17-02-2020 02:47:17 8 C 32 %
882 17-02-2020 02:57:17 8.1 C 31 %
883 17-02-2020 03:07:17 8.1 C 32 %
884 17-02-2020 03:17:17 8 C 32 %
885 17-02-2020 03:27:17 7.9 C 32 %
886 17-02-2020 03:37:17 8.1 C 32 %
887 17-02-2020 03:47:17 8.1 C 32 %
888 17-02-2020 03:57:17 8.1 C 32 %
889 17-02-2020 04:07:17 7.9 C 32 %
890 17-02-2020 04:17:18 7.9 C 32 %
891 17-02-2020 04:27:18 8.1 C 32 %
892 17-02-2020 04:37:17 7.8 C 33 %
893 17-02-2020 04:47:17 7.8 C 33 %
894 17-02-2020 04:57:17 7.8 C 33 %
895 17-02-2020 05:07:17 7.6 C 33 %
896 17-02-2020 05:17:18 7.6 C 33 %
897 17-02-2020 05:27:18 7.5 C 34 %
898 17-02-2020 05:37:17 7.5 C 34 %
899 17-02-2020 05:47:17 7.6 C 34 %
900 17-02-2020 05:57:17 7.4 C 34 %
Sensor: Nr:Datum:Temp:Feuchte:
Aussen-T/F 901 17-02-2020 06:07:17 7.4 C 34 %
902 17-02-2020 06:17:17 7.5 C 35 %
903 17-02-2020 06:27:17 7.9 C 34 %
904 17-02-2020 06:37:17 7.6 C 34 %
905 17-02-2020 06:47:17 7.9 C 34 %
906 17-02-2020 06:57:17 8 C 33 %
907 17-02-2020 07:07:18 7.9 C 34 %
908 17-02-2020 07:17:17 7.7 C 34 %
909 17-02-2020 07:27:17 7.5 C 35 %
910 17-02-2020 07:37:17 7.5 C 35 %
911 17-02-2020 07:47:17 7.3 C 35 %
912 17-02-2020 07:57:17 7.3 C 35 %
913 17-02-2020 08:07:18 7.7 C 35 %
914 17-02-2020 08:17:17 7.8 C 34 %
915 17-02-2020 08:27:17 7.9 C 34 %
916 17-02-2020 08:37:17 7.7 C 35 %
917 17-02-2020 08:47:17 8.2 C 33 %
918 17-02-2020 08:57:17 8.2 C 33 %
919 17-02-2020 09:07:17 8.3 C 33 %
920 17-02-2020 09:17:17 8.4 C 33 %
921 17-02-2020 09:27:17 8.4 C 33 %
922 17-02-2020 09:37:18 8.4 C 33 %
923 17-02-2020 09:47:17 8.3 C 33 %
924 17-02-2020 09:57:18 8.4 C 32 %
925 17-02-2020 10:07:18 8.5 C 32 %
Sensor: Nr:Datum:Temp:Feuchte:
Aussen-T/F 926 17-02-2020 10:17:17 8.6 C 32 %
927 17-02-2020 10:27:17 8.8 C 32 %
928 17-02-2020 10:37:17 9 C 32 %
929 17-02-2020 10:47:17 9.1 C 32 %
930 17-02-2020 10:57:17 9.1 C 31 %
931 17-02-2020 11:07:17 9.2 C 31 %
932 17-02-2020 11:17:17 9.2 C 31 %
933 17-02-2020 11:27:17 9.4 C 30 %
934 17-02-2020 11:37:17 9.4 C 30 %
935 17-02-2020 11:47:18 9.3 C 30 %
936 17-02-2020 11:57:18 9.4 C 30 %
937 17-02-2020 12:07:17 9.3 C 30 %
938 17-02-2020 12:17:17 9.3 C 30 %
939 17-02-2020 12:27:17 9.2 C 30 %
940 17-02-2020 12:37:17 9.5 C 29 %
941 17-02-2020 12:47:17 9.5 C 28 %
942 17-02-2020 12:57:17 9.6 C 28 %
943 17-02-2020 13:07:18 10 C 26 %
944 17-02-2020 13:17:17 10.4 C 26 %
945 17-02-2020 13:27:17 10.5 C 25 %
946 17-02-2020 13:37:17 11.2 C 24 %
947 17-02-2020 13:47:17 10.7 C 25 %
948 17-02-2020 13:57:17 10.4 C 25 %
949 17-02-2020 14:07:17 10.5 C 25 %
950 17-02-2020 14:17:18 10.5 C 25 %
Sensor: Nr:Datum:Temp:Feuchte:
Aussen-T/F 951 17-02-2020 14:27:18 11.1 C 25 %
952 17-02-2020 14:37:18 10.6 C 25 %
953 17-02-2020 14:47:18 10.5 C 25 %
954 17-02-2020 14:57:18 10.3 C 25 %
955 17-02-2020 15:07:17 11.1 C 25 %
956 17-02-2020 15:17:17 10.9 C 25 %
957 17-02-2020 15:27:17 11.2 C 24 %
958 17-02-2020 15:37:17 11.3 C 24 %
959 17-02-2020 15:47:17 11.2 C 24 %
960 17-02-2020 15:57:17 11.4 C 24 %
961 17-02-2020 16:07:17 10.8 C 25 %
962 17-02-2020 16:17:17 11.7 C 24 %
963 17-02-2020 16:27:17 11.1 C 24 %
964 17-02-2020 16:37:17 12.8 C 20 %
965 17-02-2020 16:47:17 12.9 C 20 %
966 17-02-2020 16:57:17 11.2 C 21 %
967 17-02-2020 17:07:18 10.2 C 25 %
968 17-02-2020 17:17:17 10.3 C 25 %
969 17-02-2020 17:27:17 9.5 C 27 %
970 17-02-2020 17:37:17 7 C 36 %
971 17-02-2020 17:47:17 7.1 C 35 %
972 17-02-2020 17:57:17 7.2 C 34 %
973 17-02-2020 18:07:18 7.1 C 33 %
974 17-02-2020 18:17:18 7.3 C 32 %
975 17-02-2020 18:27:18 7 C 33 %
Sensor: Nr:Datum:Temp:Feuchte:
Aussen-T/F 976 17-02-2020 18:37:18 6.7 C 33 %
977 17-02-2020 18:47:17 6.8 C 33 %
978 17-02-2020 18:57:18 6.8 C 33 %
979 17-02-2020 19:07:18 6.4 C 33 %
980 17-02-2020 19:17:17 5.7 C 35 %
981 17-02-2020 19:27:17 5.6 C 36 %
982 17-02-2020 19:37:17 5.7 C 36 %
983 17-02-2020 19:47:17 6.3 C 35 %
984 17-02-2020 19:57:17 5.3 C 36 %
985 17-02-2020 20:07:17 4.8 C 38 %
986 17-02-2020 20:17:17 4.6 C 40 %
987 17-02-2020 20:27:17 4.5 C 41 %
988 17-02-2020 20:37:17 4.4 C 42 %
989 17-02-2020 20:47:17 3.8 C 43 %
990 17-02-2020 20:57:17 4.1 C 44 %
991 17-02-2020 21:07:18 4.3 C 45 %
992 17-02-2020 21:17:17 5 C 43 %
993 17-02-2020 21:27:17 5.7 C 40 %
994 17-02-2020 21:37:17 5 C 39 %
995 17-02-2020 21:47:17 5.2 C 40 %
996 17-02-2020 21:57:17 5.1 C 40 %
997 17-02-2020 22:07:18 6.3 C 38 %
998 17-02-2020 22:17:17 7.1 C 35 %
999 17-02-2020 22:27:17 7.5 C 35 %
1000 17-02-2020 22:37:17 7.7 C 34 %
Sensor: Nr:Datum:Temp:Feuchte:
Aussen-T/F 1001 17-02-2020 22:47:17 7.9 C 34 %
1002 17-02-2020 22:57:17 8 C 33 %
1003 17-02-2020 23:07:17 8 C 33 %
1004 17-02-2020 23:17:18 7.8 C 33 %
1005 17-02-2020 23:27:18 6.9 C 35 %
1006 17-02-2020 23:37:17 7.2 C 35 %
1007 17-02-2020 23:47:18 7.7 C 33 %
1008 17-02-2020 23:57:18 7.6 C 33 %
1009 18-02-2020 00:07:18 7.8 C 32 %
1010 18-02-2020 00:17:17 7.8 C 32 %
1011 18-02-2020 00:27:17 7.9 C 32 %
1012 18-02-2020 00:37:18 7.8 C 31 %
1013 18-02-2020 00:47:18 7.9 C 31 %
1014 18-02-2020 00:57:18 7.8 C 31 %
1015 18-02-2020 01:07:18 7.8 C 31 %
1016 18-02-2020 01:17:17 7.8 C 31 %
1017 18-02-2020 01:27:17 7.7 C 31 %
1018 18-02-2020 01:37:17 7.7 C 32 %
1019 18-02-2020 01:47:17 7.5 C 32 %
1020 18-02-2020 01:57:17 7.5 C 32 %
1021 18-02-2020 02:07:18 7.4 C 32 %
1022 18-02-2020 02:17:17 7.2 C 32 %
1023 18-02-2020 02:27:17 7 C 32 %
1024 18-02-2020 02:37:17 7 C 32 %
1025 18-02-2020 02:47:18 6.8 C 33 %
Sensor: Nr:Datum:Temp:Feuchte:
Aussen-T/F 1026 18-02-2020 02:57:18 7.1 C 32 %
1027 18-02-2020 03:07:18 7.1 C 32 %
1028 18-02-2020 03:17:17 7.3 C 32 %
1029 18-02-2020 03:27:17 7.3 C 31 %
1030 18-02-2020 03:37:17 7.1 C 32 %
1031 18-02-2020 03:47:17 6.6 C 33 %
1032 18-02-2020 03:57:17 6.6 C 33 %
1033 18-02-2020 04:07:17 6.4 C 33 %
1034 18-02-2020 04:17:17 6.2 C 33 %
1035 18-02-2020 04:27:17 6.2 C 33 %
1036 18-02-2020 04:37:18 5.9 C 34 %
1037 18-02-2020 04:47:17 6.3 C 33 %
1038 18-02-2020 04:57:18 6 C 33 %
1039 18-02-2020 05:07:18 5.9 C 33 %
1040 18-02-2020 05:17:17 5.8 C 33 %
1041 18-02-2020 05:27:17 6 C 33 %
1042 18-02-2020 05:37:17 5.7 C 33 %
1043 18-02-2020 05:47:18 5.7 C 33 %
1044 18-02-2020 05:57:18 5.8 C 34 %
1045 18-02-2020 06:07:18 5.6 C 34 %
1046 18-02-2020 06:17:17 5.6 C 34 %
1047 18-02-2020 06:27:17 5.7 C 34 %
1048 18-02-2020 06:37:18 5.6 C 34 %
1049 18-02-2020 06:47:17 5.6 C 34 %
1050 18-02-2020 06:57:17 5.4 C 34 %
Sensor: Nr:Datum:Temp:Feuchte:
Aussen-T/F 1051 18-02-2020 07:07:18 5.2 C 34 %
1052 18-02-2020 07:17:18 5.4 C 34 %
1053 18-02-2020 07:27:18 5.3 C 35 %
1054 18-02-2020 07:37:17 5.1 C 35 %
1055 18-02-2020 07:47:17 5 C 35 %
1056 18-02-2020 07:57:17 5.3 C 35 %
1057 18-02-2020 08:07:17 4.8 C 35 %
1058 18-02-2020 08:17:17 5.4 C 34 %
1059 18-02-2020 08:27:17 5.1 C 35 %
1060 18-02-2020 08:37:18 5.1 C 35 %
1061 18-02-2020 08:47:18 5.3 C 35 %
1062 18-02-2020 08:57:18 5.3 C 35 %
1063 18-02-2020 09:07:18 5.4 C 35 %
1064 18-02-2020 09:17:18 5.6 C 35 %
1065 18-02-2020 09:27:18 5.6 C 34 %
1066 18-02-2020 09:37:17 5.8 C 34 %
1067 18-02-2020 09:47:17 6 C 33 %
1068 18-02-2020 09:57:17 6.2 C 32 %
1069 18-02-2020 10:07:17 6.1 C 32 %
1070 18-02-2020 10:17:18 6.1 C 32 %
1071 18-02-2020 10:27:18 6.3 C 32 %
1072 18-02-2020 10:37:17 6.7 C 32 %
1073 18-02-2020 10:47:18 6.9 C 31 %
1074 18-02-2020 10:57:18 7 C 30 %
1075 18-02-2020 11:07:17 7.4 C 30 %
Sensor: Nr:Datum:Temp:Feuchte:
Aussen-T/F 1076 18-02-2020 11:17:17 8.1 C 30 %
1077 18-02-2020 11:27:17 8.2 C 29 %
1078 18-02-2020 11:37:17 7.6 C 29 %
1079 18-02-2020 11:47:17 7.7 C 29 %
1080 18-02-2020 11:57:17 7.5 C 29 %
1081 18-02-2020 12:07:17 7.8 C 29 %
1082 18-02-2020 12:17:18 8.1 C 29 %
1083 18-02-2020 12:27:18 8 C 28 %
1084 18-02-2020 12:37:17 7.9 C 28 %
1085 18-02-2020 12:47:17 8.5 C 28 %
1086 18-02-2020 12:57:17 9.7 C 25 %
1087 18-02-2020 13:07:17 10 C 20 %
1088 18-02-2020 13:17:17 8.5 C 25 %
1089 18-02-2020 13:27:17 7.8 C 26 %
1090 18-02-2020 13:37:18 8.6 C 26 %
1091 18-02-2020 13:47:17 9.2 C 25 %
1092 18-02-2020 13:57:17 8.2 C 26 %
1093 18-02-2020 14:07:18 8.4 C 26 %
1094 18-02-2020 14:17:17 8.1 C 26 %
1095 18-02-2020 14:27:17 8.1 C 26 %
1096 18-02-2020 14:37:17 8 C 26 %
1097 18-02-2020 14:47:17 8.1 C 26 %
1098 18-02-2020 14:57:17 9 C 25 %
1099 18-02-2020 15:07:17 8.5 C 25 %
1100 18-02-2020 15:17:17 8.8 C 26 %
Sensor: Nr:Datum:Temp:Feuchte:
Aussen-T/F 1101 18-02-2020 15:27:17 8.5 C 25 %
1102 18-02-2020 15:37:18 8.4 C 25 %
1103 18-02-2020 15:47:18 8.3 C 26 %
1104 18-02-2020 15:57:18 8.9 C 25 %
1105 18-02-2020 16:07:18 8.4 C 25 %
1106 18-02-2020 16:17:18 8.2 C 26 %
1107 18-02-2020 16:27:18 8.1 C 26 %
1108 18-02-2020 16:37:17 8.1 C 26 %
1109 18-02-2020 16:47:17 7.9 C 26 %
1110 18-02-2020 16:57:17 7.8 C 26 %
1111 18-02-2020 17:07:17 7.8 C 27 %
1112 18-02-2020 17:17:18 7.9 C 26 %
1113 18-02-2020 17:27:18 7.9 C 26 %
1114 18-02-2020 17:37:18 7.7 C 27 %
1115 18-02-2020 17:47:17 7.6 C 27 %
1116 18-02-2020 17:57:18 7.6 C 27 %
1117 18-02-2020 18:07:18 7.4 C 29 %
1118 18-02-2020 18:17:18 7 C 29 %
1119 18-02-2020 18:27:18 7 C 30 %
1120 18-02-2020 18:37:17 6.4 C 31 %
1121 18-02-2020 18:47:18 6.6 C 31 %
1122 18-02-2020 18:57:18 6.1 C 32 %
1123 18-02-2020 19:07:18 5.8 C 33 %
1124 18-02-2020 19:17:17 5.3 C 34 %
1125 18-02-2020 19:27:17 5.5 C 35 %
Sensor: Nr:Datum:Temp:Feuchte:
Aussen-T/F 1126 18-02-2020 19:37:17 5.5 C 35 %
1127 18-02-2020 19:47:17 5.9 C 34 %
1128 18-02-2020 19:57:17 5.7 C 34 %
1129 18-02-2020 20:07:18 5.5 C 34 %
1130 18-02-2020 20:17:18 5.7 C 35 %
1131 18-02-2020 20:27:18 6.4 C 33 %
1132 18-02-2020 20:37:17 6.7 C 32 %
1133 18-02-2020 20:47:17 6.5 C 32 %
1134 18-02-2020 20:57:17 6 C 33 %
1135 18-02-2020 21:07:17 6.3 C 33 %
1136 18-02-2020 21:17:17 6.3 C 33 %
1137 18-02-2020 21:27:17 6.5 C 32 %
1138 18-02-2020 21:37:17 6.3 C 33 %
1139 18-02-2020 21:47:17 6.2 C 33 %
1140 18-02-2020 21:57:17 6.5 C 33 %
1141 18-02-2020 22:07:17 6.9 C 32 %
1142 18-02-2020 22:17:17 6.9 C 33 %
1143 18-02-2020 22:27:17 7 C 32 %
1144 18-02-2020 22:37:17 6.9 C 33 %
1145 18-02-2020 22:47:17 6.8 C 33 %
1146 18-02-2020 22:57:17 6.8 C 33 %
1147 18-02-2020 23:07:18 6.7 C 33 %
1148 18-02-2020 23:17:17 6.5 C 33 %
1149 18-02-2020 23:27:17 6.2 C 34 %
1150 18-02-2020 23:37:18 6.1 C 34 %
Sensor: Nr:Datum:Temp:Feuchte:
Aussen-T/F 1151 18-02-2020 23:47:17 6.4 C 34 %
1152 18-02-2020 23:57:17 6.2 C 34 %
1153 19-02-2020 00:07:18 6.8 C 33 %
1154 19-02-2020 00:17:17 6.8 C 33 %
1155 19-02-2020 00:27:17 6.7 C 32 %
1156 19-02-2020 00:37:17 6.9 C 32 %
1157 19-02-2020 00:47:17 7 C 31 %
1158 19-02-2020 00:57:17 6.8 C 32 %
1159 19-02-2020 01:07:17 7 C 32 %
1160 19-02-2020 01:17:17 7 C 31 %
1161 19-02-2020 01:27:17 6.8 C 32 %
1162 19-02-2020 01:37:17 7 C 31 %
1163 19-02-2020 01:47:17 6.8 C 32 %
1164 19-02-2020 01:57:17 7 C 31 %
1165 19-02-2020 02:07:18 6.9 C 32 %
1166 19-02-2020 02:17:17 7.2 C 31 %
1167 19-02-2020 02:27:17 7 C 31 %
1168 19-02-2020 02:37:17 6.8 C 32 %
1169 19-02-2020 02:47:18 6.8 C 32 %
1170 19-02-2020 02:57:18 6.9 C 32 %
1171 19-02-2020 03:07:17 6.9 C 32 %
1172 19-02-2020 03:17:17 6.7 C 33 %
1173 19-02-2020 03:27:17 6.6 C 33 %
1174 19-02-2020 03:37:17 6.4 C 34 %
1175 19-02-2020 03:47:17 6.2 C 35 %
Sensor: Nr:Datum:Temp:Feuchte:
Aussen-T/F 1176 19-02-2020 03:57:17 5.9 C 36 %
1177 19-02-2020 04:07:18 6 C 36 %
1178 19-02-2020 04:17:17 6 C 36 %
1179 19-02-2020 04:27:18 5.9 C 37 %
1180 19-02-2020 04:37:18 5.8 C 37 %
1181 19-02-2020 04:47:17 5.9 C 37 %
1182 19-02-2020 04:57:17 6.2 C 36 %
1183 19-02-2020 05:07:18 6.3 C 36 %
1184 19-02-2020 05:17:17 6.4 C 35 %
1185 19-02-2020 05:27:17 6.4 C 35 %
1186 19-02-2020 05:37:17 6.3 C 35 %
1187 19-02-2020 05:47:17 6.3 C 34 %
1188 19-02-2020 05:57:17 6 C 34 %
1189 19-02-2020 06:07:18 6 C 34 %
1190 19-02-2020 06:17:17 5.9 C 35 %
1191 19-02-2020 06:27:17 5.9 C 35 %
1192 19-02-2020 06:37:18 5.8 C 35 %
1193 19-02-2020 06:47:17 5.7 C 35 %
1194 19-02-2020 06:57:17 5.4 C 35 %
1195 19-02-2020 07:07:17 5.4 C 34 %
1196 19-02-2020 07:17:17 5.6 C 34 %
1197 19-02-2020 07:27:18 5.6 C 34 %
1198 19-02-2020 07:37:18 5.3 C 35 %
1199 19-02-2020 07:47:18 5.4 C 34 %
1200 19-02-2020 07:57:18 5.3 C 34 %
Sensor: Nr:Datum:Temp:Feuchte:
Aussen-T/F 1201 19-02-2020 08:07:18 5.2 C 33 %
1202 19-02-2020 08:17:17 5.3 C 34 %
1203 19-02-2020 08:27:17 4.9 C 35 %
1204 19-02-2020 08:37:17 4.9 C 34 %
1205 19-02-2020 08:47:17 4.8 C 34 %
1206 19-02-2020 08:57:17 5 C 33 %
1207 19-02-2020 09:07:17 5.1 C 33 %
1208 19-02-2020 09:17:18 4.9 C 34 %
1209 19-02-2020 09:27:18 5.1 C 33 %
1210 19-02-2020 09:37:18 5.3 C 32 %
1211 19-02-2020 09:47:17 5.3 C 32 %
1212 19-02-2020 09:57:17 5.1 C 33 %
1213 19-02-2020 10:07:18 4.2 C 35 %
1214 19-02-2020 10:17:17 4.7 C 34 %
1215 19-02-2020 10:27:17 5.2 C 33 %
1216 19-02-2020 10:37:17 5.7 C 32 %
1217 19-02-2020 10:47:17 5.8 C 31 %
1218 19-02-2020 10:57:17 5.9 C 31 %
1219 19-02-2020 11:07:18 6.4 C 31 %
1220 19-02-2020 11:17:17 6.9 C 30 %
1221 19-02-2020 11:27:17 6.7 C 30 %
1222 19-02-2020 11:37:17 6.4 C 28 %
1223 19-02-2020 11:47:18 6.5 C 27 %
1224 19-02-2020 11:57:18 6.6 C 27 %
1225 19-02-2020 12:07:18 6.7 C 27 %
Sensor: Nr:Datum:Temp:Feuchte:
Aussen-T/F 1226 19-02-2020 12:17:17 6.6 C 26 %
1227 19-02-2020 12:27:18 6.8 C 26 %
1228 19-02-2020 12:37:18 6.8 C 25 %
1229 19-02-2020 12:47:18 6.9 C 25 %
1230 19-02-2020 12:57:18 7 C 25 %
1231 19-02-2020 13:07:17 7.2 C 25 %
1232 19-02-2020 13:17:17 7.1 C 20 %
1233 19-02-2020 13:27:17 7.1 C 20 %
1234 19-02-2020 13:37:18 7.3 C 20 %
1235 19-02-2020 13:47:18 7.8 C 20 %
1236 19-02-2020 13:57:18 7.7 C 20 %
1237 19-02-2020 14:07:17 7.7 C 20 %
1238 19-02-2020 14:17:17 7.7 C 20 %
1239 19-02-2020 14:27:17 7.4 C 20 %
1240 19-02-2020 14:37:17 7.1 C 20 %
1241 19-02-2020 14:47:18 7.2 C 20 %
1242 19-02-2020 14:57:18 7.2 C 20 %
1243 19-02-2020 15:07:17 8.1 C 20 %
1244 19-02-2020 15:17:17 8.2 C 20 %
1245 19-02-2020 15:27:17 8.3 C 20 %
1246 19-02-2020 15:37:17 7.5 C 20 %
1247 19-02-2020 15:47:17 7.6 C 20 %
1248 19-02-2020 15:57:17 8.5 C 20 %
1249 19-02-2020 16:07:17 8 C 20 %
1250 19-02-2020 16:17:17 8.2 C 20 %
Sensor: Nr:Datum:Temp:Feuchte:
Aussen-T/F 1251 19-02-2020 16:27:17 7.9 C 20 %
1252 19-02-2020 16:37:18 7.5 C 20 %
1253 19-02-2020 16:47:18 7.4 C 20 %
1254 19-02-2020 16:57:18 7.2 C 20 %
1255 19-02-2020 17:07:18 7.1 C 20 %
1256 19-02-2020 17:17:18 6.9 C 20 %
1257 19-02-2020 17:27:18 6.5 C 20 %
1258 19-02-2020 17:37:17 6.2 C 20 %
1259 19-02-2020 17:47:18 5.6 C 20 %
1260 19-02-2020 17:57:18 5 C 23 %
1261 19-02-2020 18:07:17 4.5 C 28 %
1262 19-02-2020 18:17:17 4.5 C 28 %
1263 19-02-2020 18:27:17 4.2 C 30 %
1264 19-02-2020 18:37:17 3.7 C 32 %
1265 19-02-2020 18:47:17 3.3 C 32 %
1266 19-02-2020 18:57:17 2.9 C 34 %
1267 19-02-2020 19:07:17 2.8 C 35 %
1268 19-02-2020 19:17:17 2.4 C 35 %
1269 19-02-2020 19:27:17 2.3 C 35 %
1270 19-02-2020 19:37:17 2 C 35 %
1271 19-02-2020 19:47:17 1.7 C 37 %
1272 19-02-2020 19:57:17 2 C 36 %
1273 19-02-2020 20:07:17 1.7 C 37 %
1274 19-02-2020 20:17:17 1.8 C 37 %
1275 19-02-2020 20:27:17 2.1 C 35 %
Sensor: Nr:Datum:Temp:Feuchte:
Aussen-T/F 1276 19-02-2020 20:37:17 2 C 35 %
1277 19-02-2020 20:47:17 2.2 C 35 %
1278 19-02-2020 20:57:17 2.8 C 35 %
1279 19-02-2020 21:07:18 3.4 C 33 %
1280 19-02-2020 21:17:17 3.4 C 33 %
1281 19-02-2020 21:27:17 3 C 33 %
1282 19-02-2020 21:37:17 4 C 31 %
1283 19-02-2020 21:47:17 4.1 C 31 %
1284 19-02-2020 21:57:17 4.5 C 31 %
1285 19-02-2020 22:07:17 4.9 C 31 %
1286 19-02-2020 22:17:18 5.5 C 30 %
1287 19-02-2020 22:27:18 5.5 C 30 %
1288 19-02-2020 22:37:18 5.5 C 30 %
1289 19-02-2020 22:47:17 5.2 C 30 %
1290 19-02-2020 22:57:18 5.1 C 31 %
1291 19-02-2020 23:07:18 4.6 C 33 %
1292 19-02-2020 23:17:17 4.5 C 35 %
1293 19-02-2020 23:27:17 4.2 C 37 %
1294 19-02-2020 23:37:17 4.3 C 37 %
1295 19-02-2020 23:47:17 4.6 C 36 %
1296 19-02-2020 23:57:17 4.6 C 36 %
1297 20-02-2020 00:07:17 4.9 C 36 %
1298 20-02-2020 00:17:17 4.9 C 36 %
1299 20-02-2020 00:27:18 5.2 C 35 %
1300 20-02-2020 00:37:18 5.4 C 35 %
Sensor: Nr:Datum:Temp:Feuchte:
Aussen-T/F 1301 20-02-2020 00:47:17 5.5 C 35 %
1302 20-02-2020 00:57:17 4.9 C 36 %
1303 20-02-2020 01:07:17 4.8 C 38 %
1304 20-02-2020 01:17:17 4.8 C 38 %
1305 20-02-2020 01:27:18 4.8 C 38 %
1306 20-02-2020 01:37:18 5 C 37 %
1307 20-02-2020 01:47:17 5.3 C 37 %
1308 20-02-2020 01:57:17 5.4 C 36 %
1309 20-02-2020 02:07:18 5.6 C 36 %
1310 20-02-2020 02:17:17 5.6 C 36 %
1311 20-02-2020 02:27:17 5.8 C 36 %
1312 20-02-2020 02:37:17 5.7 C 35 %
1313 20-02-2020 02:47:17 5.8 C 35 %
1314 20-02-2020 02:57:17 5.9 C 35 %
1315 20-02-2020 03:07:17 6 C 35 %
1316 20-02-2020 03:17:17 6.2 C 35 %
1317 20-02-2020 03:27:17 6.3 C 35 %
1318 20-02-2020 03:37:18 6.3 C 35 %
1319 20-02-2020 03:47:17 6.4 C 35 %
1320 20-02-2020 03:57:17 6.3 C 35 %
1321 20-02-2020 04:07:18 6.4 C 35 %
1322 20-02-2020 04:17:17 6.5 C 35 %
1323 20-02-2020 04:27:17 6.5 C 35 %
1324 20-02-2020 04:37:17 6.6 C 35 %
1325 20-02-2020 04:47:18 6.5 C 35 %
Sensor: Nr:Datum:Temp:Feuchte:
Aussen-T/F 1326 20-02-2020 04:57:18 6.5 C 35 %
1327 20-02-2020 05:07:18 6.5 C 35 %
1328 20-02-2020 05:17:17 6.5 C 35 %
1329 20-02-2020 05:27:17 6.5 C 35 %
1330 20-02-2020 05:37:17 6.7 C 35 %
1331 20-02-2020 05:47:17 6.5 C 35 %
1332 20-02-2020 05:57:17 6.6 C 35 %
1333 20-02-2020 06:07:17 6.5 C 35 %
1334 20-02-2020 06:17:17 6.3 C 36 %
1335 20-02-2020 06:27:17 6.3 C 36 %
1336 20-02-2020 06:37:17 6.5 C 36 %
1337 20-02-2020 06:47:17 6.6 C 36 %
1338 20-02-2020 06:57:17 6.5 C 36 %
1339 20-02-2020 07:07:17 6.5 C 36 %
1340 20-02-2020 07:17:17 6.3 C 37 %
1341 20-02-2020 07:27:17 6.5 C 37 %
1342 20-02-2020 07:37:17 6.6 C 36 %
1343 20-02-2020 07:47:17 6.7 C 36 %
1344 20-02-2020 07:57:17 6.6 C 37 %
1345 20-02-2020 08:07:17 6.5 C 37 %
1346 20-02-2020 08:17:17 6.6 C 37 %
1347 20-02-2020 08:27:17 6.6 C 37 %
1348 20-02-2020 08:37:17 6.6 C 37 %
1349 20-02-2020 08:47:18 6.7 C 37 %
1350 20-02-2020 08:57:18 6.8 C 37 %
Sensor: Nr:Datum:Temp:Feuchte:
Aussen-T/F 1351 20-02-2020 09:07:18 7.2 C 36 %
1352 20-02-2020 09:17:18 7.3 C 36 %
1353 20-02-2020 09:27:18 7.6 C 35 %
1354 20-02-2020 09:37:17 7.8 C 35 %
1355 20-02-2020 09:47:17 7.9 C 35 %
1356 20-02-2020 09:57:17 8.1 C 34 %
1357 20-02-2020 10:07:18 8.1 C 34 %
1358 20-02-2020 10:17:17 8.3 C 34 %
1359 20-02-2020 10:27:17 8.5 C 33 %
1360 20-02-2020 10:37:17 9 C 32 %
1361 20-02-2020 10:47:17 8.8 C 32 %
1362 20-02-2020 10:57:17 8.9 C 32 %
1363 20-02-2020 11:07:18 9.1 C 32 %
1364 20-02-2020 11:17:18 10.1 C 30 %
1365 20-02-2020 11:27:18 10 C 30 %
1366 20-02-2020 11:37:18 9.4 C 30 %
1367 20-02-2020 11:47:17 9.1 C 30 %
1368 20-02-2020 11:57:18 9.2 C 30 %
1369 20-02-2020 12:07:18 9.3 C 30 %
1370 20-02-2020 12:17:18 9.8 C 30 %
1371 20-02-2020 12:27:18 10.1 C 28 %
1372 20-02-2020 12:37:18 9.2 C 30 %
1373 20-02-2020 12:47:18 8.2 C 33 %
1374 20-02-2020 12:57:18 8.6 C 33 %
1375 20-02-2020 13:07:18 9.1 C 32 %
Sensor: Nr:Datum:Temp:Feuchte:
Aussen-T/F 1376 20-02-2020 13:17:18 9.7 C 31 %
1377 20-02-2020 13:27:18 9.6 C 30 %
1378 20-02-2020 13:37:18 9.6 C 30 %
1379 20-02-2020 13:47:17 9.4 C 31 %
1380 20-02-2020 13:57:17 10.3 C 29 %
1381 20-02-2020 14:07:17 10.2 C 29 %
1382 20-02-2020 14:17:17 10.1 C 28 %
1383 20-02-2020 14:27:18 10 C 28 %
1384 20-02-2020 14:37:18 10.7 C 28 %
1385 20-02-2020 14:47:17 9.8 C 29 %
1386 20-02-2020 14:57:17 9.8 C 29 %
1387 20-02-2020 15:07:18 9.6 C 30 %
1388 20-02-2020 15:17:17 10.1 C 28 %
1389 20-02-2020 15:27:18 10.1 C 28 %
1390 20-02-2020 15:37:18 10.5 C 28 %
1391 20-02-2020 15:47:17 10.5 C 28 %
1392 20-02-2020 15:57:17 9.6 C 29 %
1393 20-02-2020 16:07:17 9.5 C 29 %
1394 20-02-2020 16:17:17 9.5 C 29 %
1395 20-02-2020 16:27:18 9.3 C 29 %
1396 20-02-2020 16:37:18 9.1 C 30 %
1397 20-02-2020 16:47:17 9.1 C 29 %
1398 20-02-2020 16:57:17 9.1 C 29 %
1399 20-02-2020 17:07:18 9 C 29 %
1400 20-02-2020 17:17:17 9.2 C 29 %
Sensor: Nr:Datum:Temp:Feuchte:
Aussen-T/F 1401 20-02-2020 17:27:18 9.2 C 29 %
1402 20-02-2020 17:37:18 9.2 C 29 %
1403 20-02-2020 17:47:17 9.1 C 29 %
1404 20-02-2020 17:57:17 9.1 C 29 %
1405 20-02-2020 18:07:18 9.1 C 29 %
1406 20-02-2020 18:17:18 9 C 29 %
1407 20-02-2020 18:27:18 8.9 C 30 %
1408 20-02-2020 18:37:18 8.3 C 30 %
1409 20-02-2020 18:47:18 8.1 C 31 %
1410 20-02-2020 18:57:18 7.7 C 33 %
1411 20-02-2020 19:07:18 7.7 C 33 %
1412 20-02-2020 19:17:18 7.8 C 32 %
1413 20-02-2020 19:27:18 8.1 C 31 %
1414 20-02-2020 19:37:17 8.6 C 30 %
1415 20-02-2020 19:47:18 9 C 30 %
1416 20-02-2020 19:57:18 9.1 C 30 %
1417 20-02-2020 20:07:18 9 C 30 %
1418 20-02-2020 20:17:18 9 C 30 %
1419 20-02-2020 20:27:18 9.3 C 29 %
1420 20-02-2020 20:37:18 9.3 C 29 %
1421 20-02-2020 20:47:18 9.2 C 29 %
1422 20-02-2020 20:57:18 9.2 C 29 %
1423 20-02-2020 21:07:18 8.8 C 30 %
1424 20-02-2020 21:17:18 8.6 C 30 %
1425 20-02-2020 21:27:18 8.6 C 31 %
Sensor: Nr:Datum:Temp:Feuchte:
Aussen-T/F 1426 20-02-2020 21:37:18 8.2 C 31 %
1427 20-02-2020 21:47:17 8.2 C 32 %
1428 20-02-2020 21:57:18 7.8 C 33 %
1429 20-02-2020 22:07:18 7.9 C 33 %
1430 20-02-2020 22:17:17 7.8 C 35 %
1431 20-02-2020 22:27:18 7.4 C 35 %
1432 20-02-2020 22:37:18 7.1 C 38 %
1433 20-02-2020 22:47:18 6 C 37 %
1434 20-02-2020 22:57:18 5.8 C 37 %
1435 20-02-2020 23:07:18 5.7 C 39 %
1436 20-02-2020 23:17:18 5.8 C 37 %
1437 20-02-2020 23:27:18 5.8 C 37 %
1438 20-02-2020 23:37:17 6.1 C 35 %
1439 20-02-2020 23:47:17 5.9 C 35 %
1440 20-02-2020 23:57:17 5.2 C 35 %
1441 21-02-2020 00:07:17 4.6 C 38 %
1442 21-02-2020 00:17:18 4.5 C 39 %
1443 21-02-2020 00:27:18 4.4 C 37 %
1444 21-02-2020 00:37:18 4.8 C 36 %
1445 21-02-2020 00:47:18 4.7 C 35 %
1446 21-02-2020 00:57:18 4.6 C 35 %
1447 21-02-2020 01:07:18 4.5 C 35 %
1448 21-02-2020 01:17:17 4.1 C 35 %
1449 21-02-2020 01:27:17 4.1 C 34 %
1450 21-02-2020 01:37:17 4 C 34 %
Sensor: Nr:Datum:Temp:Feuchte:
Aussen-T/F 1451 21-02-2020 01:47:17 3.6 C 35 %
1452 21-02-2020 01:57:17 3.6 C 35 %
1453 21-02-2020 02:07:18 3.5 C 35 %
1454 21-02-2020 02:17:18 3.8 C 35 %
1455 21-02-2020 02:27:18 3.4 C 36 %
1456 21-02-2020 02:37:18 4 C 35 %
1457 21-02-2020 02:47:17 3.9 C 35 %
1458 21-02-2020 02:57:18 3.6 C 35 %
1459 21-02-2020 03:07:18 4 C 34 %
1460 21-02-2020 03:17:18 3.3 C 35 %
1461 21-02-2020 03:27:18 2.9 C 37 %
1462 21-02-2020 03:37:18 2.4 C 39 %
1463 21-02-2020 03:47:17 2.7 C 38 %
1464 21-02-2020 03:57:17 2.1 C 40 %
1465 21-02-2020 04:07:18 2.1 C 40 %
1466 21-02-2020 04:17:18 2.2 C 39 %
1467 21-02-2020 04:27:18 2.4 C 39 %
1468 21-02-2020 04:37:18 2 C 40 %
1469 21-02-2020 04:47:17 2.5 C 39 %
1470 21-02-2020 04:57:17 2.3 C 39 %
1471 21-02-2020 05:07:17 2 C 39 %
1472 21-02-2020 05:17:17 1.6 C 41 %
1473 21-02-2020 05:27:17 2.1 C 39 %
1474 21-02-2020 05:37:17 2.5 C 38 %
1475 21-02-2020 05:47:17 1.9 C 40 %
Sensor: Nr:Datum:Temp:Feuchte:
Aussen-T/F 1476 21-02-2020 05:57:17 2.4 C 38 %
1477 21-02-2020 06:07:17 2.3 C 38 %
1478 21-02-2020 06:17:17 1.7 C 40 %
1479 21-02-2020 06:27:17 1.9 C 40 %
1480 21-02-2020 06:37:18 1.4 C 41 %
1481 21-02-2020 06:47:17 1.6 C 40 %
1482 21-02-2020 06:57:17 2.1 C 38 %
1483 21-02-2020 07:07:17 2.4 C 37 %
1484 21-02-2020 07:17:18 2.8 C 36 %
1485 21-02-2020 07:27:18 2.7 C 36 %
1486 21-02-2020 07:37:18 3 C 35 %
1487 21-02-2020 07:47:17 2.5 C 36 %
1488 21-02-2020 07:57:17 2.2 C 37 %
1489 21-02-2020 08:07:17 1.5 C 39 %
1490 21-02-2020 08:17:17 1.3 C 40 %
1491 21-02-2020 08:27:17 1.1 C 40 %
1492 21-02-2020 08:37:17 1.7 C 40 %
1493 21-02-2020 08:47:17 2.2 C 38 %
1494 21-02-2020 08:57:17 2.7 C 37 %
1495 21-02-2020 09:07:17 2.6 C 37 %
1496 21-02-2020 09:17:17 3.1 C 36 %
1497 21-02-2020 09:27:17 2.9 C 37 %
1498 21-02-2020 09:37:17 2.9 C 36 %
1499 21-02-2020 09:47:17 3.1 C 36 %
1500 21-02-2020 09:57:17 3.6 C 35 %
Sensor: Nr:Datum:Temp:Feuchte:
Aussen-T/F 1501 21-02-2020 10:07:17 3.5 C 36 %
1502 21-02-2020 10:17:17 3.5 C 36 %
1503 21-02-2020 10:27:17 3.9 C 35 %
1504 21-02-2020 10:37:18 4.5 C 34 %
1505 21-02-2020 10:47:17 4.7 C 34 %
1506 21-02-2020 10:57:17 4.8 C 34 %
1507 21-02-2020 11:07:18 5.9 C 32 %
1508 21-02-2020 11:17:17 6.3 C 31 %
1509 21-02-2020 11:27:17 6.8 C 30 %
1510 21-02-2020 11:37:18 5.9 C 31 %
1511 21-02-2020 11:47:17 6.7 C 30 %
1512 21-02-2020 11:57:17 7.1 C 30 %
1513 21-02-2020 12:07:18 7.3 C 30 %
1514 21-02-2020 12:17:18 7.3 C 29 %
1515 21-02-2020 12:27:18 7.3 C 29 %
1516 21-02-2020 12:37:18 7.4 C 29 %
1517 21-02-2020 12:47:17 7.4 C 29 %
1518 21-02-2020 12:57:17 7.9 C 30 %
1519 21-02-2020 13:07:17 8.3 C 27 %
1520 21-02-2020 13:17:18 7.8 C 27 %
1521 21-02-2020 13:27:18 8.9 C 27 %
1522 21-02-2020 13:37:18 8.2 C 27 %
1523 21-02-2020 13:47:17 7.5 C 27 %
1524 21-02-2020 13:57:17 7.9 C 27 %
1525 21-02-2020 14:07:18 7.8 C 27 %
Sensor: Nr:Datum:Temp:Feuchte:
Aussen-T/F 1526 21-02-2020 14:17:17 7.9 C 27 %
1527 21-02-2020 14:27:18 8.8 C 27 %
1528 21-02-2020 14:37:18 8.4 C 27 %
1529 21-02-2020 14:47:17 8.7 C 27 %
1530 21-02-2020 14:57:17 9 C 26 %
1531 21-02-2020 15:07:18 9 C 26 %
1532 21-02-2020 15:17:18 8.4 C 26 %
1533 21-02-2020 15:27:18 8.7 C 26 %
1534 21-02-2020 15:37:18 8.1 C 26 %
1535 21-02-2020 15:47:17 8.3 C 26 %
1536 21-02-2020 15:57:17 8.3 C 26 %
1537 21-02-2020 16:07:17 8.1 C 26 %
1538 21-02-2020 16:17:17 8 C 27 %
1539 21-02-2020 16:27:17 8 C 26 %
1540 21-02-2020 16:37:17 8.1 C 26 %
1541 21-02-2020 16:47:17 7.9 C 26 %
1542 21-02-2020 16:57:17 7.9 C 26 %
1543 21-02-2020 17:07:18 7.7 C 26 %
1544 21-02-2020 17:17:17 7.3 C 26 %
1545 21-02-2020 17:27:17 7.3 C 26 %
1546 21-02-2020 17:37:18 6.8 C 28 %
1547 21-02-2020 17:47:17 6.5 C 28 %
1548 21-02-2020 17:57:18 6.4 C 29 %
1549 21-02-2020 18:07:18 5.9 C 30 %
1550 21-02-2020 18:17:17 5.6 C 31 %
Sensor: Nr:Datum:Temp:Feuchte:
Aussen-T/F 1551 21-02-2020 18:27:17 4.9 C 33 %
1552 21-02-2020 18:37:17 4.5 C 33 %
1553 21-02-2020 18:47:17 4.3 C 34 %
1554 21-02-2020 18:57:17 4.2 C 34 %
1555 21-02-2020 19:07:17 4.7 C 34 %
1556 21-02-2020 19:17:17 4 C 34 %
1557 21-02-2020 19:27:17 4 C 35 %
1558 21-02-2020 19:37:17 3.8 C 35 %
1559 21-02-2020 19:47:17 4 C 34 %
1560 21-02-2020 19:57:17 4.7 C 33 %
1561 21-02-2020 20:07:18 4.9 C 33 %
1562 21-02-2020 20:17:18 4.4 C 33 %
1563 21-02-2020 20:27:18 4.4 C 33 %
1564 21-02-2020 20:37:18 5.6 C 31 %
1565 21-02-2020 20:47:17 5.8 C 31 %
1566 21-02-2020 20:57:17 5.7 C 31 %
1567 21-02-2020 21:07:18 5.4 C 31 %
1568 21-02-2020 21:17:18 5.1 C 31 %
1569 21-02-2020 21:27:18 4.9 C 32 %
1570 21-02-2020 21:37:18 4.3 C 34 %
1571 21-02-2020 21:47:18 4.3 C 35 %
1572 21-02-2020 21:57:18 4.6 C 34 %
1573 21-02-2020 22:07:18 4 C 35 %
1574 21-02-2020 22:17:17 3.4 C 36 %
1575 21-02-2020 22:27:17 3.6 C 38 %
Sensor: Nr:Datum:Temp:Feuchte:
Aussen-T/F 1576 21-02-2020 22:37:17 3.8 C 37 %
1577 21-02-2020 22:47:17 3.7 C 37 %
1578 21-02-2020 22:57:17 3.2 C 37 %
1579 21-02-2020 23:07:17 3 C 38 %
1580 21-02-2020 23:17:17 3.6 C 38 %
1581 21-02-2020 23:27:18 3.3 C 38 %
1582 21-02-2020 23:37:18 3.9 C 37 %
1583 21-02-2020 23:47:18 4.2 C 36 %
1584 21-02-2020 23:57:18 4 C 36 %
1585 22-02-2020 00:07:18 3.3 C 37 %
1586 22-02-2020 00:17:17 3.4 C 38 %
1587 22-02-2020 00:27:17 3.7 C 37 %
1588 22-02-2020 00:37:17 3.8 C 37 %
1589 22-02-2020 00:47:18 4.1 C 36 %
1590 22-02-2020 00:57:18 3.6 C 37 %
1591 22-02-2020 01:07:18 3.8 C 37 %
1592 22-02-2020 01:17:18 4 C 35 %
1593 22-02-2020 01:27:18 3.8 C 37 %
1594 22-02-2020 01:37:18 3.4 C 37 %
1595 22-02-2020 01:47:17 3.1 C 37 %
1596 22-02-2020 01:57:18 3.1 C 38 %
1597 22-02-2020 02:07:18 4.6 C 36 %
1598 22-02-2020 02:17:18 4.7 C 35 %
1599 22-02-2020 02:27:18 4.4 C 35 %
1600 22-02-2020 02:37:17 4.8 C 35 %
Sensor: Nr:Datum:Temp:Feuchte:
Aussen-T/F 1601 22-02-2020 02:47:17 5.1 C 34 %
1602 22-02-2020 02:57:17 4.7 C 35 %
1603 22-02-2020 03:07:17 4.8 C 35 %
1604 22-02-2020 03:17:17 5 C 34 %
1605 22-02-2020 03:27:17 4.7 C 35 %
1606 22-02-2020 03:37:17 5.2 C 34 %
1607 22-02-2020 03:47:17 4.9 C 35 %
1608 22-02-2020 03:57:18 4.6 C 35 %
1609 22-02-2020 04:07:18 4.5 C 35 %
1610 22-02-2020 04:17:18 4.7 C 35 %
1611 22-02-2020 04:27:18 4.2 C 35 %
1612 22-02-2020 04:37:18 4.2 C 35 %
1613 22-02-2020 04:47:17 4.7 C 35 %
1614 22-02-2020 04:57:18 5 C 34 %
1615 22-02-2020 05:07:18 5 C 34 %
1616 22-02-2020 05:17:18 5.2 C 34 %
1617 22-02-2020 05:27:18 5.4 C 34 %
1618 22-02-2020 05:37:17 5.4 C 33 %
1619 22-02-2020 05:47:18 5.4 C 33 %
1620 22-02-2020 05:57:18 5.2 C 34 %
1621 22-02-2020 06:07:18 5.2 C 33 %
1622 22-02-2020 06:17:17 5.3 C 34 %
1623 22-02-2020 06:27:17 5.3 C 34 %
1624 22-02-2020 06:37:17 5.5 C 33 %
1625 22-02-2020 06:47:18 5.3 C 33 %
Sensor: Nr:Datum:Temp:Feuchte:
Aussen-T/F 1626 22-02-2020 06:57:18 5.4 C 33 %
1627 22-02-2020 07:07:18 5.2 C 33 %
1628 22-02-2020 07:17:18 5 C 33 %
1629 22-02-2020 07:27:18 5 C 34 %
1630 22-02-2020 07:37:18 4.8 C 35 %
1631 22-02-2020 07:47:17 5.3 C 34 %
1632 22-02-2020 07:57:18 5 C 34 %
1633 22-02-2020 08:07:18 5.4 C 33 %
1634 22-02-2020 08:17:18 5.4 C 33 %
1635 22-02-2020 08:27:18 5.2 C 33 %
1636 22-02-2020 08:37:18 5.4 C 33 %
1637 22-02-2020 08:47:17 5.7 C 33 %
1638 22-02-2020 08:57:17 5.9 C 33 %
1639 22-02-2020 09:07:17 6.1 C 32 %
1640 22-02-2020 09:17:17 6.3 C 32 %
1641 22-02-2020 09:27:17 6.4 C 32 %
1642 22-02-2020 09:37:17 6.4 C 31 %
1643 22-02-2020 09:47:17 6.5 C 31 %
1644 22-02-2020 09:57:17 6.9 C 31 %
1645 22-02-2020 10:07:17 7 C 30 %
1646 22-02-2020 10:17:17 7.2 C 30 %
1647 22-02-2020 10:27:17 7.2 C 30 %
1648 22-02-2020 10:37:17 7.3 C 30 %
1649 22-02-2020 10:47:18 7.2 C 30 %
1650 22-02-2020 10:57:18 7.4 C 30 %
Sensor: Nr:Datum:Temp:Feuchte:
Aussen-T/F 1651 22-02-2020 11:07:18 7.5 C 30 %
1652 22-02-2020 11:17:18 7.5 C 30 %
1653 22-02-2020 11:27:18 7.6 C 29 %
1654 22-02-2020 11:37:18 7.7 C 28 %
1655 22-02-2020 11:47:17 7.9 C 28 %
1656 22-02-2020 11:57:17 8.1 C 27 %
1657 22-02-2020 12:07:18 8.4 C 27 %
1658 22-02-2020 12:17:18 8.5 C 26 %
1659 22-02-2020 12:27:18 8.6 C 27 %
1660 22-02-2020 12:37:18 8.8 C 26 %
1661 22-02-2020 12:47:18 8.8 C 26 %
1662 22-02-2020 12:57:18 9 C 25 %
1663 22-02-2020 13:07:18 9.3 C 25 %
1664 22-02-2020 13:17:18 9.7 C 25 %
1665 22-02-2020 13:27:18 10.2 C 21 %
1666 22-02-2020 13:37:18 10.2 C 20 %
1667 22-02-2020 13:47:17 10.2 C 20 %
1668 22-02-2020 13:57:18 10.2 C 20 %
1669 22-02-2020 14:07:18 10.2 C 20 %
1670 22-02-2020 14:17:17 10.1 C 20 %
1671 22-02-2020 14:27:18 10.1 C 20 %
1672 22-02-2020 14:37:18 10.2 C 20 %
1673 22-02-2020 14:47:17 10.2 C 20 %
1674 22-02-2020 14:57:17 10.1 C 20 %
1675 22-02-2020 15:07:17 10.2 C 20 %
Sensor: Nr:Datum:Temp:Feuchte:
Aussen-T/F 1676 22-02-2020 15:17:17 10.2 C 20 %
1677 22-02-2020 15:27:18 10.4 C 20 %
1678 22-02-2020 15:37:18 10.6 C 21 %
1679 22-02-2020 15:47:17 10.7 C 20 %
1680 22-02-2020 15:57:17 10.8 C 21 %
1681 22-02-2020 16:07:18 10.7 C 21 %
1682 22-02-2020 16:17:18 10.6 C 22 %
1683 22-02-2020 16:27:18 10.4 C 22 %
1684 22-02-2020 16:37:18 10.2 C 23 %
1685 22-02-2020 16:47:18 10.3 C 25 %
1686 22-02-2020 16:57:18 10.2 C 25 %
1687 22-02-2020 17:07:17 10.1 C 25 %
1688 22-02-2020 17:17:18 10.1 C 25 %
1689 22-02-2020 17:27:18 10.2 C 25 %
1690 22-02-2020 17:37:18 10.2 C 25 %
1691 22-02-2020 17:47:18 10.2 C 25 %
1692 22-02-2020 17:57:18 10 C 25 %
1693 22-02-2020 18:07:18 9.9 C 26 %
1694 22-02-2020 18:17:18 9.9 C 27 %
1695 22-02-2020 18:27:18 9.8 C 27 %
1696 22-02-2020 18:37:18 9.7 C 28 %
1697 22-02-2020 18:47:18 9.7 C 29 %
1698 22-02-2020 18:57:18 9.5 C 30 %
1699 22-02-2020 19:07:18 9.6 C 30 %
1700 22-02-2020 19:17:17 9.6 C 30 %
Sensor: Nr:Datum:Temp:Feuchte:
Aussen-T/F 1701 22-02-2020 19:27:17 9.6 C 31 %
1702 22-02-2020 19:37:17 9.6 C 30 %
1703 22-02-2020 19:47:18 9.9 C 30 %
1704 22-02-2020 19:57:18 9.8 C 31 %
1705 22-02-2020 20:07:18 10 C 30 %
1706 22-02-2020 20:17:18 9.9 C 31 %
1707 22-02-2020 20:27:18 10 C 30 %
1708 22-02-2020 20:37:18 9.9 C 31 %
1709 22-02-2020 20:47:17 10 C 31 %
1710 22-02-2020 20:57:17 9.9 C 32 %
1711 22-02-2020 21:07:18 9.9 C 32 %
1712 22-02-2020 21:17:17 10.2 C 31 %
1713 22-02-2020 21:27:17 10.2 C 31 %
1714 22-02-2020 21:37:18 10.3 C 31 %
1715 22-02-2020 21:47:17 10.2 C 31 %
1716 22-02-2020 21:57:17 10.3 C 31 %
1717 22-02-2020 22:07:17 10.4 C 31 %
1718 22-02-2020 22:17:17 10.6 C 31 %
1719 22-02-2020 22:27:17 10.7 C 31 %
1720 22-02-2020 22:37:18 10.7 C 31 %
1721 22-02-2020 22:47:17 10.6 C 31 %
1722 22-02-2020 22:57:17 10.5 C 31 %
1723 22-02-2020 23:07:17 10.5 C 31 %
1724 22-02-2020 23:17:17 10.5 C 31 %
1725 22-02-2020 23:27:17 10.5 C 31 %
Sensor: Nr:Datum:Temp:Feuchte:
Aussen-T/F 1726 22-02-2020 23:37:17 10.5 C 31 %
1727 22-02-2020 23:47:17 10.6 C 31 %
1728 22-02-2020 23:57:18 10.5 C 31 %
1729 23-02-2020 00:07:18 10.7 C 31 %
1730 23-02-2020 00:17:18 10.8 C 31 %
1731 23-02-2020 00:27:18 10 C 31 %
1732 23-02-2020 00:37:18 9.7 C 33 %
1733 23-02-2020 00:47:17 9.4 C 35 %
1734 23-02-2020 00:57:18 9.2 C 36 %
1735 23-02-2020 01:07:18 9 C 38 %
1736 23-02-2020 01:17:18 9.3 C 37 %
1737 23-02-2020 01:27:18 9.3 C 37 %
1738 23-02-2020 01:37:18 9.6 C 36 %
1739 23-02-2020 01:47:17 9.6 C 36 %
1740 23-02-2020 01:57:17 9.7 C 36 %
1741 23-02-2020 02:07:18 9.4 C 36 %
1742 23-02-2020 02:17:18 9.3 C 36 %
1743 23-02-2020 02:27:18 9.5 C 36 %
1744 23-02-2020 02:37:18 9.8 C 35 %
1745 23-02-2020 02:47:17 10 C 34 %
1746 23-02-2020 02:57:17 10 C 34 %
1747 23-02-2020 03:07:18 10 C 33 %
1748 23-02-2020 03:17:17 10.2 C 33 %
1749 23-02-2020 03:27:17 9.8 C 35 %
1750 23-02-2020 03:37:17 9.6 C 35 %
Sensor: Nr:Datum:Temp:Feuchte:
Aussen-T/F 1751 23-02-2020 03:47:17 9.7 C 35 %
1752 23-02-2020 03:57:17 9.7 C 35 %
1753 23-02-2020 04:07:17 10.3 C 33 %
1754 23-02-2020 04:17:17 10.2 C 33 %
1755 23-02-2020 04:27:17 10.1 C 33 %
1756 23-02-2020 04:37:17 10.2 C 33 %
1757 23-02-2020 04:47:17 10 C 33 %
1758 23-02-2020 04:57:17 10.1 C 33 %
1759 23-02-2020 05:07:18 9.6 C 35 %
1760 23-02-2020 05:17:17 9.8 C 35 %
1761 23-02-2020 05:27:17 10 C 34 %
1762 23-02-2020 05:37:18 10.2 C 34 %
1763 23-02-2020 05:47:17 10.2 C 34 %
1764 23-02-2020 05:57:17 9.6 C 35 %
1765 23-02-2020 06:07:18 9.5 C 35 %
1766 23-02-2020 06:17:17 9.7 C 35 %
1767 23-02-2020 06:27:17 9.8 C 35 %
1768 23-02-2020 06:37:18 10 C 34 %
1769 23-02-2020 06:47:17 9.7 C 35 %
1770 23-02-2020 06:57:17 9.3 C 35 %
1771 23-02-2020 07:07:18 9.3 C 35 %
1772 23-02-2020 07:17:18 9.5 C 36 %
1773 23-02-2020 07:27:18 9.8 C 35 %
1774 23-02-2020 07:37:18 9.6 C 36 %
1775 23-02-2020 07:47:17 9.6 C 36 %
Sensor: Nr:Datum:Temp:Feuchte:
Aussen-T/F 1776 23-02-2020 07:57:17 9.8 C 36 %
1777 23-02-2020 08:07:17 9.8 C 36 %
1778 23-02-2020 08:17:17 9.8 C 36 %
1779 23-02-2020 08:27:17 10.1 C 35 %
1780 23-02-2020 08:37:17 10.1 C 35 %
1781 23-02-2020 08:47:17 10.2 C 35 %
1782 23-02-2020 08:57:17 10.1 C 35 %
1783 23-02-2020 09:07:17 10.1 C 35 %
1784 23-02-2020 09:17:17 10 C 35 %
1785 23-02-2020 09:27:17 10 C 35 %
1786 23-02-2020 09:37:17 10 C 35 %
1787 23-02-2020 09:47:18 10.1 C 35 %
1788 23-02-2020 09:57:18 10.1 C 36 %
1789 23-02-2020 10:07:17 10.1 C 36 %
1790 23-02-2020 10:17:17 10.5 C 35 %
1791 23-02-2020 10:27:18 10.6 C 35 %
1792 23-02-2020 10:37:17 10.9 C 35 %
1793 23-02-2020 10:47:17 10.9 C 35 %
1794 23-02-2020 10:57:17 10.9 C 35 %
1795 23-02-2020 11:07:17 11 C 34 %
1796 23-02-2020 11:17:17 11.1 C 34 %
1797 23-02-2020 11:27:17 11 C 34 %
1798 23-02-2020 11:37:17 11.1 C 34 %
1799 23-02-2020 11:47:17 11.2 C 34 %
1800 23-02-2020 11:57:17 11.4 C 34 %
Sensor: Nr:Datum:Temp:Feuchte:
Aussen-T/F 1801 23-02-2020 12:07:17 11.5 C 34 %
1802 23-02-2020 12:17:17 11.5 C 34 %
1803 23-02-2020 12:27:17 11.6 C 34 %
1804 23-02-2020 12:37:18 11.6 C 34 %
1805 23-02-2020 12:47:17 11.7 C 34 %
1806 23-02-2020 12:57:17 11.7 C 34 %
1807 23-02-2020 13:07:17 11.8 C 33 %
1808 23-02-2020 13:17:17 11.8 C 33 %
1809 23-02-2020 13:27:17 11.8 C 33 %
1810 23-02-2020 13:37:18 11.8 C 33 %
1811 23-02-2020 13:47:17 11.8 C 33 %
1812 23-02-2020 13:57:18 11.8 C 33 %
1813 23-02-2020 14:07:17 11.8 C 33 %
1814 23-02-2020 14:17:17 11.7 C 33 %
1815 23-02-2020 14:27:17 11.8 C 34 %
1816 23-02-2020 14:37:18 11.9 C 34 %
1817 23-02-2020 14:47:17 11.9 C 34 %
1818 23-02-2020 14:57:17 11.9 C 34 %
1819 23-02-2020 15:07:17 11.9 C 34 %
1820 23-02-2020 15:17:17 11.9 C 34 %
1821 23-02-2020 15:27:17 12 C 33 %
1822 23-02-2020 15:37:18 11.8 C 34 %
1823 23-02-2020 15:47:17 11.9 C 34 %
1824 23-02-2020 15:57:17 11.8 C 34 %
1825 23-02-2020 16:07:18 11.8 C 34 %
Sensor: Nr:Datum:Temp:Feuchte:
Aussen-T/F 1826 23-02-2020 16:17:17 11.8 C 34 %
1827 23-02-2020 16:27:17 11.7 C 35 %
1828 23-02-2020 16:37:17 11.8 C 35 %
1829 23-02-2020 16:47:17 11.8 C 34 %
1830 23-02-2020 16:57:17 11.8 C 34 %
1831 23-02-2020 17:07:18 11.8 C 34 %
1832 23-02-2020 17:17:17 11.5 C 35 %
1833 23-02-2020 17:27:17 11.3 C 36 %
1834 23-02-2020 17:37:18 10.9 C 38 %
1835 23-02-2020 17:47:17 10.8 C 38 %
1836 23-02-2020 17:57:17 10.9 C 38 %
1837 23-02-2020 18:07:18 10.8 C 38 %
1838 23-02-2020 18:17:17 10.8 C 39 %
1839 23-02-2020 18:27:17 10.7 C 40 %
1840 23-02-2020 18:37:18 10.6 C 41 %
1841 23-02-2020 18:47:18 10.5 C 42 %
1842 23-02-2020 18:57:18 10.5 C 41 %
1843 23-02-2020 19:07:18 10.8 C 40 %
1844 23-02-2020 19:17:17 10.8 C 40 %
1845 23-02-2020 19:27:17 11.1 C 40 %
1846 23-02-2020 19:37:17 9.2 C 40 %
1847 23-02-2020 19:47:17 8.6 C 41 %
1848 23-02-2020 19:57:17 8.3 C 40 %
1849 23-02-2020 20:07:17 7.9 C 41 %
1850 23-02-2020 20:17:17 7.8 C 40 %
Sensor: Nr:Datum:Temp:Feuchte:
Aussen-T/F 1851 23-02-2020 20:27:17 7.6 C 40 %
1852 23-02-2020 20:37:17 7.6 C 40 %
1853 23-02-2020 20:47:17 7.6 C 40 %
1854 23-02-2020 20:57:17 7.6 C 39 %
1855 23-02-2020 21:07:17 7.4 C 39 %
1856 23-02-2020 21:17:17 7.7 C 37 %
1857 23-02-2020 21:27:17 7.3 C 37 %
1858 23-02-2020 21:37:17 7.4 C 37 %
1859 23-02-2020 21:47:18 7.4 C 36 %
1860 23-02-2020 21:57:18 7.6 C 37 %
1861 23-02-2020 22:07:18 7.7 C 36 %
1862 23-02-2020 22:17:18 7.7 C 36 %
1863 23-02-2020 22:27:18 7.6 C 35 %
1864 23-02-2020 22:37:18 7.6 C 35 %
1865 23-02-2020 22:47:17 7.6 C 35 %
1866 23-02-2020 22:57:18 7.3 C 35 %
1867 23-02-2020 23:07:18 7 C 34 %
1868 23-02-2020 23:17:18 6.7 C 36 %
1869 23-02-2020 23:27:18 7.2 C 33 %
1870 23-02-2020 23:37:18 7.1 C 32 %
1871 23-02-2020 23:47:17 7.2 C 32 %
1872 23-02-2020 23:57:18 6.8 C 33 %
1873 24-02-2020 00:07:18 6.7 C 32 %
1874 24-02-2020 00:17:18 6.3 C 34 %
1875 24-02-2020 00:27:18 6.5 C 34 %
Sensor: Nr:Datum:Temp:Feuchte:
Aussen-T/F 1876 24-02-2020 00:37:18 6.4 C 34 %
1877 24-02-2020 00:47:18 6 C 34 %
1878 24-02-2020 00:57:18 6.1 C 34 %
1879 24-02-2020 01:07:18 5.5 C 35 %
1880 24-02-2020 01:17:18 5.8 C 35 %
1881 24-02-2020 01:27:18 5.8 C 35 %
1882 24-02-2020 01:37:17 5.3 C 35 %
1883 24-02-2020 01:47:17 5.2 C 35 %
1884 24-02-2020 01:57:18 5 C 36 %
1885 24-02-2020 02:07:18 4.6 C 37 %
1886 24-02-2020 02:17:17 4.4 C 37 %
1887 24-02-2020 02:27:17 3.9 C 39 %
1888 24-02-2020 02:37:18 3.7 C 40 %
1889 24-02-2020 02:47:17 4 C 38 %
1890 24-02-2020 02:57:17 4.2 C 38 %
1891 24-02-2020 03:07:17 4.3 C 38 %
1892 24-02-2020 03:17:17 4.7 C 36 %
1893 24-02-2020 03:27:17 4.6 C 37 %
1894 24-02-2020 03:37:18 4.5 C 37 %
1895 24-02-2020 03:47:17 4.5 C 36 %
1896 24-02-2020 03:57:17 4.5 C 36 %
1897 24-02-2020 04:07:17 4.6 C 36 %
1898 24-02-2020 04:17:17 4.4 C 38 %
1899 24-02-2020 04:27:17 4.3 C 38 %
1900 24-02-2020 04:37:17 4 C 39 %
Sensor: Nr:Datum:Temp:Feuchte:
Aussen-T/F 1901 24-02-2020 04:47:17 3.7 C 41 %
1902 24-02-2020 04:57:17 3.8 C 41 %
1903 24-02-2020 05:07:17 3.8 C 42 %
1904 24-02-2020 05:17:17 4.1 C 41 %
1905 24-02-2020 05:27:17 4 C 40 %
1906 24-02-2020 05:37:17 3.8 C 41 %
1907 24-02-2020 05:47:18 4 C 40 %
1908 24-02-2020 05:57:18 4 C 40 %
1909 24-02-2020 06:07:17 4 C 40 %
1910 24-02-2020 06:17:18 4 C 41 %
1911 24-02-2020 06:27:18 3.9 C 42 %
1912 24-02-2020 06:37:17 4 C 41 %
1913 24-02-2020 06:47:18 3.9 C 42 %
1914 24-02-2020 06:57:18 4.2 C 40 %
1915 24-02-2020 07:07:18 4.2 C 40 %
1916 24-02-2020 07:17:18 4.3 C 40 %
1917 24-02-2020 07:27:18 4.3 C 40 %
1918 24-02-2020 07:37:18 4.4 C 39 %
1919 24-02-2020 07:47:17 4.5 C 39 %
1920 24-02-2020 07:57:17 5.1 C 37 %
1921 24-02-2020 08:07:18 5.2 C 37 %
1922 24-02-2020 08:17:18 5.4 C 37 %
1923 24-02-2020 08:27:18 5.7 C 36 %
1924 24-02-2020 08:37:18 5.9 C 36 %
1925 24-02-2020 08:47:18 6 C 35 %
Sensor: Nr:Datum:Temp:Feuchte:
Aussen-T/F 1926 24-02-2020 08:57:18 6.2 C 35 %
1927 24-02-2020 09:07:18 6.3 C 35 %
1928 24-02-2020 09:17:18 6.3 C 35 %
1929 24-02-2020 09:27:18 6.1 C 35 %
1930 24-02-2020 09:37:18 6 C 35 %
1931 24-02-2020 09:47:18 6 C 35 %
1932 24-02-2020 09:57:18 6 C 36 %
1933 24-02-2020 10:07:18 5.9 C 37 %
1934 24-02-2020 10:17:18 5.7 C 38 %
1935 24-02-2020 10:27:18 5.7 C 39 %
1936 24-02-2020 10:37:17 5.6 C 40 %
1937 24-02-2020 10:47:18 5.7 C 40 %
1938 24-02-2020 10:57:18 5.9 C 40 %
1939 24-02-2020 11:07:18 6 C 40 %
1940 24-02-2020 11:17:18 6 C 40 %
1941 24-02-2020 11:27:18 6.1 C 40 %
1942 24-02-2020 11:37:18 6.1 C 40 %
1943 24-02-2020 11:47:18 6.1 C 40 %
1944 24-02-2020 11:57:18 6.5 C 40 %
1945 24-02-2020 12:07:17 6.7 C 40 %
1946 24-02-2020 12:17:17 6.9 C 40 %
1947 24-02-2020 12:27:17 6.7 C 40 %
1948 24-02-2020 12:37:18 6.8 C 40 %
1949 24-02-2020 12:47:17 7.1 C 41 %
1950 24-02-2020 12:57:18 7.3 C 40 %
Sensor: Nr:Datum:Temp:Feuchte:
Aussen-T/F 1951 24-02-2020 13:07:18 7.7 C 40 %
1952 24-02-2020 13:17:18 7.9 C 40 %
1953 24-02-2020 13:27:18 8.2 C 39 %
1954 24-02-2020 13:37:18 8.2 C 39 %
1955 24-02-2020 13:47:17 8.2 C 40 %
1956 24-02-2020 13:57:17 8.4 C 40 %
1957 24-02-2020 14:07:18 8.8 C 40 %
1958 24-02-2020 14:17:17 9.3 C 40 %
1959 24-02-2020 14:27:18 9.6 C 39 %
1960 24-02-2020 14:37:18 10.2 C 37 %
1961 24-02-2020 14:47:17 10.8 C 37 %
1962 24-02-2020 14:57:17 10.9 C 37 %
1963 24-02-2020 15:07:18 10.7 C 37 %
1964 24-02-2020 15:17:18 10.7 C 37 %
1965 24-02-2020 15:27:18 10.8 C 37 %
1966 24-02-2020 15:37:18 11 C 36 %
1967 24-02-2020 15:47:17 11.3 C 36 %
1968 24-02-2020 15:57:18 11.5 C 36 %
1969 24-02-2020 16:07:18 11.5 C 35 %
1970 24-02-2020 16:17:18 11.8 C 35 %
1971 24-02-2020 16:27:18 11.9 C 35 %
1972 24-02-2020 16:37:18 11.7 C 35 %
1973 24-02-2020 16:47:17 11.3 C 35 %
1974 24-02-2020 16:57:17 11.5 C 35 %
1975 24-02-2020 17:07:18 11.5 C 35 %
Sensor: Nr:Datum:Temp:Feuchte:
Aussen-T/F 1976 24-02-2020 17:17:18 11.5 C 35 %
1977 24-02-2020 17:27:18 11.5 C 34 %
1978 24-02-2020 17:37:18 11.4 C 34 %
1979 24-02-2020 17:47:18 11.5 C 33 %
1980 24-02-2020 17:57:18 11.4 C 33 %
1981 24-02-2020 18:07:18 11.3 C 33 %
1982 24-02-2020 18:17:18 11.2 C 33 %
1983 24-02-2020 18:27:18 11.2 C 33 %
1984 24-02-2020 18:37:17 11 C 33 %
1985 24-02-2020 18:47:17 11 C 33 %
1986 24-02-2020 18:57:17 11 C 33 %
1987 24-02-2020 19:07:17 11.1 C 33 %
1988 24-02-2020 19:17:17 10.8 C 34 %
1989 24-02-2020 19:27:17 11.2 C 32 %
1990 24-02-2020 19:37:18 11.2 C 32 %
1991 24-02-2020 19:47:18 11.1 C 32 %
1992 24-02-2020 19:57:18 11.3 C 32 %
1993 24-02-2020 20:07:18 11.4 C 32 %
1994 24-02-2020 20:17:18 11.2 C 31 %
1995 24-02-2020 20:27:18 11.3 C 31 %
1996 24-02-2020 20:37:18 11.2 C 31 %
1997 24-02-2020 20:47:17 11.2 C 31 %
1998 24-02-2020 20:57:18 11 C 31 %
1999 24-02-2020 21:07:18 10.9 C 32 %
2000 24-02-2020 21:18:17 11 C 32 %
Sensor: Nr:Datum:Temp:Feuchte:
Aussen-T/F 2001 24-02-2020 21:27:17 10.9 C 33 %
2002 24-02-2020 21:37:17 10.9 C 33 %
2003 24-02-2020 21:48:17 10.9 C 33 %
2004 24-02-2020 21:57:17 10.8 C 33 %
2005 24-02-2020 22:07:17 11 C 32 %
2006 24-02-2020 22:17:17 10.9 C 33 %
2007 24-02-2020 22:27:17 11 C 32 %
2008 24-02-2020 22:37:17 10.9 C 33 %
2009 24-02-2020 22:47:17 11.1 C 32 %
2010 24-02-2020 22:57:17 11.1 C 32 %
2011 24-02-2020 23:08:17 11 C 32 %
2012 24-02-2020 23:18:17 10.9 C 33 %
2013 24-02-2020 23:28:17 11 C 32 %
2014 24-02-2020 23:37:18 10.9 C 33 %
2015 24-02-2020 23:48:17 10.8 C 33 %
2016 24-02-2020 23:58:17 10.4 C 34 %
2017 25-02-2020 00:08:17 10.5 C 34 %
2018 25-02-2020 00:17:17 10.4 C 34 %
2019 25-02-2020 00:27:17 10.2 C 35 %
2020 25-02-2020 00:37:18 10.4 C 35 %
2021 25-02-2020 00:47:17 10.6 C 35 %
2022 25-02-2020 00:57:17 10.5 C 35 %
2023 25-02-2020 01:08:17 10.5 C 35 %
2024 25-02-2020 01:18:17 10.5 C 35 %
2025 25-02-2020 01:28:17 10.5 C 35 %
Sensor: Nr:Datum:Temp:Feuchte:
Aussen-T/F 2026 25-02-2020 01:38:17 10.6 C 35 %
2027 25-02-2020 01:48:17 10.4 C 35 %
2028 25-02-2020 01:58:17 10.5 C 35 %
2029 25-02-2020 02:08:17 10.4 C 35 %
2030 25-02-2020 02:18:17 10.3 C 35 %
2031 25-02-2020 02:28:17 10.4 C 35 %
2032 25-02-2020 02:38:17 10.3 C 35 %
2033 25-02-2020 02:48:17 10.3 C 35 %
2034 25-02-2020 02:58:17 10.1 C 35 %
2035 25-02-2020 03:08:17 9.7 C 36 %
2036 25-02-2020 03:18:17 9.8 C 36 %
2037 25-02-2020 03:28:18 10 C 36 %
2038 25-02-2020 03:38:18 10 C 35 %
2039 25-02-2020 03:48:17 10 C 35 %
2040 25-02-2020 03:58:18 10 C 35 %
2041 25-02-2020 04:08:18 10 C 35 %
2042 25-02-2020 04:18:18 9.9 C 36 %
2043 25-02-2020 04:28:18 9.9 C 36 %
2044 25-02-2020 04:38:18 9.9 C 36 %
2045 25-02-2020 04:48:17 9.9 C 36 %
2046 25-02-2020 04:58:17 9.9 C 36 %
2047 25-02-2020 05:08:18 9.9 C 36 %
2048 25-02-2020 05:18:17 9.8 C 36 %
2049 25-02-2020 05:28:18 9.7 C 36 %
2050 25-02-2020 05:38:18 9.7 C 36 %
Sensor: Nr:Datum:Temp:Feuchte:
Aussen-T/F 2051 25-02-2020 05:48:18 9.7 C 36 %
2052 25-02-2020 05:58:18 9.7 C 35 %
2053 25-02-2020 06:08:18 9.7 C 35 %
2054 25-02-2020 06:18:17 9.6 C 35 %
2055 25-02-2020 06:28:18 9.5 C 35 %
2056 25-02-2020 06:38:18 9.4 C 36 %
2057 25-02-2020 06:48:17 9.4 C 36 %
2058 25-02-2020 06:58:17 9.3 C 36 %
2059 25-02-2020 07:08:17 9.2 C 36 %
2060 25-02-2020 07:18:17 9.1 C 36 %
2061 25-02-2020 07:28:18 9.1 C 36 %
2062 25-02-2020 07:38:18 8.6 C 38 %
2063 25-02-2020 07:48:17 8.4 C 40 %
2064 25-02-2020 07:58:17 8.2 C 42 %
2065 25-02-2020 08:08:18 8.1 C 43 %
2066 25-02-2020 08:18:17 8 C 44 %
2067 25-02-2020 08:28:17 8 C 42 %
2068 25-02-2020 08:38:17 8 C 42 %
2069 25-02-2020 08:48:17 8.1 C 42 %
2070 25-02-2020 08:58:17 8.2 C 41 %
2071 25-02-2020 09:08:18 8.2 C 41 %
2072 25-02-2020 09:18:17 8.2 C 40 %
2073 25-02-2020 09:28:17 8.5 C 38 %
2074 25-02-2020 09:38:18 8.7 C 38 %
2075 25-02-2020 09:48:17 8.7 C 36 %
Sensor: Nr:Datum:Temp:Feuchte:
Aussen-T/F 2076 25-02-2020 09:58:17 8.6 C 34 %
2077 25-02-2020 10:08:17 8.6 C 33 %
2078 25-02-2020 10:18:17 8.2 C 33 %
2079 25-02-2020 10:28:17 8.7 C 33 %
2080 25-02-2020 10:38:18 8.7 C 33 %
2081 25-02-2020 10:48:17 9.2 C 32 %
2082 25-02-2020 10:58:17 9.6 C 31 %
2083 25-02-2020 11:08:18 9.1 C 32 %
2084 25-02-2020 11:18:17 8 C 32 %
2085 25-02-2020 11:28:17 8.3 C 32 %
2086 25-02-2020 11:38:17 8.2 C 31 %
2087 25-02-2020 11:48:17 8.5 C 31 %
2088 25-02-2020 11:58:18 8.9 C 30 %
2089 25-02-2020 12:08:18 11.2 C 26 %
2090 25-02-2020 12:18:18 10.4 C 22 %
2091 25-02-2020 12:28:18 10.7 C 21 %
2092 25-02-2020 12:38:18 10.2 C 23 %
2093 25-02-2020 12:48:18 10.2 C 22 %
2094 25-02-2020 12:58:18 10.6 C 25 %
2095 25-02-2020 13:08:18 10.1 C 25 %
2096 25-02-2020 13:18:17 11.1 C 25 %
2097 25-02-2020 13:28:17 11.1 C 25 %
2098 25-02-2020 13:38:17 11.4 C 23 %
2099 25-02-2020 13:48:17 10 C 22 %
2100 25-02-2020 13:58:17 10.7 C 23 %
Sensor: Nr:Datum:Temp:Feuchte:
Aussen-T/F 2101 25-02-2020 14:08:17 10.7 C 22 %
2102 25-02-2020 14:18:17 10.4 C 20 %
2103 25-02-2020 14:28:17 10.2 C 22 %
2104 25-02-2020 14:38:18 10.2 C 21 %
2105 25-02-2020 14:48:17 11 C 21 %
2106 25-02-2020 14:58:17 10.4 C 22 %
2107 25-02-2020 15:08:17 10.1 C 25 %
2108 25-02-2020 15:18:17 11.1 C 22 %
2109 25-02-2020 15:28:17 11.1 C 22 %
2110 25-02-2020 15:38:17 11.2 C 20 %
2111 25-02-2020 15:48:18 11.5 C 20 %
2112 25-02-2020 15:58:18 11.7 C 20 %
2113 25-02-2020 16:08:18 10.3 C 21 %
2114 25-02-2020 16:18:18 10.1 C 21 %
2115 25-02-2020 16:28:18 10.1 C 20 %
2116 25-02-2020 16:38:18 12.4 C 20 %
2117 25-02-2020 16:48:17 11.5 C 20 %
2118 25-02-2020 16:58:18 10 C 20 %
2119 25-02-2020 17:08:18 9.9 C 20 %
2120 25-02-2020 17:18:17 10.8 C 20 %
2121 25-02-2020 17:28:18 9.5 C 25 %
2122 25-02-2020 17:38:18 9.1 C 25 %
2123 25-02-2020 17:48:18 9 C 25 %
2124 25-02-2020 17:58:18 8.9 C 27 %
2125 25-02-2020 18:08:18 8.8 C 26 %
Sensor: Nr:Datum:Temp:Feuchte:
Aussen-T/F 2126 25-02-2020 18:18:18 8.5 C 27 %
2127 25-02-2020 18:28:18 8.4 C 28 %
2128 25-02-2020 18:38:18 8.6 C 27 %
2129 25-02-2020 18:48:17 8.4 C 28 %
2130 25-02-2020 18:58:17 7.1 C 31 %
2131 25-02-2020 19:08:18 6.5 C 35 %
2132 25-02-2020 19:18:18 6.3 C 35 %
2133 25-02-2020 19:28:18 6.2 C 35 %
2134 25-02-2020 19:38:18 6 C 37 %
2135 25-02-2020 19:48:17 5.8 C 40 %
2136 25-02-2020 19:58:17 5.7 C 40 %
2137 25-02-2020 20:08:18 5.6 C 40 %
2138 25-02-2020 20:18:17 5.5 C 41 %
2139 25-02-2020 20:28:18 5.6 C 41 %
2140 25-02-2020 20:38:18 5.9 C 39 %
2141 25-02-2020 20:48:17 6 C 38 %
2142 25-02-2020 20:58:17 5.9 C 39 %
2143 25-02-2020 21:08:17 5.3 C 40 %
2144 25-02-2020 21:18:17 5.3 C 40 %
2145 25-02-2020 21:28:17 5.3 C 40 %
2146 25-02-2020 21:38:17 5.2 C 41 %
2147 25-02-2020 21:48:18 5.8 C 36 %
2148 25-02-2020 21:58:18 5.8 C 35 %
2149 25-02-2020 22:08:18 5.6 C 34 %
2150 25-02-2020 22:18:17 5.6 C 33 %
Sensor: Nr:Datum:Temp:Feuchte:
Aussen-T/F 2151 25-02-2020 22:28:17 5.3 C 33 %
2152 25-02-2020 22:38:17 4.8 C 34 %
2153 25-02-2020 22:48:18 4.4 C 35 %
2154 25-02-2020 22:58:18 4.2 C 35 %
2155 25-02-2020 23:08:18 4.2 C 35 %
2156 25-02-2020 23:18:18 4.4 C 35 %
2157 25-02-2020 23:28:18 4.6 C 35 %
2158 25-02-2020 23:38:18 5.4 C 34 %
2159 25-02-2020 23:48:17 5.5 C 34 %
2160 25-02-2020 23:58:17 5.4 C 33 %
2161 26-02-2020 00:08:17 5.3 C 35 %
2162 26-02-2020 00:18:17 5 C 35 %
2163 26-02-2020 00:28:17 4.9 C 36 %
2164 26-02-2020 00:38:18 5.1 C 35 %
2165 26-02-2020 00:48:17 5.4 C 35 %
2166 26-02-2020 00:58:17 5.3 C 35 %
2167 26-02-2020 01:08:17 5.4 C 35 %
2168 26-02-2020 01:18:17 5.5 C 35 %
2169 26-02-2020 01:28:17 5.4 C 35 %
2170 26-02-2020 01:38:17 5.3 C 35 %
2171 26-02-2020 01:48:17 5.1 C 35 %
2172 26-02-2020 01:58:17 5 C 35 %
2173 26-02-2020 02:08:18 5.2 C 35 %
2174 26-02-2020 02:18:18 5.2 C 34 %
2175 26-02-2020 02:28:18 5.2 C 34 %
Sensor: Nr:Datum:Temp:Feuchte:
Aussen-T/F 2176 26-02-2020 02:38:17 5 C 34 %
2177 26-02-2020 02:48:18 5.1 C 33 %
2178 26-02-2020 02:58:18 5 C 32 %
2179 26-02-2020 03:08:17 4.8 C 33 %
2180 26-02-2020 03:18:17 4.7 C 33 %
2181 26-02-2020 03:28:17 4.3 C 34 %
2182 26-02-2020 03:38:18 3.8 C 35 %
2183 26-02-2020 03:48:18 3.7 C 35 %
2184 26-02-2020 03:58:18 4 C 34 %
2185 26-02-2020 04:08:18 3.9 C 35 %
2186 26-02-2020 04:18:18 3.9 C 35 %
2187 26-02-2020 04:28:18 3.9 C 35 %
2188 26-02-2020 04:38:18 3.8 C 35 %
2189 26-02-2020 04:48:17 3.9 C 35 %
2190 26-02-2020 04:58:18 3.9 C 35 %
2191 26-02-2020 05:08:18 4 C 33 %
2192 26-02-2020 05:18:18 3.9 C 35 %
2193 26-02-2020 05:28:18 4 C 33 %
2194 26-02-2020 05:38:18 3.9 C 35 %
2195 26-02-2020 05:48:17 3.7 C 35 %
2196 26-02-2020 05:58:18 3.9 C 34 %
2197 26-02-2020 06:08:18 3.9 C 34 %
2198 26-02-2020 06:18:18 4 C 32 %
2199 26-02-2020 06:28:18 3.7 C 34 %
2200 26-02-2020 06:38:18 3.9 C 33 %
Sensor: Nr:Datum:Temp:Feuchte:
Aussen-T/F 2201 26-02-2020 06:48:17 3.7 C 33 %
2202 26-02-2020 06:58:17 3.6 C 33 %
2203 26-02-2020 07:08:18 3.4 C 34 %
2204 26-02-2020 07:18:18 3.4 C 34 %
2205 26-02-2020 07:28:18 3.2 C 35 %
2206 26-02-2020 07:38:17 3.4 C 35 %
2207 26-02-2020 07:48:18 3.4 C 35 %
2208 26-02-2020 07:58:18 3.4 C 35 %
2209 26-02-2020 08:08:18 3.5 C 35 %
2210 26-02-2020 08:18:17 3.5 C 35 %
2211 26-02-2020 08:28:17 3.6 C 35 %
2212 26-02-2020 08:38:18 3.6 C 34 %
2213 26-02-2020 08:48:18 3.5 C 35 %
2214 26-02-2020 08:58:18 3.3 C 35 %
2215 26-02-2020 09:08:17 2.9 C 36 %
2216 26-02-2020 09:18:17 2.9 C 37 %
2217 26-02-2020 09:28:17 3 C 37 %
2218 26-02-2020 09:38:18 3.2 C 36 %
2219 26-02-2020 09:48:18 3.6 C 36 %
2220 26-02-2020 09:58:18 3.4 C 36 %
2221 26-02-2020 10:08:18 3.4 C 36 %
2222 26-02-2020 10:18:17 3.4 C 36 %
2223 26-02-2020 10:28:17 3.3 C 37 %
2224 26-02-2020 10:38:17 3.5 C 36 %
2225 26-02-2020 10:48:17 4.2 C 35 %
Sensor: Nr:Datum:Temp:Feuchte:
Aussen-T/F 2226 26-02-2020 10:58:17 4.4 C 35 %
2227 26-02-2020 11:08:17 4.5 C 34 %
2228 26-02-2020 11:18:17 5 C 33 %
2229 26-02-2020 11:28:17 5.1 C 33 %
2230 26-02-2020 11:38:18 5.4 C 32 %
2231 26-02-2020 11:48:18 5.3 C 32 %
2232 26-02-2020 11:58:18 5.9 C 32 %
2233 26-02-2020 12:08:17 6.1 C 31 %
2234 26-02-2020 12:18:17 6.4 C 31 %
2235 26-02-2020 12:28:17 5.7 C 31 %
2236 26-02-2020 12:38:17 5.7 C 31 %
2237 26-02-2020 12:48:17 5.7 C 31 %
2238 26-02-2020 12:58:17 6.7 C 29 %
2239 26-02-2020 13:08:17 6.7 C 29 %
2240 26-02-2020 13:18:18 6.1 C 30 %
2241 26-02-2020 13:28:18 5 C 31 %
2242 26-02-2020 13:38:17 5.3 C 31 %
2243 26-02-2020 13:48:17 5.3 C 31 %
2244 26-02-2020 13:58:17 5.1 C 31 %
2245 26-02-2020 14:08:17 5.1 C 32 %
2246 26-02-2020 14:18:17 5.1 C 32 %
2247 26-02-2020 14:28:17 5.1 C 32 %
2248 26-02-2020 14:38:17 5.6 C 32 %
2249 26-02-2020 14:48:17 5.8 C 32 %
2250 26-02-2020 14:58:17 5.6 C 32 %
Sensor: Nr:Datum:Temp:Feuchte:
Aussen-T/F 2251 26-02-2020 15:08:17 5.6 C 32 %
2252 26-02-2020 15:18:17 6.4 C 31 %
2253 26-02-2020 15:28:17 7.6 C 29 %
2254 26-02-2020 15:38:17 6.3 C 30 %
2255 26-02-2020 15:48:17 6.2 C 30 %
2256 26-02-2020 15:58:17 5.8 C 30 %
2257 26-02-2020 16:08:17 5.9 C 30 %
2258 26-02-2020 16:18:17 5.5 C 30 %
2259 26-02-2020 16:28:17 5.5 C 30 %
2260 26-02-2020 16:38:17 5.4 C 30 %
2261 26-02-2020 16:48:18 5.6 C 30 %
2262 26-02-2020 16:58:18 5.4 C 30 %
2263 26-02-2020 17:08:18 5.3 C 30 %
2264 26-02-2020 17:18:18 5.1 C 30 %
2265 26-02-2020 17:28:18 5.1 C 30 %
2266 26-02-2020 17:38:17 4.8 C 30 %
2267 26-02-2020 17:48:18 4.5 C 31 %
2268 26-02-2020 17:58:18 4.2 C 31 %
2269 26-02-2020 18:08:18 4 C 32 %
2270 26-02-2020 18:18:18 4 C 32 %
2271 26-02-2020 18:28:18 4 C 32 %
2272 26-02-2020 18:38:18 4 C 32 %
2273 26-02-2020 18:48:18 4.1 C 32 %
2274 26-02-2020 18:58:18 4.1 C 32 %
2275 26-02-2020 19:08:18 4 C 32 %
Sensor: Nr:Datum:Temp:Feuchte:
Aussen-T/F 2276 26-02-2020 19:18:17 4 C 33 %
2277 26-02-2020 19:28:17 3.9 C 35 %
2278 26-02-2020 19:38:17 3.8 C 35 %
2279 26-02-2020 19:48:17 3.6 C 35 %
2280 26-02-2020 19:58:17 3.4 C 35 %
2281 26-02-2020 20:08:17 3.3 C 35 %
2282 26-02-2020 20:18:17 3.6 C 35 %
2283 26-02-2020 20:28:17 3.6 C 35 %
2284 26-02-2020 20:38:17 3.6 C 35 %
2285 26-02-2020 20:48:17 3.4 C 35 %
2286 26-02-2020 20:58:17 3.6 C 35 %
2287 26-02-2020 21:08:18 3.6 C 35 %
2288 26-02-2020 21:18:18 3.5 C 35 %
2289 26-02-2020 21:28:18 3.2 C 35 %
2290 26-02-2020 21:38:18 3.4 C 35 %
2291 26-02-2020 21:48:17 3.4 C 35 %
2292 26-02-2020 21:58:17 3.5 C 35 %
2293 26-02-2020 22:08:18 3.3 C 36 %
2294 26-02-2020 22:18:18 3.3 C 36 %
2295 26-02-2020 22:28:18 3.3 C 36 %
2296 26-02-2020 22:38:18 3.4 C 36 %
2297 26-02-2020 22:48:17 3.2 C 37 %
2298 26-02-2020 22:58:17 3.3 C 37 %
2299 26-02-2020 23:08:18 3.1 C 37 %
2300 26-02-2020 23:18:18 3 C 37 %
Sensor: Nr:Datum:Temp:Feuchte:
Aussen-T/F 2301 26-02-2020 23:28:18 2.9 C 38 %
2302 26-02-2020 23:38:17 2.8 C 38 %
2303 26-02-2020 23:48:17 2.9 C 37 %
2304 26-02-2020 23:58:17 2.7 C 38 %
2305 27-02-2020 00:08:17 2.9 C 37 %
2306 27-02-2020 00:18:17 3.1 C 37 %
2307 27-02-2020 00:28:17 2.8 C 37 %
2308 27-02-2020 00:38:18 3.1 C 36 %
2309 27-02-2020 00:48:18 2.9 C 37 %
2310 27-02-2020 00:58:18 2.8 C 37 %
2311 27-02-2020 01:08:18 2.3 C 38 %
2312 27-02-2020 01:18:18 2.2 C 38 %
2313 27-02-2020 01:28:18 2.2 C 38 %
2314 27-02-2020 01:38:18 2 C 38 %
2315 27-02-2020 01:48:17 2.6 C 38 %
2316 27-02-2020 01:58:17 2.7 C 38 %
2317 27-02-2020 02:08:18 2.6 C 38 %
2318 27-02-2020 02:18:17 2.9 C 37 %
2319 27-02-2020 02:28:17 2.9 C 37 %
2320 27-02-2020 02:38:17 2.5 C 38 %
2321 27-02-2020 02:48:17 2.7 C 38 %
2322 27-02-2020 02:58:17 3.1 C 36 %
2323 27-02-2020 03:08:18 3.1 C 37 %
2324 27-02-2020 03:18:17 2.6 C 40 %
2325 27-02-2020 03:28:17 2.6 C 40 %
Sensor: Nr:Datum:Temp:Feuchte:
Aussen-T/F 2326 27-02-2020 03:38:17 2.6 C 40 %
2327 27-02-2020 03:48:17 2.7 C 40 %
2328 27-02-2020 03:58:17 2.7 C 40 %
2329 27-02-2020 04:08:18 2.7 C 40 %
2330 27-02-2020 04:18:18 2.7 C 40 %
2331 27-02-2020 04:28:18 2.6 C 40 %
2332 27-02-2020 04:38:18 2.7 C 39 %
2333 27-02-2020 04:48:17 2.3 C 40 %
2334 27-02-2020 04:58:17 2.3 C 39 %
2335 27-02-2020 05:08:18 2.1 C 40 %
2336 27-02-2020 05:18:17 2.3 C 40 %
2337 27-02-2020 05:28:18 2 C 40 %
2338 27-02-2020 05:38:17 2 C 40 %
2339 27-02-2020 05:48:17 2.3 C 40 %
2340 27-02-2020 05:58:17 2.4 C 39 %
2341 27-02-2020 06:08:17 2.2 C 39 %
2342 27-02-2020 06:18:17 2.2 C 38 %
2343 27-02-2020 06:28:17 2.3 C 38 %
2344 27-02-2020 06:38:18 2.3 C 38 %
2345 27-02-2020 06:48:17 2.3 C 38 %
2346 27-02-2020 06:58:17 2.1 C 38 %
2347 27-02-2020 07:08:18 2.3 C 38 %
2348 27-02-2020 07:18:18 2.3 C 38 %
2349 27-02-2020 07:28:18 2.4 C 39 %
2350 27-02-2020 07:38:18 2.5 C 38 %
Sensor: Nr:Datum:Temp:Feuchte:
Aussen-T/F 2351 27-02-2020 07:48:17 2.4 C 39 %
2352 27-02-2020 07:58:17 2.6 C 39 %
2353 27-02-2020 08:08:17 2.5 C 39 %
2354 27-02-2020 08:18:17 2.6 C 40 %
2355 27-02-2020 08:28:17 2.9 C 40 %
2356 27-02-2020 08:38:17 3.2 C 38 %
2357 27-02-2020 08:48:17 3.5 C 37 %
2358 27-02-2020 08:58:17 3.8 C 37 %
2359 27-02-2020 09:08:17 4.2 C 35 %
2360 27-02-2020 09:18:17 4.3 C 35 %
2361 27-02-2020 09:28:17 4.6 C 35 %
2362 27-02-2020 09:38:17 4.7 C 35 %
2363 27-02-2020 09:48:17 4.9 C 35 %
2364 27-02-2020 09:58:17 5.2 C 34 %
2365 27-02-2020 10:08:17 5.1 C 34 %
2366 27-02-2020 10:18:17 5.3 C 33 %
2367 27-02-2020 10:28:17 5.2 C 33 %
2368 27-02-2020 10:38:17 5.4 C 33 %
2369 27-02-2020 10:48:17 5.4 C 33 %
2370 27-02-2020 10:58:17 5 C 33 %
2371 27-02-2020 11:08:17 4.6 C 35 %
2372 27-02-2020 11:18:17 4.2 C 35 %
2373 27-02-2020 11:28:17 3.7 C 36 %
2374 27-02-2020 11:38:17 3.7 C 38 %
2375 27-02-2020 11:48:18 3.9 C 39 %
Sensor: Nr:Datum:Temp:Feuchte:
Aussen-T/F 2376 27-02-2020 11:58:18 3.9 C 39 %
2377 27-02-2020 12:08:18 3.8 C 39 %
2378 27-02-2020 12:18:18 3.9 C 39 %
2379 27-02-2020 12:28:18 3.8 C 40 %
2380 27-02-2020 12:38:18 3.8 C 40 %
2381 27-02-2020 12:48:17 3.5 C 40 %
2382 27-02-2020 12:58:17 3.4 C 41 %
2383 27-02-2020 13:08:18 3.3 C 41 %
2384 27-02-2020 13:18:18 3.2 C 41 %
2385 27-02-2020 13:28:18 3 C 42 %
2386 27-02-2020 13:38:17 2.8 C 42 %
2387 27-02-2020 13:48:17 2.6 C 43 %
2388 27-02-2020 13:58:17 2.6 C 43 %
2389 27-02-2020 14:08:17 2.6 C 44 %
2390 27-02-2020 14:18:17 2.7 C 44 %
2391 27-02-2020 14:28:17 2.5 C 44 %
2392 27-02-2020 14:38:18 2.5 C 44 %
2393 27-02-2020 14:48:18 2.5 C 44 %
2394 27-02-2020 14:58:18 2.4 C 44 %
2395 27-02-2020 15:08:18 2.3 C 44 %
2396 27-02-2020 15:18:18 2.2 C 44 %
2397 27-02-2020 15:28:18 2.3 C 45 %
2398 27-02-2020 15:38:18 2.1 C 44 %
2399 27-02-2020 15:48:17 2.1 C 45 %
2400 27-02-2020 15:58:17 1.8 C 46 %
Sensor: Nr:Datum:Temp:Feuchte:
Aussen-T/F 2401 27-02-2020 16:08:17 1.6 C 46 %
2402 27-02-2020 16:18:17 1.1 C 46 %
2403 27-02-2020 16:28:17 0.8 C 47 %
2404 27-02-2020 16:38:18 0.4 C 48 %
2405 27-02-2020 16:48:17 0.2 C 48 %
2406 27-02-2020 16:58:17 0.2 C 48 %
2407 27-02-2020 17:08:18 0 C 49 %
2408 27-02-2020 17:18:18 0 C 48 %
2409 27-02-2020 17:28:18 0 C 48 %
2410 27-02-2020 17:38:17 0 C 48 %
2411 27-02-2020 17:48:17 0 C 48 %
2412 27-02-2020 17:58:17 0 C 48 %
2413 27-02-2020 18:08:18 0.1 C 48 %
2414 27-02-2020 18:18:17 0.1 C 48 %
2415 27-02-2020 18:28:17 0.1 C 48 %
2416 27-02-2020 18:38:17 0.1 C 48 %
2417 27-02-2020 18:48:18 0.1 C 48 %
2418 27-02-2020 18:58:18 0.1 C 48 %
2419 27-02-2020 19:08:18 0.3 C 48 %
2420 27-02-2020 19:18:18 0.4 C 48 %
2421 27-02-2020 19:28:18 0.3 C 48 %
2422 27-02-2020 19:38:18 0.6 C 48 %
2423 27-02-2020 19:48:18 0.6 C 48 %
2424 27-02-2020 19:58:18 0.6 C 48 %
2425 27-02-2020 20:08:18 0.7 C 48 %
Sensor: Nr:Datum:Temp:Feuchte:
Aussen-T/F 2426 27-02-2020 20:18:18 0.6 C 48 %
2427 27-02-2020 20:28:18 0.8 C 48 %
2428 27-02-2020 20:38:17 0.6 C 48 %
2429 27-02-2020 20:48:17 0.5 C 48 %
2430 27-02-2020 20:58:17 0.6 C 48 %
2431 27-02-2020 21:08:17 0.6 C 48 %
2432 27-02-2020 21:18:17 0.7 C 47 %
2433 27-02-2020 21:28:17 0.7 C 47 %
2434 27-02-2020 21:38:17 0.7 C 47 %
2435 27-02-2020 21:48:17 0.7 C 47 %
2436 27-02-2020 21:58:17 0.7 C 48 %
2437 27-02-2020 22:08:18 0.7 C 48 %
2438 27-02-2020 22:18:17 0.6 C 48 %
2439 27-02-2020 22:28:18 0.7 C 49 %
2440 27-02-2020 22:38:18 1 C 47 %
2441 27-02-2020 22:48:17 1 C 45 %
2442 27-02-2020 22:58:18 1 C 46 %
2443 27-02-2020 23:08:18 1.1 C 46 %
2444 27-02-2020 23:18:18 1.4 C 46 %
2445 27-02-2020 23:28:18 1.6 C 45 %
2446 27-02-2020 23:38:18 1.5 C 44 %
2447 27-02-2020 23:48:18 1.7 C 44 %
2448 27-02-2020 23:58:18 1.6 C 43 %
2449 28-02-2020 00:08:18 1.7 C 43 %
2450 28-02-2020 00:18:17 1.9 C 43 %
Sensor: Nr:Datum:Temp:Feuchte:
Aussen-T/F 2451 28-02-2020 00:28:17 1.7 C 43 %
2452 28-02-2020 00:38:18 1.6 C 45 %
2453 28-02-2020 00:48:17 1.5 C 45 %
2454 28-02-2020 00:58:17 1.7 C 45 %
2455 28-02-2020 01:08:17 1.4 C 46 %
2456 28-02-2020 01:18:17 1.4 C 46 %
2457 28-02-2020 01:28:17 1.3 C 46 %
2458 28-02-2020 01:38:17 1.5 C 45 %
2459 28-02-2020 01:48:18 1.5 C 45 %
2460 28-02-2020 01:58:18 1.4 C 45 %
2461 28-02-2020 02:08:18 1.4 C 46 %
2462 28-02-2020 02:18:18 1.4 C 45 %
2463 28-02-2020 02:28:18 1.5 C 45 %
2464 28-02-2020 02:38:18 1.4 C 44 %
2465 28-02-2020 02:48:17 1.4 C 44 %
2466 28-02-2020 02:58:18 1.4 C 43 %
2467 28-02-2020 03:08:18 1.5 C 42 %
2468 28-02-2020 03:18:18 1.3 C 43 %
2469 28-02-2020 03:28:18 1.1 C 43 %
2470 28-02-2020 03:38:18 1 C 43 %
2471 28-02-2020 03:48:17 0.9 C 44 %
2472 28-02-2020 03:58:17 1.1 C 44 %
2473 28-02-2020 04:08:17 1.2 C 43 %
2474 28-02-2020 04:18:17 1.3 C 43 %
2475 28-02-2020 04:28:18 1.3 C 43 %
Sensor: Nr:Datum:Temp:Feuchte:
Aussen-T/F 2476 28-02-2020 04:38:18 1.3 C 43 %
2477 28-02-2020 04:48:17 1.3 C 43 %
2478 28-02-2020 04:58:17 1.4 C 42 %
2479 28-02-2020 05:08:17 1.2 C 42 %
2480 28-02-2020 05:18:17 1 C 43 %
2481 28-02-2020 05:28:17 0.9 C 45 %
2482 28-02-2020 05:38:17 1 C 43 %
2483 28-02-2020 05:48:17 1.1 C 42 %
2484 28-02-2020 05:58:17 1.1 C 43 %
2485 28-02-2020 06:08:17 0.8 C 44 %
2486 28-02-2020 06:18:17 0.6 C 45 %
2487 28-02-2020 06:28:17 0.8 C 44 %
2488 28-02-2020 06:38:18 0.8 C 43 %
2489 28-02-2020 06:48:18 0.7 C 44 %
2490 28-02-2020 06:58:18 0.5 C 43 %
2491 28-02-2020 07:08:18 0.6 C 43 %
2492 28-02-2020 07:18:17 0.2 C 45 %
2493 28-02-2020 07:28:17 0.7 C 43 %
2494 28-02-2020 07:38:17 0.7 C 43 %
2495 28-02-2020 07:48:18 0.4 C 44 %
2496 28-02-2020 07:58:18 0.4 C 44 %
2497 28-02-2020 08:08:18 0.2 C 45 %
2498 28-02-2020 08:18:18 0.4 C 44 %
2499 28-02-2020 08:28:18 0.2 C 45 %
2500 28-02-2020 08:38:17 0.7 C 44 %
Sensor: Nr:Datum:Temp:Feuchte:
Aussen-T/F 2501 28-02-2020 08:48:17 0.8 C 43 %
2502 28-02-2020 08:58:17 1.1 C 42 %
2503 28-02-2020 09:08:17 1.4 C 41 %
2504 28-02-2020 09:18:17 1.3 C 42 %
2505 28-02-2020 09:28:17 1.5 C 41 %
2506 28-02-2020 09:38:17 1.7 C 41 %
2507 28-02-2020 09:48:18 1.8 C 41 %
2508 28-02-2020 09:58:18 1.9 C 41 %
2509 28-02-2020 10:08:18 2.1 C 40 %
2510 28-02-2020 10:18:18 2.5 C 40 %
2511 28-02-2020 10:28:18 2.8 C 39 %
2512 28-02-2020 10:38:17 3.2 C 37 %
2513 28-02-2020 10:48:17 3.1 C 37 %
2514 28-02-2020 10:58:17 3.3 C 37 %
2515 28-02-2020 11:08:17 3.6 C 37 %
2516 28-02-2020 11:18:17 3.8 C 37 %
2517 28-02-2020 11:28:17 4.2 C 36 %
2518 28-02-2020 11:38:17 4.5 C 36 %
2519 28-02-2020 11:48:18 3.8 C 37 %
2520 28-02-2020 11:58:18 4.1 C 35 %
2521 28-02-2020 12:08:18 4.3 C 35 %
2522 28-02-2020 12:18:18 4.3 C 36 %
2523 28-02-2020 12:28:18 4.6 C 35 %
2524 28-02-2020 12:38:18 5.1 C 34 %
2525 28-02-2020 12:48:18 6.3 C 33 %
Sensor: Nr:Datum:Temp:Feuchte:
Aussen-T/F 2526 28-02-2020 12:58:18 6.5 C 33 %
2527 28-02-2020 13:08:18 6.8 C 32 %
2528 28-02-2020 13:18:18 7.2 C 31 %
2529 28-02-2020 13:28:18 6.7 C 31 %
2530 28-02-2020 13:38:18 7 C 30 %
2531 28-02-2020 13:48:17 7.8 C 29 %
2532 28-02-2020 13:58:17 8 C 28 %
2533 28-02-2020 14:08:18 8.1 C 27 %
2534 28-02-2020 14:18:18 8 C 28 %
2535 28-02-2020 14:28:18 8.2 C 28 %
2536 28-02-2020 14:38:18 8.1 C 27 %
2537 28-02-2020 14:48:17 8.3 C 27 %
2538 28-02-2020 14:58:18 7.7 C 27 %
2539 28-02-2020 15:08:18 8 C 27 %
2540 28-02-2020 15:18:17 8 C 27 %
2541 28-02-2020 15:28:17 8.8 C 26 %
2542 28-02-2020 15:38:18 8.5 C 25 %
2543 28-02-2020 15:48:18 7.8 C 26 %
2544 28-02-2020 15:58:18 7.8 C 26 %
2545 28-02-2020 16:08:18 7.3 C 26 %
2546 28-02-2020 16:18:18 7.5 C 27 %
2547 28-02-2020 16:28:18 7 C 30 %
2548 28-02-2020 16:38:18 6.8 C 31 %
2549 28-02-2020 16:48:17 6.6 C 32 %
2550 28-02-2020 16:58:18 6.7 C 31 %
Sensor: Nr:Datum:Temp:Feuchte:
Aussen-T/F 2551 28-02-2020 17:08:18 6.1 C 32 %
2552 28-02-2020 17:18:18 5.8 C 35 %
2553 28-02-2020 17:28:18 5.1 C 35 %
2554 28-02-2020 17:38:18 5.2 C 35 %
2555 28-02-2020 17:48:17 4.8 C 37 %
2556 28-02-2020 17:58:18 4.6 C 37 %
2557 28-02-2020 18:08:17 4.5 C 37 %
2558 28-02-2020 18:18:17 4.5 C 37 %
2559 28-02-2020 18:28:17 4.7 C 36 %
2560 28-02-2020 18:38:18 5.1 C 34 %
2561 28-02-2020 18:48:17 5.1 C 33 %
2562 28-02-2020 18:58:17 4.9 C 35 %
2563 28-02-2020 19:08:17 5 C 32 %
2564 28-02-2020 19:18:17 5 C 32 %
2565 28-02-2020 19:28:18 4.8 C 35 %
2566 28-02-2020 19:38:17 5.3 C 33 %
2567 28-02-2020 19:48:17 5 C 34 %
2568 28-02-2020 19:58:17 5 C 34 %
2569 28-02-2020 20:08:17 4.7 C 35 %
2570 28-02-2020 20:18:18 4.9 C 33 %
2571 28-02-2020 20:28:18 4.5 C 35 %
2572 28-02-2020 20:38:18 4.4 C 36 %
2573 28-02-2020 20:48:17 4.1 C 36 %
2574 28-02-2020 20:58:17 4 C 38 %
2575 28-02-2020 21:08:18 3.7 C 40 %
Sensor: Nr:Datum:Temp:Feuchte:
Aussen-T/F 2576 28-02-2020 21:18:18 3.7 C 41 %
2577 28-02-2020 21:28:18 3.8 C 40 %
2578 28-02-2020 21:38:18 3.8 C 40 %
2579 28-02-2020 21:48:17 4.2 C 37 %
2580 28-02-2020 21:58:17 4 C 38 %
2581 28-02-2020 22:08:18 3.9 C 39 %
2582 28-02-2020 22:18:18 3.7 C 40 %
2583 28-02-2020 22:28:18 3.7 C 41 %
2584 28-02-2020 22:38:17 3.6 C 42 %
2585 28-02-2020 22:48:17 3.5 C 44 %
2586 28-02-2020 22:58:17 3.6 C 45 %
2587 28-02-2020 23:08:17 3.4 C 46 %
2588 28-02-2020 23:18:17 3.5 C 46 %
2589 28-02-2020 23:28:18 3.6 C 45 %
2590 28-02-2020 23:38:18 3.8 C 43 %
2591 28-02-2020 23:48:18 3.9 C 44 %
2592 28-02-2020 23:58:18 3.9 C 44 %
2593 29-02-2020 00:08:18 4.3 C 42 %
2594 29-02-2020 00:18:18 4.5 C 42 %
2595 29-02-2020 00:28:18 4.7 C 41 %
2596 29-02-2020 00:38:18 5.1 C 40 %
2597 29-02-2020 00:48:17 5 C 41 %
2598 29-02-2020 00:58:17 4.8 C 42 %
2599 29-02-2020 01:08:18 5 C 42 %
2600 29-02-2020 01:18:18 4.8 C 43 %
Sensor: Nr:Datum:Temp:Feuchte:
Aussen-T/F 2601 29-02-2020 01:28:18 4.9 C 45 %
2602 29-02-2020 01:38:18 5 C 44 %
2603 29-02-2020 01:48:17 5.1 C 45 %
2604 29-02-2020 01:58:17 5.1 C 45 %
2605 29-02-2020 02:08:18 5.2 C 44 %
2606 29-02-2020 02:18:18 5.2 C 45 %
2607 29-02-2020 02:28:18 5.3 C 45 %
2608 29-02-2020 02:38:18 5.6 C 44 %
2609 29-02-2020 02:48:17 5.9 C 43 %
2610 29-02-2020 02:58:17 7 C 41 %
2611 29-02-2020 03:08:18 7.5 C 40 %
2612 29-02-2020 03:18:18 7.8 C 39 %
2613 29-02-2020 03:28:18 8.5 C 38 %
2614 29-02-2020 03:38:18 8.3 C 38 %
2615 29-02-2020 03:48:17 8.8 C 38 %
2616 29-02-2020 03:58:17 8.9 C 38 %
2617 29-02-2020 04:08:18 9.1 C 37 %
2618 29-02-2020 04:18:17 9.4 C 37 %
2619 29-02-2020 04:28:18 9.5 C 37 %
2620 29-02-2020 04:38:18 9 C 37 %
2621 29-02-2020 04:48:17 9.3 C 37 %
2622 29-02-2020 04:58:17 9 C 37 %
2623 29-02-2020 05:08:18 9.1 C 37 %
2624 29-02-2020 05:18:17 9 C 37 %
2625 29-02-2020 05:28:17 9.2 C 36 %
Sensor: Nr:Datum:Temp:Feuchte:
Aussen-T/F 2626 29-02-2020 05:38:17 8.6 C 37 %
2627 29-02-2020 05:48:18 8.8 C 37 %
2628 29-02-2020 05:58:18 9.1 C 36 %
2629 29-02-2020 06:08:17 8.8 C 37 %
2630 29-02-2020 06:18:17 8.4 C 37 %
2631 29-02-2020 06:28:17 8.6 C 37 %
2632 29-02-2020 06:38:17 8.7 C 37 %
2633 29-02-2020 06:48:17 8.6 C 37 %
2634 29-02-2020 06:58:17 8.4 C 37 %
2635 29-02-2020 07:08:17 8.1 C 37 %
2636 29-02-2020 07:18:17 8 C 37 %
2637 29-02-2020 07:28:17 8.3 C 37 %
2638 29-02-2020 07:38:17 7.8 C 38 %
2639 29-02-2020 07:48:17 7.6 C 38 %
2640 29-02-2020 07:58:17 7.3 C 39 %
2641 29-02-2020 08:08:17 7.6 C 38 %
2642 29-02-2020 08:18:17 7.4 C 39 %
2643 29-02-2020 08:28:17 7.5 C 39 %
2644 29-02-2020 08:38:17 7.4 C 39 %
2645 29-02-2020 08:48:17 7.6 C 39 %
2646 29-02-2020 08:58:17 8 C 38 %
2647 29-02-2020 09:08:17 8.3 C 37 %
2648 29-02-2020 09:18:17 8.9 C 36 %
2649 29-02-2020 09:28:17 9.2 C 36 %
2650 29-02-2020 09:38:17 9.6 C 35 %
Sensor: Nr:Datum:Temp:Feuchte:
Aussen-T/F 2651 29-02-2020 09:48:17 10 C 33 %
2652 29-02-2020 09:58:17 10 C 32 %
2653 29-02-2020 10:08:17 10 C 32 %
2654 29-02-2020 10:18:17 9.9 C 33 %
2655 29-02-2020 10:28:17 10.1 C 31 %
2656 29-02-2020 10:38:18 10.4 C 31 %
2657 29-02-2020 10:48:17 10.7 C 31 %
2658 29-02-2020 10:58:17 10.7 C 31 %
2659 29-02-2020 11:08:18 11.1 C 30 %
2660 29-02-2020 11:18:17 12.1 C 30 %
2661 29-02-2020 11:28:17 13.9 C 25 %
2662 29-02-2020 11:38:17 13.7 C 23 %
2663 29-02-2020 11:48:17 13.4 C 24 %
2664 29-02-2020 11:58:17 14.3 C 23 %
2665 29-02-2020 12:08:17 15.5 C 20 %
2666 29-02-2020 12:18:18 15.4 C 20 %
2667 29-02-2020 12:28:18 15.1 C 20 %
2668 29-02-2020 12:38:17 16.2 C 20 %
2669 29-02-2020 12:48:17 15.1 C 20 %
2670 29-02-2020 12:58:17 15.4 C 20 %
2671 29-02-2020 13:08:17 15.5 C 20 %
2672 29-02-2020 13:18:17 15 C 20 %
2673 29-02-2020 13:28:17 14.8 C 20 %
2674 29-02-2020 13:38:18 15.4 C 20 %
2675 29-02-2020 13:48:18 15.6 C 20 %
Sensor: Nr:Datum:Temp:Feuchte:
Aussen-T/F 2676 29-02-2020 13:58:18 16.4 C 20 %
2677 29-02-2020 14:08:18 15.1 C 20 %
2678 29-02-2020 14:18:17 15.1 C 20 %
2679 29-02-2020 14:28:17 14.8 C 21 %
2680 29-02-2020 14:38:17 13.1 C 26 %
2681 29-02-2020 14:48:17 12 C 32 %
2682 29-02-2020 14:58:17 10.5 C 38 %
2683 29-02-2020 15:08:17 10.4 C 39 %
2684 29-02-2020 15:18:17 10.8 C 39 %
2685 29-02-2020 15:28:17 10.6 C 40 %
2686 29-02-2020 15:38:18 10.4 C 39 %
2687 29-02-2020 15:48:17 10.7 C 37 %
2688 29-02-2020 15:58:17 11.3 C 35 %
2689 29-02-2020 16:08:18 12.6 C 32 %
2690 29-02-2020 16:18:17 12 C 32 %
2691 29-02-2020 16:28:18 10.7 C 35 %
2692 29-02-2020 16:38:18 10.1 C 37 %
2693 29-02-2020 16:48:17 9.9 C 37 %
2694 29-02-2020 16:58:17 9.5 C 36 %
2695 29-02-2020 17:08:18 9 C 35 %
2696 29-02-2020 17:18:17 8.9 C 35 %
2697 29-02-2020 17:28:18 8.8 C 34 %
2698 29-02-2020 17:38:18 8.6 C 34 %
2699 29-02-2020 17:48:18 8.6 C 35 %
2700 29-02-2020 17:58:18 8.7 C 34 %
Sensor: Nr:Datum:Temp:Feuchte:
Aussen-T/F 2701 29-02-2020 18:08:18 8.6 C 35 %
2702 29-02-2020 18:18:18 8.2 C 35 %
2703 29-02-2020 18:28:18 8.1 C 35 %
2704 29-02-2020 18:38:18 8 C 35 %
2705 29-02-2020 18:48:17 6.7 C 36 %
2706 29-02-2020 18:58:17 5.9 C 36 %
2707 29-02-2020 19:08:17 5.9 C 37 %
2708 29-02-2020 19:18:18 6 C 36 %
2709 29-02-2020 19:28:18 6.3 C 35 %
2710 29-02-2020 19:38:18 6.7 C 34 %
2711 29-02-2020 19:48:18 6.6 C 34 %
2712 29-02-2020 19:58:18 6.7 C 34 %
2713 29-02-2020 20:08:18 6.6 C 34 %
2714 29-02-2020 20:18:18 6.3 C 34 %
2715 29-02-2020 20:28:18 6.3 C 34 %
2716 29-02-2020 20:38:18 5.9 C 35 %
2717 29-02-2020 20:48:18 5.7 C 35 %
2718 29-02-2020 20:58:18 5.3 C 35 %
2719 29-02-2020 21:08:18 5.2 C 35 %
2720 29-02-2020 21:18:17 5.7 C 34 %
2721 29-02-2020 21:28:17 5 C 35 %
2722 29-02-2020 21:38:17 5 C 35 %
2723 29-02-2020 21:48:17 4.3 C 36 %
2724 29-02-2020 21:58:17 3.9 C 38 %
2725 29-02-2020 22:08:17 3.7 C 38 %
Sensor: Nr:Datum:Temp:Feuchte:
Aussen-T/F 2726 29-02-2020 22:18:18 3.4 C 39 %
2727 29-02-2020 22:28:18 3.3 C 40 %
2728 29-02-2020 22:38:18 3.3 C 41 %
2729 29-02-2020 22:48:17 3.7 C 40 %
2730 29-02-2020 22:58:18 4 C 39 %
2731 29-02-2020 23:08:18 4.2 C 38 %
2732 29-02-2020 23:18:18 4.4 C 38 %
2733 29-02-2020 23:28:18 4.5 C 38 %
2734 29-02-2020 23:38:18 4.7 C 38 %
2735 29-02-2020 23:48:18 5.4 C 36 %
2736 29-02-2020 23:58:18 6.3 C 35 %
2737 01-03-2020 00:08:18 6.6 C 35 %
2738 01-03-2020 00:18:18 6.6 C 35 %
2739 01-03-2020 00:28:18 6.3 C 35 %
2740 01-03-2020 00:38:18 6.2 C 35 %
2741 01-03-2020 00:48:17 6.2 C 35 %
2742 01-03-2020 00:58:18 6.2 C 35 %
2743 01-03-2020 01:08:17 6.1 C 35 %
2744 01-03-2020 01:18:18 6 C 35 %
2745 01-03-2020 01:28:18 5.7 C 35 %
2746 01-03-2020 01:38:18 5.5 C 36 %
2747 01-03-2020 01:48:17 5.8 C 36 %
2748 01-03-2020 01:58:17 5.8 C 35 %
2749 01-03-2020 02:08:17 5.3 C 36 %
2750 01-03-2020 02:18:17 5.8 C 36 %
Sensor: Nr:Datum:Temp:Feuchte:
Aussen-T/F 2751 01-03-2020 02:28:17 5.7 C 36 %
2752 01-03-2020 02:38:17 5.8 C 36 %
2753 01-03-2020 02:48:17 6.2 C 35 %
2754 01-03-2020 02:58:17 6.5 C 35 %
2755 01-03-2020 03:08:18 6.5 C 35 %
2756 01-03-2020 03:18:17 6.6 C 35 %
2757 01-03-2020 03:28:17 6.7 C 35 %
2758 01-03-2020 03:38:18 6.5 C 35 %
2759 01-03-2020 03:48:17 6.4 C 35 %
2760 01-03-2020 03:58:17 6.8 C 35 %
2761 01-03-2020 04:08:17 6.6 C 35 %
2762 01-03-2020 04:18:17 6.9 C 34 %
2763 01-03-2020 04:28:17 7 C 33 %
2764 01-03-2020 04:38:18 6.9 C 34 %
2765 01-03-2020 04:48:17 7.1 C 33 %
2766 01-03-2020 04:58:17 7 C 33 %
2767 01-03-2020 05:08:17 7.1 C 33 %
2768 01-03-2020 05:18:18 6.8 C 34 %
2769 01-03-2020 05:28:18 7.2 C 32 %
2770 01-03-2020 05:38:18 6.8 C 34 %
2771 01-03-2020 05:48:17 6.9 C 34 %
2772 01-03-2020 05:58:18 6.6 C 34 %
2773 01-03-2020 06:08:18 6.7 C 34 %
2774 01-03-2020 06:18:17 6.8 C 34 %
2775 01-03-2020 06:28:17 7 C 33 %
Sensor: Nr:Datum:Temp:Feuchte:
Aussen-T/F 2776 01-03-2020 06:38:17 7.1 C 33 %
2777 01-03-2020 06:48:17 6.4 C 35 %
2778 01-03-2020 06:58:17 5.9 C 36 %
2779 01-03-2020 07:08:17 5.4 C 38 %
2780 01-03-2020 07:18:17 5.4 C 39 %
2781 01-03-2020 07:28:18 5.2 C 39 %
2782 01-03-2020 07:38:18 5.1 C 41 %
2783 01-03-2020 07:48:18 5.2 C 41 %
2784 01-03-2020 07:58:18 5.2 C 42 %
2785 01-03-2020 08:08:18 5.2 C 42 %
2786 01-03-2020 08:18:17 5.3 C 42 %
2787 01-03-2020 08:28:17 5 C 40 %
2788 01-03-2020 08:38:17 4.7 C 41 %
2789 01-03-2020 08:48:17 4 C 41 %
2790 01-03-2020 08:58:17 4 C 42 %
2791 01-03-2020 09:08:17 4.1 C 42 %
2792 01-03-2020 09:18:17 4.3 C 41 %
2793 01-03-2020 09:28:17 4.8 C 40 %
2794 01-03-2020 09:38:17 4.8 C 41 %
2795 01-03-2020 09:48:18 4.7 C 41 %
2796 01-03-2020 09:58:18 4.8 C 41 %
2797 01-03-2020 10:08:17 5.3 C 40 %
2798 01-03-2020 10:18:17 5.7 C 39 %
2799 01-03-2020 10:28:17 7.1 C 36 %
2800 01-03-2020 10:38:17 7.6 C 36 %
Sensor: Nr:Datum:Temp:Feuchte:
Aussen-T/F 2801 01-03-2020 10:48:17 7.8 C 35 %
2802 01-03-2020 10:58:17 8 C 34 %
2803 01-03-2020 11:08:17 8.1 C 33 %
2804 01-03-2020 11:18:17 8.6 C 33 %
2805 01-03-2020 11:28:18 10 C 30 %
2806 01-03-2020 11:38:18 10.2 C 28 %
2807 01-03-2020 11:48:17 8.8 C 29 %
2808 01-03-2020 11:58:17 10.2 C 27 %
2809 01-03-2020 12:08:17 8.9 C 30 %
2810 01-03-2020 12:18:17 9.3 C 28 %
2811 01-03-2020 12:28:17 9.7 C 27 %
2812 01-03-2020 12:38:18 9.2 C 28 %
2813 01-03-2020 12:48:18 11.4 C 26 %
2814 01-03-2020 12:58:18 12.3 C 21 %
2815 01-03-2020 13:08:18 11.4 C 24 %
2816 01-03-2020 13:18:17 10.4 C 25 %
2817 01-03-2020 13:28:17 10.4 C 25 %
2818 01-03-2020 13:38:17 10.6 C 22 %
2819 01-03-2020 13:48:17 10.2 C 22 %
2820 01-03-2020 13:58:17 10.8 C 22 %
2821 01-03-2020 14:08:18 10.1 C 23 %
2822 01-03-2020 14:18:18 9.9 C 25 %
2823 01-03-2020 14:28:18 10.9 C 25 %
2824 01-03-2020 14:38:18 10.5 C 23 %
2825 01-03-2020 14:48:17 10.9 C 25 %
Sensor: Nr:Datum:Temp:Feuchte:
Aussen-T/F 2826 01-03-2020 14:58:18 10.1 C 25 %
2827 01-03-2020 15:08:18 10.1 C 25 %
2828 01-03-2020 15:18:17 12.6 C 20 %
2829 01-03-2020 15:28:17 11.9 C 22 %
2830 01-03-2020 15:38:18 12 C 20 %
2831 01-03-2020 15:48:18 12.8 C 20 %
2832 01-03-2020 15:58:18 11.7 C 21 %
2833 01-03-2020 16:08:18 10.8 C 25 %
2834 01-03-2020 16:18:18 10.5 C 25 %
2835 01-03-2020 16:28:18 10.7 C 25 %
2836 01-03-2020 16:38:18 10.3 C 30 %
2837 01-03-2020 16:48:18 10.2 C 29 %
2838 01-03-2020 16:58:18 9.7 C 31 %
2839 01-03-2020 17:08:18 8.4 C 35 %
2840 01-03-2020 17:18:17 7.8 C 39 %
2841 01-03-2020 17:28:17 7.6 C 42 %
2842 01-03-2020 17:38:17 7.3 C 43 %
2843 01-03-2020 17:48:17 7 C 44 %
2844 01-03-2020 17:58:17 6.9 C 45 %
2845 01-03-2020 18:08:18 6.8 C 45 %
2846 01-03-2020 18:18:18 6.7 C 45 %
2847 01-03-2020 18:28:18 6.7 C 45 %
2848 01-03-2020 18:38:18 6.7 C 45 %
2849 01-03-2020 18:48:18 6.6 C 45 %
2850 01-03-2020 18:58:18 6.5 C 45 %
Sensor: Nr:Datum:Temp:Feuchte:
Aussen-T/F 2851 01-03-2020 19:08:18 6.5 C 45 %
2852 01-03-2020 19:18:17 6.5 C 45 %
2853 01-03-2020 19:28:17 6.4 C 45 %
2854 01-03-2020 19:38:17 6.3 C 45 %
2855 01-03-2020 19:48:17 6.3 C 45 %
2856 01-03-2020 19:58:17 6.2 C 45 %
2857 01-03-2020 20:08:17 6.3 C 45 %
2858 01-03-2020 20:18:17 6.2 C 45 %
2859 01-03-2020 20:28:17 6 C 45 %
2860 01-03-2020 20:38:17 5.8 C 45 %
2861 01-03-2020 20:48:17 5.7 C 45 %
2862 01-03-2020 20:58:17 5.6 C 45 %
2863 01-03-2020 21:08:17 5.6 C 45 %
2864 01-03-2020 21:18:17 5.5 C 45 %
2865 01-03-2020 21:28:17 5.4 C 45 %
2866 01-03-2020 21:38:17 5.7 C 45 %
2867 01-03-2020 21:48:17 5.8 C 45 %
2868 01-03-2020 21:58:17 5.9 C 45 %
2869 01-03-2020 22:08:17 6 C 45 %
2870 01-03-2020 22:18:17 6 C 45 %
2871 01-03-2020 22:28:17 6.1 C 45 %
2872 01-03-2020 22:38:18 6.2 C 45 %
2873 01-03-2020 22:48:17 6.2 C 45 %
2874 01-03-2020 22:58:17 6.3 C 45 %
2875 01-03-2020 23:08:18 6.4 C 45 %
Sensor: Nr:Datum:Temp:Feuchte:
Aussen-T/F 2876 01-03-2020 23:18:18 5.8 C 45 %
2877 01-03-2020 23:28:18 4.3 C 40 %
2878 01-03-2020 23:38:18 3.1 C 41 %
2879 01-03-2020 23:48:18 2.9 C 44 %
2880 01-03-2020 23:58:18 3.1 C 44 %
2881 02-03-2020 00:08:18 3.3 C 44 %
2882 02-03-2020 00:18:17 3.3 C 43 %
2883 02-03-2020 00:28:17 3.5 C 43 %
2884 02-03-2020 00:38:17 3.5 C 43 %
2885 02-03-2020 00:48:17 3.7 C 42 %
2886 02-03-2020 00:58:18 3.6 C 42 %
2887 02-03-2020 01:08:18 3.7 C 42 %
2888 02-03-2020 01:18:17 3.9 C 41 %
2889 02-03-2020 01:28:17 3.8 C 42 %
2890 02-03-2020 01:38:17 3.8 C 41 %
2891 02-03-2020 01:48:18 4 C 40 %
2892 02-03-2020 01:58:18 3.5 C 42 %
2893 02-03-2020 02:08:18 3.7 C 42 %
2894 02-03-2020 02:18:17 3.6 C 42 %
2895 02-03-2020 02:28:17 3.5 C 42 %
2896 02-03-2020 02:38:17 4 C 40 %
2897 02-03-2020 02:48:17 3.8 C 41 %
2898 02-03-2020 02:58:18 3.5 C 42 %
2899 02-03-2020 03:08:18 3.3 C 43 %
2900 02-03-2020 03:18:18 3.4 C 42 %
Sensor: Nr:Datum:Temp:Feuchte:
Aussen-T/F 2901 02-03-2020 03:28:18 2.9 C 44 %
2902 02-03-2020 03:38:18 2.4 C 45 %
2903 02-03-2020 03:48:18 2.9 C 45 %
2904 02-03-2020 03:58:18 2.6 C 45 %
2905 02-03-2020 04:08:18 2.3 C 45 %
2906 02-03-2020 04:18:17 2 C 46 %
2907 02-03-2020 04:28:17 2.2 C 46 %
2908 02-03-2020 04:38:18 2.3 C 47 %
2909 02-03-2020 04:48:18 2.2 C 46 %
2910 02-03-2020 04:58:18 1.9 C 48 %
2911 02-03-2020 05:08:18 1.7 C 48 %
2912 02-03-2020 05:18:17 1.5 C 48 %
2913 02-03-2020 05:28:17 1.3 C 48 %
2914 02-03-2020 05:38:18 1.4 C 48 %
2915 02-03-2020 05:48:18 1.4 C 48 %
2916 02-03-2020 05:58:18 1.3 C 48 %
2917 02-03-2020 06:08:18 1.1 C 48 %
2918 02-03-2020 06:18:18 1.3 C 48 %
2919 02-03-2020 06:28:18 1.3 C 48 %
2920 02-03-2020 06:38:18 1.4 C 48 %
2921 02-03-2020 06:48:17 1.4 C 48 %
2922 02-03-2020 06:58:17 1.5 C 48 %
2923 02-03-2020 07:08:18 1.5 C 48 %
2924 02-03-2020 07:18:18 1.7 C 48 %
2925 02-03-2020 07:28:18 1.8 C 48 %
Sensor: Nr:Datum:Temp:Feuchte:
Aussen-T/F 2926 02-03-2020 07:38:18 2.1 C 47 %
2927 02-03-2020 07:48:18 2.3 C 47 %
2928 02-03-2020 07:58:18 2.5 C 47 %
2929 02-03-2020 08:08:18 2.5 C 47 %
2930 02-03-2020 08:18:17 2.7 C 47 %
2931 02-03-2020 08:28:17 3 C 46 %
2932 02-03-2020 08:38:18 3.2 C 46 %
2933 02-03-2020 08:48:18 3.5 C 46 %
2934 02-03-2020 08:58:18 3.8 C 45 %
2935 02-03-2020 09:08:17 4.1 C 43 %
2936 02-03-2020 09:18:17 4.5 C 42 %
2937 02-03-2020 09:28:17 4.9 C 40 %
2938 02-03-2020 09:38:17 5.4 C 39 %
2939 02-03-2020 09:48:17 5.7 C 39 %
2940 02-03-2020 09:58:17 6.1 C 38 %
2941 02-03-2020 10:08:17 6.6 C 37 %
2942 02-03-2020 10:18:17 6.9 C 36 %
2943 02-03-2020 10:28:17 7.4 C 35 %
2944 02-03-2020 10:38:18 8.2 C 34 %
2945 02-03-2020 10:48:17 8.9 C 34 %
2946 02-03-2020 10:58:17 9 C 33 %
2947 02-03-2020 11:08:17 9 C 33 %
2948 02-03-2020 11:18:17 11.5 C 30 %
2949 02-03-2020 11:28:17 13 C 26 %
2950 02-03-2020 11:38:17 13.9 C 25 %
Sensor: Nr:Datum:Temp:Feuchte:
Aussen-T/F 2951 02-03-2020 11:48:17 11.8 C 27 %
2952 02-03-2020 11:58:17 13.6 C 24 %
2953 02-03-2020 12:08:17 13.3 C 21 %
2954 02-03-2020 12:18:17 13.2 C 21 %
2955 02-03-2020 12:28:17 12.3 C 23 %
2956 02-03-2020 12:38:18 13 C 23 %
2957 02-03-2020 12:48:18 11.8 C 24 %
2958 02-03-2020 12:58:18 11.7 C 25 %
2959 02-03-2020 13:08:18 12.4 C 23 %
2960 02-03-2020 13:18:18 14.7 C 20 %
2961 02-03-2020 13:28:18 14.2 C 20 %
2962 02-03-2020 13:38:17 15.6 C 20 %
2963 02-03-2020 13:48:17 14.1 C 20 %
2964 02-03-2020 13:58:17 12.3 C 21 %
2965 02-03-2020 14:08:17 11.8 C 23 %
2966 02-03-2020 14:18:17 12.1 C 23 %
2967 02-03-2020 14:28:17 11.7 C 25 %
2968 02-03-2020 14:38:17 11.2 C 25 %
2969 02-03-2020 14:48:17 10.9 C 25 %
2970 02-03-2020 14:58:17 10.8 C 26 %
2971 02-03-2020 15:08:18 10.9 C 26 %
2972 02-03-2020 15:18:18 10.9 C 26 %
2973 02-03-2020 15:28:18 10.2 C 26 %
2974 02-03-2020 15:38:18 9.2 C 30 %
2975 02-03-2020 15:48:17 8.7 C 33 %
Sensor: Nr:Datum:Temp:Feuchte:
Aussen-T/F 2976 02-03-2020 15:58:18 8.4 C 36 %
2977 02-03-2020 16:08:18 8 C 40 %
2978 02-03-2020 16:18:18 7.6 C 41 %
2979 02-03-2020 16:28:18 7.3 C 42 %
2980 02-03-2020 16:38:18 7.2 C 43 %
2981 02-03-2020 16:48:17 7.1 C 43 %
2982 02-03-2020 16:58:17 7 C 44 %
2983 02-03-2020 17:08:17 6.9 C 45 %
2984 02-03-2020 17:18:17 6.6 C 45 %
2985 02-03-2020 17:28:17 6.6 C 45 %
2986 02-03-2020 17:38:18 6.4 C 45 %
2987 02-03-2020 17:48:17 6.3 C 45 %
2988 02-03-2020 17:58:18 6.3 C 45 %
2989 02-03-2020 18:08:18 6.2 C 45 %
2990 02-03-2020 18:18:18 6.1 C 45 %
2991 02-03-2020 18:28:18 6 C 45 %
2992 02-03-2020 18:38:18 5.9 C 46 %
2993 02-03-2020 18:48:17 5.9 C 46 %
2994 02-03-2020 18:58:18 5.8 C 46 %
2995 02-03-2020 19:08:18 5.7 C 46 %
2996 02-03-2020 19:18:18 5.7 C 46 %
2997 02-03-2020 19:28:18 5.7 C 46 %
2998 02-03-2020 19:38:18 5.7 C 46 %
2999 02-03-2020 19:48:17 5.7 C 45 %
3000 02-03-2020 19:58:18 5.7 C 45 %
Sensor: Nr:Datum:Temp:Feuchte:
Aussen-T/F 3001 02-03-2020 20:08:18 5.7 C 45 %
3002 02-03-2020 20:18:17 5.7 C 45 %
3003 02-03-2020 20:28:18 5.6 C 45 %
3004 02-03-2020 20:38:18 5.6 C 45 %
3005 02-03-2020 20:48:17 5.6 C 45 %
3006 02-03-2020 20:58:17 5.5 C 45 %
3007 02-03-2020 21:08:18 5.4 C 45 %
3008 02-03-2020 21:18:18 5.4 C 45 %
3009 02-03-2020 21:28:18 5.4 C 45 %
3010 02-03-2020 21:38:18 5.4 C 45 %
3011 02-03-2020 21:48:18 5.4 C 45 %
3012 02-03-2020 21:58:18 5.4 C 45 %
3013 02-03-2020 22:08:18 5.4 C 45 %
3014 02-03-2020 22:18:17 5.4 C 45 %
3015 02-03-2020 22:28:17 5.5 C 45 %
3016 02-03-2020 22:38:17 5.4 C 45 %
3017 02-03-2020 22:48:17 5.5 C 45 %
3018 02-03-2020 22:58:17 5.5 C 45 %
3019 02-03-2020 23:08:17 5.5 C 45 %
3020 02-03-2020 23:18:17 5.2 C 45 %
3021 02-03-2020 23:28:17 5.2 C 45 %
3022 02-03-2020 23:38:17 5.2 C 45 %
3023 02-03-2020 23:48:17 5.3 C 45 %
3024 02-03-2020 23:58:17 5.3 C 45 %
3025 03-03-2020 00:08:18 5.2 C 45 %
Sensor: Nr:Datum:Temp:Feuchte:
Aussen-T/F 3026 03-03-2020 00:18:18 5.1 C 44 %
3027 03-03-2020 00:28:18 5 C 44 %
3028 03-03-2020 00:38:18 5 C 44 %
3029 03-03-2020 00:48:17 4.9 C 45 %
3030 03-03-2020 00:58:17 4.9 C 45 %
3031 03-03-2020 01:08:17 5.1 C 44 %
3032 03-03-2020 01:18:17 5 C 43 %
3033 03-03-2020 01:28:17 5 C 43 %
3034 03-03-2020 01:38:18 4.6 C 41 %
3035 03-03-2020 01:48:17 4.5 C 42 %
3036 03-03-2020 01:58:17 4.4 C 43 %
3037 03-03-2020 02:08:17 4.4 C 43 %
3038 03-03-2020 02:18:17 4.2 C 42 %
3039 03-03-2020 02:28:17 4.1 C 41 %
3040 03-03-2020 02:38:18 4.1 C 41 %
3041 03-03-2020 02:48:18 4.1 C 41 %
3042 03-03-2020 02:58:18 3.9 C 42 %
3043 03-03-2020 03:08:17 3.8 C 41 %
3044 03-03-2020 03:18:17 3.7 C 40 %
3045 03-03-2020 03:28:17 3.4 C 41 %
3046 03-03-2020 03:38:18 3.5 C 41 %
3047 03-03-2020 03:48:18 3 C 42 %
3048 03-03-2020 03:58:18 3.1 C 42 %
3049 03-03-2020 04:08:17 2.8 C 43 %
3050 03-03-2020 04:18:17 3.2 C 41 %
Sensor: Nr:Datum:Temp:Feuchte:
Aussen-T/F 3051 03-03-2020 04:28:17 3.2 C 41 %
3052 03-03-2020 04:38:18 2.9 C 42 %
3053 03-03-2020 04:48:17 2.9 C 43 %
3054 03-03-2020 04:58:18 3.2 C 41 %
3055 03-03-2020 05:08:18 3.1 C 41 %
3056 03-03-2020 05:18:18 2.7 C 43 %
3057 03-03-2020 05:28:18 2.3 C 44 %
3058 03-03-2020 05:38:17 2.6 C 43 %
3059 03-03-2020 05:48:18 2.7 C 42 %
3060 03-03-2020 05:58:18 2.4 C 44 %
3061 03-03-2020 06:08:17 3 C 42 %
3062 03-03-2020 06:18:18 3.1 C 41 %
3063 03-03-2020 06:28:18 2.8 C 42 %
3064 03-03-2020 06:38:17 2.6 C 43 %
3065 03-03-2020 06:48:18 2.7 C 42 %
3066 03-03-2020 06:58:18 2.8 C 42 %
3067 03-03-2020 07:08:18 2.8 C 42 %
3068 03-03-2020 07:18:18 2.6 C 43 %
3069 03-03-2020 07:28:18 2.7 C 43 %
3070 03-03-2020 07:38:18 2.6 C 43 %
3071 03-03-2020 07:48:17 2.5 C 43 %
3072 03-03-2020 07:58:17 2.5 C 43 %
3073 03-03-2020 08:08:18 2.7 C 43 %
3074 03-03-2020 08:18:18 3.3 C 41 %
3075 03-03-2020 08:28:18 3.2 C 41 %
Sensor: Nr:Datum:Temp:Feuchte:
Aussen-T/F 3076 03-03-2020 08:38:17 3.5 C 40 %
3077 03-03-2020 08:48:17 3.6 C 40 %
3078 03-03-2020 08:58:18 3.4 C 40 %
3079 03-03-2020 09:08:18 3.5 C 40 %
3080 03-03-2020 09:18:17 3.2 C 40 %
3081 03-03-2020 09:28:17 3.5 C 40 %
3082 03-03-2020 09:38:17 3.6 C 40 %
3083 03-03-2020 09:48:18 4.1 C 39 %
3084 03-03-2020 09:58:18 4.6 C 38 %
3085 03-03-2020 10:08:18 5.3 C 36 %
3086 03-03-2020 10:18:18 5.1 C 36 %
3087 03-03-2020 10:28:18 5.2 C 35 %
3088 03-03-2020 10:38:18 5.4 C 35 %
3089 03-03-2020 10:48:17 4.9 C 35 %
3090 03-03-2020 10:58:18 5 C 35 %
3091 03-03-2020 11:08:17 5.2 C 35 %
3092 03-03-2020 11:18:17 5.2 C 35 %
3093 03-03-2020 11:28:17 5.3 C 35 %
3094 03-03-2020 11:38:17 5.1 C 35 %
3095 03-03-2020 11:48:17 5.8 C 35 %
3096 03-03-2020 11:58:17 5.7 C 35 %
3097 03-03-2020 12:08:17 6.1 C 35 %
3098 03-03-2020 12:18:17 6.4 C 34 %
3099 03-03-2020 12:28:17 6.6 C 34 %
3100 03-03-2020 12:38:17 6.5 C 33 %
Sensor: Nr:Datum:Temp:Feuchte:
Aussen-T/F 3101 03-03-2020 12:48:17 7.1 C 33 %
3102 03-03-2020 12:58:17 6.6 C 33 %
3103 03-03-2020 13:08:17 6.6 C 33 %
3104 03-03-2020 13:18:17 9.6 C 28 %
3105 03-03-2020 13:28:18 9.8 C 27 %
3106 03-03-2020 13:38:18 8.9 C 27 %
3107 03-03-2020 13:48:17 9.7 C 25 %
3108 03-03-2020 13:58:17 6.2 C 31 %
3109 03-03-2020 14:08:18 5.8 C 35 %
3110 03-03-2020 14:18:18 5.4 C 39 %
3111 03-03-2020 14:28:18 5.7 C 38 %
3112 03-03-2020 14:38:18 5 C 37 %
3113 03-03-2020 14:48:18 4.7 C 39 %
3114 03-03-2020 14:58:18 4.7 C 40 %
3115 03-03-2020 15:08:18 4.7 C 39 %
3116 03-03-2020 15:18:18 6.8 C 36 %
3117 03-03-2020 15:28:18 6.9 C 35 %
3118 03-03-2020 15:38:18 8.9 C 32 %
3119 03-03-2020 15:48:17 8.9 C 30 %
3120 03-03-2020 15:58:17 7.4 C 32 %
3121 03-03-2020 16:08:18 11.8 C 23 %
3122 03-03-2020 16:18:18 9.3 C 25 %
3123 03-03-2020 16:28:18 7.4 C 30 %
3124 03-03-2020 16:38:18 7.2 C 30 %
3125 03-03-2020 16:48:17 7.3 C 31 %
Sensor: Nr:Datum:Temp:Feuchte:
Aussen-T/F 3126 03-03-2020 16:58:17 7.6 C 30 %
3127 03-03-2020 17:08:17 6.7 C 32 %
3128 03-03-2020 17:18:17 6.7 C 33 %
3129 03-03-2020 17:28:18 6.5 C 34 %
3130 03-03-2020 17:38:18 6.4 C 34 %
3131 03-03-2020 17:48:17 6 C 35 %
3132 03-03-2020 17:58:18 5.4 C 36 %
3133 03-03-2020 18:08:18 4.3 C 38 %
3134 03-03-2020 18:18:18 4.4 C 39 %
3135 03-03-2020 18:28:18 4 C 39 %
3136 03-03-2020 18:38:18 3.7 C 41 %
3137 03-03-2020 18:48:17 3.5 C 41 %
3138 03-03-2020 18:58:17 3.6 C 41 %
3139 03-03-2020 19:08:17 3.6 C 40 %
3140 03-03-2020 19:18:17 3.8 C 40 %
3141 03-03-2020 19:28:17 3.1 C 41 %
3142 03-03-2020 19:38:17 3.2 C 41 %
3143 03-03-2020 19:48:17 2.7 C 42 %
3144 03-03-2020 19:58:17 2.3 C 42 %
3145 03-03-2020 20:08:17 1.7 C 45 %
3146 03-03-2020 20:18:17 1.8 C 47 %
3147 03-03-2020 20:28:17 1.7 C 47 %
3148 03-03-2020 20:38:17 1.3 C 46 %
3149 03-03-2020 20:48:17 1.4 C 47 %
3150 03-03-2020 20:58:17 1.3 C 47 %
Sensor: Nr:Datum:Temp:Feuchte:
Aussen-T/F 3151 03-03-2020 21:08:17 1.2 C 47 %
3152 03-03-2020 21:18:17 1.6 C 48 %
3153 03-03-2020 21:28:17 2 C 47 %
3154 03-03-2020 21:38:17 2.1 C 45 %
3155 03-03-2020 21:48:17 2 C 45 %
3156 03-03-2020 21:58:17 2.2 C 45 %
3157 03-03-2020 22:08:17 1.9 C 46 %
3158 03-03-2020 22:18:17 1.5 C 46 %
3159 03-03-2020 22:28:17 1.4 C 47 %
3160 03-03-2020 22:38:17 1.2 C 47 %
3161 03-03-2020 22:48:17 1 C 47 %
3162 03-03-2020 22:58:17 1.2 C 48 %
3163 03-03-2020 23:08:17 1.7 C 48 %
3164 03-03-2020 23:18:18 2.3 C 46 %
3165 03-03-2020 23:28:18 2.4 C 44 %
3166 03-03-2020 23:38:17 2.6 C 44 %
3167 03-03-2020 23:48:17 2.7 C 43 %
3168 03-03-2020 23:58:17 2.8 C 43 %
3169 04-03-2020 00:08:17 3.1 C 42 %
3170 04-03-2020 00:18:18 3 C 41 %
3171 04-03-2020 00:28:18 2.9 C 42 %
3172 04-03-2020 00:38:18 3.1 C 41 %
3173 04-03-2020 00:48:17 2.5 C 42 %
3174 04-03-2020 00:58:17 2.3 C 44 %
3175 04-03-2020 01:08:17 2.6 C 43 %
Sensor: Nr:Datum:Temp:Feuchte:
Aussen-T/F 3176 04-03-2020 01:18:17 2.6 C 42 %
3177 04-03-2020 01:28:17 2.4 C 42 %
3178 04-03-2020 01:38:17 2.5 C 42 %
3179 04-03-2020 01:48:17 2.6 C 42 %
3180 04-03-2020 01:58:17 2.6 C 42 %
3181 04-03-2020 02:08:17 2.7 C 42 %
3182 04-03-2020 02:18:17 2.8 C 42 %
3183 04-03-2020 02:28:18 2.7 C 42 %
3184 04-03-2020 02:38:18 3.2 C 41 %
3185 04-03-2020 02:48:17 3.6 C 40 %
3186 04-03-2020 02:58:18 3.4 C 40 %
3187 04-03-2020 03:08:17 3.3 C 40 %
3188 04-03-2020 03:18:17 3 C 41 %
3189 04-03-2020 03:28:17 3.2 C 41 %
3190 04-03-2020 03:38:17 2.9 C 42 %
3191 04-03-2020 03:48:17 2.6 C 42 %
3192 04-03-2020 03:58:18 2.5 C 44 %
3193 04-03-2020 04:08:18 3.4 C 41 %
3194 04-03-2020 04:18:18 3.4 C 41 %
3195 04-03-2020 04:28:18 3.6 C 40 %
3196 04-03-2020 04:38:18 3.6 C 40 %
3197 04-03-2020 04:48:17 3.7 C 40 %
3198 04-03-2020 04:58:18 3.5 C 41 %
3199 04-03-2020 05:08:18 3.4 C 41 %
3200 04-03-2020 05:18:18 3.2 C 42 %
Sensor: Nr:Datum:Temp:Feuchte:
Aussen-T/F 3201 04-03-2020 05:28:18 3.1 C 44 %
3202 04-03-2020 05:38:18 3.2 C 44 %
3203 04-03-2020 05:48:17 3.2 C 43 %
3204 04-03-2020 05:58:18 3.2 C 43 %
3205 04-03-2020 06:08:18 3.3 C 43 %
3206 04-03-2020 06:18:18 3.3 C 42 %
3207 04-03-2020 06:28:18 3.4 C 42 %
3208 04-03-2020 06:38:18 3.6 C 42 %
3209 04-03-2020 06:48:17 3.6 C 42 %
3210 04-03-2020 06:58:17 3.7 C 41 %
3211 04-03-2020 07:08:17 3.7 C 41 %
3212 04-03-2020 07:18:17 3.9 C 41 %
3213 04-03-2020 07:28:17 3.9 C 41 %
3214 04-03-2020 07:38:18 4 C 40 %
3215 04-03-2020 07:48:17 3.9 C 41 %
3216 04-03-2020 07:58:17 3.7 C 41 %
3217 04-03-2020 08:08:18 3.3 C 42 %
3218 04-03-2020 08:18:17 3.4 C 42 %
3219 04-03-2020 08:28:17 3.8 C 41 %
3220 04-03-2020 08:38:18 3.7 C 41 %
3221 04-03-2020 08:48:18 4.1 C 40 %
3222 04-03-2020 08:58:18 3.7 C 41 %
3223 04-03-2020 09:08:18 3.9 C 41 %
3224 04-03-2020 09:18:18 4.2 C 40 %
3225 04-03-2020 09:28:18 4.6 C 40 %
Sensor: Nr:Datum:Temp:Feuchte:
Aussen-T/F 3226 04-03-2020 09:38:18 4.7 C 39 %
3227 04-03-2020 09:48:17 5.1 C 38 %
3228 04-03-2020 09:58:18 5.4 C 37 %
3229 04-03-2020 10:08:18 5.6 C 37 %
3230 04-03-2020 10:18:18 5.8 C 37 %
3231 04-03-2020 10:28:18 6 C 36 %
3232 04-03-2020 10:38:17 6.6 C 36 %
3233 04-03-2020 10:48:18 6.4 C 36 %
3234 04-03-2020 10:58:18 6.5 C 36 %
3235 04-03-2020 11:08:18 6.8 C 35 %
3236 04-03-2020 11:18:18 7.7 C 34 %
3237 04-03-2020 11:28:18 8.2 C 33 %
3238 04-03-2020 11:38:18 8.3 C 32 %
3239 04-03-2020 11:48:18 8.8 C 32 %
3240 04-03-2020 11:58:18 9.5 C 31 %
3241 04-03-2020 12:08:18 9.6 C 31 %
3242 04-03-2020 12:18:18 10.1 C 30 %
3243 04-03-2020 12:28:18 9 C 30 %
3244 04-03-2020 12:38:18 9.9 C 29 %
3245 04-03-2020 12:48:17 10.9 C 28 %
3246 04-03-2020 12:58:17 9.1 C 29 %
3247 04-03-2020 13:08:17 9.3 C 28 %
3248 04-03-2020 13:18:17 9.4 C 28 %
3249 04-03-2020 13:28:17 10.7 C 27 %
3250 04-03-2020 13:38:18 9.5 C 28 %
Sensor: Nr:Datum:Temp:Feuchte:
Aussen-T/F 3251 04-03-2020 13:48:17 9.6 C 28 %
3252 04-03-2020 13:58:17 10.2 C 26 %
3253 04-03-2020 14:08:18 10.6 C 26 %
3254 04-03-2020 14:18:18 9.6 C 27 %
3255 04-03-2020 14:28:18 9.6 C 27 %
3256 04-03-2020 14:38:18 10.1 C 26 %
3257 04-03-2020 14:48:18 9.5 C 28 %
3258 04-03-2020 14:58:18 9 C 28 %
3259 04-03-2020 15:08:18 9.4 C 28 %
3260 04-03-2020 15:18:18 9.5 C 28 %
3261 04-03-2020 15:28:18 9.7 C 27 %
3262 04-03-2020 15:38:18 9.4 C 29 %
3263 04-03-2020 15:48:17 9.5 C 28 %
3264 04-03-2020 15:58:18 10.6 C 26 %
3265 04-03-2020 16:08:17 10.1 C 26 %
3266 04-03-2020 16:18:17 10.9 C 26 %
3267 04-03-2020 16:28:17 10 C 26 %
3268 04-03-2020 16:38:17 10.9 C 26 %
3269 04-03-2020 16:48:17 11 C 25 %
3270 04-03-2020 16:58:17 11.5 C 25 %
3271 04-03-2020 17:08:17 10.6 C 25 %
3272 04-03-2020 17:18:17 8.8 C 27 %
3273 04-03-2020 17:28:18 8 C 29 %
3274 04-03-2020 17:38:18 7.3 C 32 %
3275 04-03-2020 17:48:17 6.4 C 35 %
Sensor: Nr:Datum:Temp:Feuchte:
Aussen-T/F 3276 04-03-2020 17:58:17 5.7 C 36 %
3277 04-03-2020 18:08:17 5.2 C 37 %
3278 04-03-2020 18:18:17 4.8 C 38 %
3279 04-03-2020 18:28:17 4.7 C 39 %
3280 04-03-2020 18:38:17 4.5 C 39 %
3281 04-03-2020 18:48:17 4.3 C 39 %
3282 04-03-2020 18:58:17 4 C 39 %
3283 04-03-2020 19:08:17 3.9 C 40 %
3284 04-03-2020 19:18:17 4 C 40 %
3285 04-03-2020 19:28:17 4.1 C 40 %
3286 04-03-2020 19:38:17 4.1 C 40 %
3287 04-03-2020 19:48:18 4 C 40 %
3288 04-03-2020 19:58:18 3.7 C 41 %
3289 04-03-2020 20:08:17 3.8 C 41 %
3290 04-03-2020 20:18:17 3.7 C 41 %
3291 04-03-2020 20:28:17 3.4 C 41 %
3292 04-03-2020 20:38:17 3.1 C 42 %
3293 04-03-2020 20:48:18 3.1 C 42 %
3294 04-03-2020 20:58:18 2.9 C 43 %
3295 04-03-2020 21:08:18 3.3 C 42 %
3296 04-03-2020 21:18:18 3 C 42 %
3297 04-03-2020 21:28:18 3.1 C 42 %
3298 04-03-2020 21:38:18 3.3 C 42 %
3299 04-03-2020 21:48:18 3.1 C 42 %
3300 04-03-2020 21:58:18 3.1 C 42 %
Sensor: Nr:Datum:Temp:Feuchte:
Aussen-T/F 3301 04-03-2020 22:08:18 2.6 C 44 %
3302 04-03-2020 22:18:17 2.5 C 45 %
3303 04-03-2020 22:28:17 2.4 C 45 %
3304 04-03-2020 22:38:17 2.9 C 46 %
3305 04-03-2020 22:48:17 2.9 C 46 %
3306 04-03-2020 22:58:17 3.2 C 45 %
3307 04-03-2020 23:08:17 3.3 C 43 %
3308 04-03-2020 23:18:17 3.6 C 43 %
3309 04-03-2020 23:28:18 3.5 C 43 %
3310 04-03-2020 23:38:18 3.6 C 43 %
3311 04-03-2020 23:48:18 3.7 C 45 %
3312 04-03-2020 23:58:18 3.6 C 45 %
3313 05-03-2020 00:08:18 3.6 C 46 %
3314 05-03-2020 00:18:18 3.6 C 46 %
3315 05-03-2020 00:28:18 3.8 C 47 %
3316 05-03-2020 00:38:17 3.8 C 47 %
3317 05-03-2020 00:48:17 3.6 C 47 %
3318 05-03-2020 00:58:17 3.5 C 47 %
3319 05-03-2020 01:08:17 3.5 C 47 %
3320 05-03-2020 01:18:17 3.5 C 47 %
3321 05-03-2020 01:28:17 3.4 C 47 %
3322 05-03-2020 01:38:17 3.4 C 47 %
3323 05-03-2020 01:48:18 3.5 C 47 %
3324 05-03-2020 01:58:18 3.5 C 47 %
3325 05-03-2020 02:08:18 3.6 C 46 %
Sensor: Nr:Datum:Temp:Feuchte:
Aussen-T/F 3326 05-03-2020 02:18:18 3.7 C 46 %
3327 05-03-2020 02:28:18 3.7 C 45 %
3328 05-03-2020 02:38:18 3.7 C 44 %
3329 05-03-2020 02:48:18 3.9 C 43 %
3330 05-03-2020 02:58:18 3.9 C 43 %
3331 05-03-2020 03:08:18 4 C 42 %
3332 05-03-2020 03:18:17 4.1 C 42 %
3333 05-03-2020 03:28:17 4 C 41 %
3334 05-03-2020 03:38:17 4.1 C 41 %
3335 05-03-2020 03:48:17 4 C 42 %
3336 05-03-2020 03:58:17 3.8 C 43 %
3337 05-03-2020 04:08:17 3.8 C 44 %
3338 05-03-2020 04:18:17 3.9 C 44 %
3339 05-03-2020 04:28:18 3.9 C 43 %
3340 05-03-2020 04:38:18 3.9 C 43 %
3341 05-03-2020 04:48:17 3.8 C 43 %
3342 05-03-2020 04:58:18 3.8 C 43 %
3343 05-03-2020 05:08:18 3.9 C 44 %
3344 05-03-2020 05:18:18 3.9 C 44 %
3345 05-03-2020 05:28:18 3.8 C 44 %
3346 05-03-2020 05:38:18 3.9 C 44 %
3347 05-03-2020 05:48:17 3.7 C 44 %
3348 05-03-2020 05:58:18 3.9 C 44 %
3349 05-03-2020 06:08:18 4 C 43 %
3350 05-03-2020 06:18:18 3.9 C 43 %
Sensor: Nr:Datum:Temp:Feuchte:
Aussen-T/F 3351 05-03-2020 06:28:18 4 C 42 %
3352 05-03-2020 06:38:18 4 C 42 %
3353 05-03-2020 06:48:17 4.1 C 42 %
3354 05-03-2020 06:58:17 4.1 C 42 %
3355 05-03-2020 07:08:18 4.2 C 42 %
3356 05-03-2020 07:18:17 4.3 C 42 %
3357 05-03-2020 07:28:18 4.4 C 42 %
3358 05-03-2020 07:38:18 4.5 C 41 %
3359 05-03-2020 07:48:17 4.7 C 41 %
3360 05-03-2020 07:58:17 4.8 C 41 %
3361 05-03-2020 08:08:18 4.7 C 41 %
3362 05-03-2020 08:18:18 4.8 C 41 %
3363 05-03-2020 08:28:18 4.8 C 41 %
3364 05-03-2020 08:38:17 5.1 C 40 %
3365 05-03-2020 08:48:17 5.3 C 40 %
3366 05-03-2020 08:58:17 5.4 C 40 %
3367 05-03-2020 09:08:17 5.9 C 40 %
3368 05-03-2020 09:18:17 6.1 C 38 %
3369 05-03-2020 09:28:17 6.4 C 38 %
3370 05-03-2020 09:38:17 6.4 C 38 %
3371 05-03-2020 09:48:17 6.6 C 38 %
3372 05-03-2020 09:58:17 6.6 C 38 %
3373 05-03-2020 10:08:18 6.9 C 38 %
3374 05-03-2020 10:18:17 6.4 C 38 %
3375 05-03-2020 10:28:17 6.3 C 38 %
Sensor: Nr:Datum:Temp:Feuchte:
Aussen-T/F 3376 05-03-2020 10:38:18 6.2 C 38 %
3377 05-03-2020 10:48:18 6.3 C 39 %
3378 05-03-2020 10:58:18 6.7 C 38 %
3379 05-03-2020 11:08:17 7 C 38 %
3380 05-03-2020 11:18:17 7.1 C 37 %
3381 05-03-2020 11:28:17 7.3 C 37 %
3382 05-03-2020 11:38:18 7.7 C 37 %
3383 05-03-2020 11:48:18 7.8 C 37 %
3384 05-03-2020 11:58:18 7.4 C 37 %
3385 05-03-2020 12:08:17 7.5 C 37 %
3386 05-03-2020 12:18:17 7.5 C 37 %
3387 05-03-2020 12:28:18 6.9 C 38 %
3388 05-03-2020 12:38:18 7.1 C 38 %
3389 05-03-2020 12:48:17 7 C 39 %
3390 05-03-2020 12:58:17 6.8 C 40 %
3391 05-03-2020 13:08:17 6.8 C 41 %
3392 05-03-2020 13:18:17 6.9 C 41 %
3393 05-03-2020 13:28:17 6.9 C 41 %
3394 05-03-2020 13:38:17 7 C 41 %
3395 05-03-2020 13:48:17 6.6 C 42 %
3396 05-03-2020 13:58:17 6.4 C 42 %
3397 05-03-2020 14:08:17 6.4 C 43 %
3398 05-03-2020 14:18:17 6.4 C 43 %
3399 05-03-2020 14:28:17 6.3 C 42 %
3400 05-03-2020 14:38:17 6.3 C 43 %
Sensor: Nr:Datum:Temp:Feuchte:
Aussen-T/F 3401 05-03-2020 14:48:18 6.3 C 44 %
3402 05-03-2020 14:58:18 6.3 C 44 %
3403 05-03-2020 15:08:18 6.3 C 45 %
3404 05-03-2020 15:18:18 6.3 C 45 %
3405 05-03-2020 15:28:18 6.3 C 45 %
3406 05-03-2020 15:38:18 6.4 C 45 %
3407 05-03-2020 15:48:17 6.5 C 45 %
3408 05-03-2020 15:58:17 6.7 C 45 %
3409 05-03-2020 16:08:17 6.7 C 44 %
3410 05-03-2020 16:18:17 6.7 C 43 %
3411 05-03-2020 16:28:17 6.5 C 43 %
3412 05-03-2020 16:38:17 6.4 C 43 %
3413 05-03-2020 16:48:18 6.3 C 44 %
3414 05-03-2020 16:58:18 6.2 C 45 %
3415 05-03-2020 17:08:17 6.1 C 45 %
3416 05-03-2020 17:18:17 6 C 45 %
3417 05-03-2020 17:28:17 6 C 45 %
3418 05-03-2020 17:38:17 5.9 C 46 %
3419 05-03-2020 17:48:17 5.9 C 46 %
3420 05-03-2020 17:58:17 5.9 C 46 %
3421 05-03-2020 18:08:18 5.8 C 46 %
3422 05-03-2020 18:18:17 5.9 C 46 %
3423 05-03-2020 18:28:17 5.8 C 46 %
3424 05-03-2020 18:38:17 5.7 C 46 %
3425 05-03-2020 18:48:17 5.7 C 46 %
Sensor: Nr:Datum:Temp:Feuchte:
Aussen-T/F 3426 05-03-2020 18:58:17 5.7 C 46 %
3427 05-03-2020 19:08:18 5.7 C 46 %
3428 05-03-2020 19:18:17 5.6 C 46 %
3429 05-03-2020 19:28:17 5.5 C 46 %
3430 05-03-2020 19:38:17 5.5 C 46 %
3431 05-03-2020 19:48:18 5.7 C 46 %
3432 05-03-2020 19:58:18 5.7 C 46 %
3433 05-03-2020 20:08:17 5.8 C 45 %
3434 05-03-2020 20:18:17 5.9 C 45 %
3435 05-03-2020 20:28:17 6.1 C 45 %
3436 05-03-2020 20:38:18 6.1 C 45 %
3437 05-03-2020 20:48:17 6 C 45 %
3438 05-03-2020 20:58:17 6 C 45 %
3439 05-03-2020 21:08:18 6.1 C 45 %
3440 05-03-2020 21:18:17 6.1 C 45 %
3441 05-03-2020 21:28:17 6.1 C 45 %
3442 05-03-2020 21:38:17 6.1 C 45 %
3443 05-03-2020 21:48:17 6 C 45 %
3444 05-03-2020 21:58:17 6.1 C 45 %
3445 05-03-2020 22:08:17 6 C 45 %
3446 05-03-2020 22:18:17 6.2 C 45 %
3447 05-03-2020 22:28:17 6.1 C 45 %
3448 05-03-2020 22:38:18 6 C 45 %
3449 05-03-2020 22:48:17 6.1 C 45 %
3450 05-03-2020 22:58:17 6 C 45 %
Sensor: Nr:Datum:Temp:Feuchte:
Aussen-T/F 3451 05-03-2020 23:08:17 6.2 C 45 %
3452 05-03-2020 23:18:17 6.1 C 45 %
3453 05-03-2020 23:28:18 6.1 C 45 %
3454 05-03-2020 23:38:18 6.1 C 45 %
3455 05-03-2020 23:48:18 6.1 C 45 %
3456 05-03-2020 23:58:18 6.1 C 44 %
3457 06-03-2020 00:08:17 6.1 C 44 %
3458 06-03-2020 00:18:17 6.2 C 44 %
3459 06-03-2020 00:28:18 6.2 C 44 %
3460 06-03-2020 00:38:18 6.2 C 44 %
3461 06-03-2020 00:48:17 6.3 C 44 %
3462 06-03-2020 00:58:17 6.4 C 44 %
3463 06-03-2020 01:08:18 6.6 C 44 %
3464 06-03-2020 01:18:17 6.7 C 44 %
3465 06-03-2020 01:28:17 7 C 43 %
3466 06-03-2020 01:38:18 7.1 C 43 %
3467 06-03-2020 01:48:17 7.3 C 40 %
3468 06-03-2020 01:58:18 6.9 C 40 %
3469 06-03-2020 02:08:18 6.9 C 40 %
3470 06-03-2020 02:18:18 6.9 C 40 %
3471 06-03-2020 02:28:18 6.5 C 40 %
3472 06-03-2020 02:38:17 6.4 C 41 %
3473 06-03-2020 02:48:17 6.4 C 40 %
3474 06-03-2020 02:58:17 6.4 C 40 %
3475 06-03-2020 03:08:17 6.2 C 40 %
Sensor: Nr:Datum:Temp:Feuchte:
Aussen-T/F 3476 06-03-2020 03:18:18 6.2 C 40 %
3477 06-03-2020 03:28:18 6.4 C 40 %
3478 06-03-2020 03:38:18 6 C 40 %
3479 06-03-2020 03:48:17 5.8 C 41 %
3480 06-03-2020 03:58:18 5.6 C 43 %
3481 06-03-2020 04:08:17 5.5 C 44 %
3482 06-03-2020 04:18:17 5.4 C 45 %
3483 06-03-2020 04:28:17 5.5 C 45 %
3484 06-03-2020 04:38:18 5.4 C 45 %
3485 06-03-2020 04:48:17 5.4 C 46 %
3486 06-03-2020 04:58:18 5.5 C 45 %
3487 06-03-2020 05:08:18 5.6 C 44 %
3488 06-03-2020 05:18:18 5.6 C 44 %
3489 06-03-2020 05:28:18 5.6 C 45 %
3490 06-03-2020 05:38:18 5.8 C 44 %
3491 06-03-2020 05:48:17 5.8 C 44 %
3492 06-03-2020 05:58:17 5.8 C 44 %
3493 06-03-2020 06:08:17 5.8 C 45 %
3494 06-03-2020 06:18:17 5.8 C 45 %
3495 06-03-2020 06:28:17 5.9 C 45 %
3496 06-03-2020 06:38:18 6 C 44 %
3497 06-03-2020 06:48:17 6 C 44 %
3498 06-03-2020 06:58:17 6.1 C 45 %
3499 06-03-2020 07:08:17 6 C 45 %
3500 06-03-2020 07:18:18 6 C 45 %
Sensor: Nr:Datum:Temp:Feuchte:
Aussen-T/F 3501 06-03-2020 07:28:18 6 C 45 %
3502 06-03-2020 07:38:18 6 C 45 %
3503 06-03-2020 07:48:17 5.9 C 45 %
3504 06-03-2020 07:58:18 5.6 C 43 %
3505 06-03-2020 08:08:17 5.3 C 42 %
3506 06-03-2020 08:18:17 5 C 41 %
3507 06-03-2020 08:28:17 4.9 C 42 %
3508 06-03-2020 08:38:17 4.9 C 43 %
3509 06-03-2020 08:48:18 4.8 C 44 %
3510 06-03-2020 08:58:18 4.8 C 44 %
3511 06-03-2020 09:08:17 4.9 C 44 %
3512 06-03-2020 09:18:17 4.9 C 43 %
3513 06-03-2020 09:28:17 4.9 C 42 %
3514 06-03-2020 09:38:18 4.8 C 42 %
3515 06-03-2020 09:48:18 4.9 C 42 %
3516 06-03-2020 09:58:18 4.8 C 41 %
3517 06-03-2020 10:08:18 4.9 C 41 %
3518 06-03-2020 10:18:18 4.7 C 42 %
3519 06-03-2020 10:28:18 4.7 C 41 %
3520 06-03-2020 10:38:18 4.7 C 41 %
3521 06-03-2020 10:48:17 4.8 C 41 %
3522 06-03-2020 10:58:18 4.9 C 41 %
3523 06-03-2020 11:08:18 5 C 40 %
3524 06-03-2020 11:18:18 5.2 C 40 %
3525 06-03-2020 11:28:18 5.3 C 40 %
Sensor: Nr:Datum:Temp:Feuchte:
Aussen-T/F 3526 06-03-2020 11:38:18 5.1 C 40 %
3527 06-03-2020 11:48:17 4.9 C 41 %
3528 06-03-2020 11:58:17 4.7 C 41 %
3529 06-03-2020 12:08:17 4.6 C 41 %
3530 06-03-2020 12:18:17 4.5 C 41 %
3531 06-03-2020 12:28:17 4.6 C 41 %
3532 06-03-2020 12:38:18 4.4 C 41 %
3533 06-03-2020 12:48:18 4.6 C 41 %
3534 06-03-2020 12:58:18 4.5 C 41 %
3535 06-03-2020 13:08:18 4.7 C 41 %
3536 06-03-2020 13:18:18 5 C 40 %
3537 06-03-2020 13:28:18 5.1 C 40 %
3538 06-03-2020 13:38:17 5.3 C 40 %
3539 06-03-2020 13:48:17 5.1 C 40 %
3540 06-03-2020 13:58:17 5 C 40 %
3541 06-03-2020 14:08:17 4.8 C 41 %
3542 06-03-2020 14:18:17 4.8 C 41 %
3543 06-03-2020 14:28:17 4.8 C 41 %
3544 06-03-2020 14:38:17 5 C 40 %
3545 06-03-2020 14:48:17 5.3 C 40 %
3546 06-03-2020 14:58:17 5.3 C 40 %
3547 06-03-2020 15:08:17 5.4 C 39 %
3548 06-03-2020 15:18:17 5.6 C 39 %
3549 06-03-2020 15:28:17 5.8 C 39 %
3550 06-03-2020 15:38:18 5.9 C 38 %
Sensor: Nr:Datum:Temp:Feuchte:
Aussen-T/F 3551 06-03-2020 15:48:17 5.8 C 38 %
3552 06-03-2020 15:58:17 6 C 37 %
3553 06-03-2020 16:08:17 6.1 C 37 %
3554 06-03-2020 16:18:18 6.1 C 37 %
3555 06-03-2020 16:28:18 6.1 C 37 %
3556 06-03-2020 16:38:18 6.1 C 38 %
3557 06-03-2020 16:48:17 6 C 38 %
3558 06-03-2020 16:58:17 6.3 C 38 %
3559 06-03-2020 17:08:18 6.5 C 38 %
3560 06-03-2020 17:18:18 6.9 C 37 %
3561 06-03-2020 17:28:18 6.8 C 37 %
3562 06-03-2020 17:38:18 6.8 C 37 %
3563 06-03-2020 17:48:17 6.9 C 37 %
3564 06-03-2020 17:58:18 6.7 C 37 %
3565 06-03-2020 18:08:18 6.8 C 37 %
3566 06-03-2020 18:18:18 6.6 C 37 %
3567 06-03-2020 18:28:18 5.9 C 38 %
3568 06-03-2020 18:38:18 6 C 37 %
3569 06-03-2020 18:48:17 6.5 C 37 %
3570 06-03-2020 18:58:18 6.4 C 37 %
3571 06-03-2020 19:08:18 6.5 C 37 %
3572 06-03-2020 19:18:18 6.3 C 37 %
3573 06-03-2020 19:28:18 6.2 C 37 %
3574 06-03-2020 19:38:18 6.3 C 37 %
3575 06-03-2020 19:48:17 6.3 C 37 %
Sensor: Nr:Datum:Temp:Feuchte:
Aussen-T/F 3576 06-03-2020 19:58:17 6.2 C 36 %
3577 06-03-2020 20:08:18 6.2 C 36 %
3578 06-03-2020 20:18:18 5.9 C 37 %
3579 06-03-2020 20:28:18 5.7 C 37 %
3580 06-03-2020 20:38:18 5.5 C 38 %
3581 06-03-2020 20:48:17 5.4 C 38 %
3582 06-03-2020 20:58:17 5.2 C 38 %
3583 06-03-2020 21:08:17 5.3 C 38 %
3584 06-03-2020 21:18:18 5.1 C 38 %
3585 06-03-2020 21:28:18 5.2 C 38 %
3586 06-03-2020 21:38:18 5.2 C 37 %
3587 06-03-2020 21:48:17 4.9 C 38 %
3588 06-03-2020 21:58:18 4.7 C 39 %
3589 06-03-2020 22:08:17 4.8 C 39 %
3590 06-03-2020 22:18:17 5.1 C 38 %
3591 06-03-2020 22:28:18 5 C 38 %
3592 06-03-2020 22:38:18 5.2 C 38 %
3593 06-03-2020 22:48:17 5.3 C 38 %
3594 06-03-2020 22:58:17 5.3 C 38 %
3595 06-03-2020 23:08:18 5.2 C 38 %
3596 06-03-2020 23:18:18 5.3 C 38 %
3597 06-03-2020 23:28:18 5.2 C 37 %
3598 06-03-2020 23:38:17 5.3 C 37 %
3599 06-03-2020 23:48:17 5.3 C 37 %
3600 06-03-2020 23:58:17 5.1 C 38 %
Sensor: Nr:Datum:Temp:Feuchte:
Aussen-T/F 3601 07-03-2020 00:08:17 5.1 C 37 %
3602 07-03-2020 00:18:18 5.1 C 37 %
3603 07-03-2020 00:28:18 5.1 C 37 %
3604 07-03-2020 00:38:17 5.1 C 37 %
3605 07-03-2020 00:48:17 5.1 C 37 %
3606 07-03-2020 00:58:17 5 C 37 %
3607 07-03-2020 01:08:17 5.1 C 38 %
3608 07-03-2020 01:18:17 5.1 C 38 %
3609 07-03-2020 01:28:17 5.1 C 38 %
3610 07-03-2020 01:38:18 5.3 C 37 %
3611 07-03-2020 01:48:18 5.2 C 38 %
3612 07-03-2020 01:58:18 5.2 C 38 %
3613 07-03-2020 02:08:18 5.2 C 38 %
3614 07-03-2020 02:18:17 5.3 C 38 %
3615 07-03-2020 02:28:17 5.1 C 38 %
3616 07-03-2020 02:38:17 5.1 C 38 %
3617 07-03-2020 02:48:18 5.1 C 38 %
3618 07-03-2020 02:58:18 5.1 C 38 %
3619 07-03-2020 03:08:18 4.9 C 39 %
3620 07-03-2020 03:18:17 4.7 C 40 %
3621 07-03-2020 03:28:17 4.6 C 40 %
3622 07-03-2020 03:38:17 4.7 C 40 %
3623 07-03-2020 03:48:17 4.7 C 39 %
3624 07-03-2020 03:58:17 4.6 C 40 %
3625 07-03-2020 04:08:18 4.6 C 40 %
Sensor: Nr:Datum:Temp:Feuchte:
Aussen-T/F 3626 07-03-2020 04:18:17 4.7 C 40 %
3627 07-03-2020 04:28:17 4.8 C 39 %
3628 07-03-2020 04:38:18 4.7 C 39 %
3629 07-03-2020 04:48:17 4.7 C 39 %
3630 07-03-2020 04:58:18 4.7 C 39 %
3631 07-03-2020 05:08:18 4.6 C 39 %
3632 07-03-2020 05:18:18 4.6 C 39 %
3633 07-03-2020 05:28:18 4.6 C 39 %
3634 07-03-2020 05:38:18 4.6 C 39 %
3635 07-03-2020 05:48:18 4.5 C 39 %
3636 07-03-2020 05:58:18 4.5 C 39 %
3637 07-03-2020 06:08:17 4.6 C 39 %
3638 07-03-2020 06:18:17 4.6 C 40 %
3639 07-03-2020 06:28:17 4.6 C 39 %
3640 07-03-2020 06:38:18 4.5 C 39 %
3641 07-03-2020 06:48:17 4.5 C 39 %
3642 07-03-2020 06:58:17 4.5 C 39 %
3643 07-03-2020 07:08:18 4.5 C 39 %
3644 07-03-2020 07:18:18 4.4 C 39 %
3645 07-03-2020 07:28:18 4.4 C 39 %
3646 07-03-2020 07:38:18 4.3 C 40 %
3647 07-03-2020 07:48:17 4 C 40 %
3648 07-03-2020 07:58:17 3.7 C 42 %
3649 07-03-2020 08:08:18 3.7 C 45 %
3650 07-03-2020 08:18:17 3.7 C 44 %
Sensor: Nr:Datum:Temp:Feuchte:
Aussen-T/F 3651 07-03-2020 08:28:17 3.9 C 43 %
3652 07-03-2020 08:38:17 4 C 42 %
3653 07-03-2020 08:48:17 4.4 C 41 %
3654 07-03-2020 08:58:17 4.7 C 40 %
3655 07-03-2020 09:08:17 5.1 C 38 %
3656 07-03-2020 09:18:17 5.3 C 37 %
3657 07-03-2020 09:28:17 5.6 C 37 %
3658 07-03-2020 09:38:17 5.7 C 36 %
3659 07-03-2020 09:48:17 6.3 C 36 %
3660 07-03-2020 09:58:17 6.5 C 35 %
3661 07-03-2020 10:08:17 6.1 C 35 %
3662 07-03-2020 10:18:17 5.7 C 36 %
3663 07-03-2020 10:28:17 6.5 C 36 %
3664 07-03-2020 10:38:17 6.4 C 35 %
3665 07-03-2020 10:48:18 7 C 35 %
3666 07-03-2020 10:58:18 7.3 C 35 %
3667 07-03-2020 11:08:18 7.3 C 34 %
3668 07-03-2020 11:18:18 7.8 C 32 %
3669 07-03-2020 11:28:18 7.6 C 31 %
3670 07-03-2020 11:38:18 7.8 C 30 %
3671 07-03-2020 11:48:17 9.7 C 25 %
3672 07-03-2020 11:58:18 7.6 C 29 %
3673 07-03-2020 12:08:18 7.6 C 29 %
3674 07-03-2020 12:18:18 7.8 C 29 %
3675 07-03-2020 12:28:18 7.8 C 30 %
Sensor: Nr:Datum:Temp:Feuchte:
Aussen-T/F 3676 07-03-2020 12:38:17 8.2 C 30 %
3677 07-03-2020 12:48:18 7.5 C 28 %
3678 07-03-2020 12:58:18 8 C 27 %
3679 07-03-2020 13:08:17 9.5 C 26 %
3680 07-03-2020 13:18:18 9.1 C 21 %
3681 07-03-2020 13:28:18 9.1 C 25 %
3682 07-03-2020 13:38:18 8.8 C 26 %
3683 07-03-2020 13:48:18 9.1 C 26 %
3684 07-03-2020 13:58:18 10 C 25 %
3685 07-03-2020 14:08:17 8.9 C 26 %
3686 07-03-2020 14:18:17 10.5 C 20 %
3687 07-03-2020 14:28:17 10.1 C 20 %
3688 07-03-2020 14:38:18 9.8 C 20 %
3689 07-03-2020 14:48:17 11.6 C 20 %
3690 07-03-2020 14:58:18 11.5 C 20 %
3691 07-03-2020 15:08:18 12.4 C 20 %
3692 07-03-2020 15:18:18 11.1 C 20 %
3693 07-03-2020 15:28:18 9.8 C 20 %
3694 07-03-2020 15:38:17 12.4 C 20 %
3695 07-03-2020 15:48:18 10.8 C 20 %
3696 07-03-2020 15:58:18 9.5 C 20 %
3697 07-03-2020 16:08:17 11.7 C 20 %
3698 07-03-2020 16:18:17 10.4 C 20 %
3699 07-03-2020 16:28:17 9.6 C 20 %
3700 07-03-2020 16:38:17 9.1 C 20 %
Sensor: Nr:Datum:Temp:Feuchte:
Aussen-T/F 3701 07-03-2020 16:48:18 8.9 C 20 %
3702 07-03-2020 16:58:18 8.8 C 20 %
3703 07-03-2020 17:08:18 8.8 C 20 %
3704 07-03-2020 17:18:18 8.5 C 20 %
3705 07-03-2020 17:28:18 8.5 C 20 %
3706 07-03-2020 17:38:18 8.6 C 25 %
3707 07-03-2020 17:48:18 8.4 C 25 %
3708 07-03-2020 17:58:18 7.1 C 31 %
3709 07-03-2020 18:08:17 6.7 C 31 %
3710 07-03-2020 18:19:17 6.3 C 33 %
3711 07-03-2020 18:28:17 5.7 C 34 %
3712 07-03-2020 18:38:18 5.2 C 35 %
3713 07-03-2020 18:48:18 4.9 C 36 %
3714 07-03-2020 18:58:18 5 C 35 %
3715 07-03-2020 19:08:17 4.9 C 36 %
3716 07-03-2020 19:18:17 4.7 C 36 %
3717 07-03-2020 19:28:17 4.4 C 37 %
3718 07-03-2020 19:38:17 4.5 C 37 %
3719 07-03-2020 19:48:18 4.7 C 37 %
3720 07-03-2020 19:58:18 4.5 C 37 %
3721 07-03-2020 20:08:18 4.2 C 38 %
3722 07-03-2020 20:18:17 4.4 C 38 %
3723 07-03-2020 20:28:17 4.6 C 39 %
3724 07-03-2020 20:38:17 4.6 C 38 %
3725 07-03-2020 20:49:17 4.5 C 38 %
Sensor: Nr:Datum:Temp:Feuchte:
Aussen-T/F 3726 07-03-2020 20:59:17 4.5 C 38 %
3727 07-03-2020 21:09:17 4.5 C 39 %
3728 07-03-2020 21:18:17 4.5 C 39 %
3729 07-03-2020 21:28:17 4.7 C 39 %
3730 07-03-2020 21:38:17 4.7 C 38 %
3731 07-03-2020 21:48:18 5.1 C 37 %
3732 07-03-2020 21:58:18 5.1 C 37 %
3733 07-03-2020 22:08:17 5.3 C 37 %
3734 07-03-2020 22:18:18 5.5 C 36 %
3735 07-03-2020 22:28:18 5.6 C 36 %
3736 07-03-2020 22:38:17 5.5 C 36 %
3737 07-03-2020 22:49:17 5.5 C 36 %
3738 07-03-2020 22:59:17 5.8 C 36 %
3739 07-03-2020 23:09:17 6.2 C 35 %
3740 07-03-2020 23:19:17 6.3 C 35 %
3741 07-03-2020 23:29:17 6.4 C 35 %
3742 07-03-2020 23:38:17 6.4 C 34 %
3743 07-03-2020 23:48:18 6.4 C 34 %
3744 07-03-2020 23:58:18 6.5 C 34 %
3745 08-03-2020 00:08:18 6.5 C 35 %
3746 08-03-2020 00:18:18 6.4 C 35 %
3747 08-03-2020 00:28:18 6.8 C 35 %
3748 08-03-2020 00:38:18 6.7 C 35 %
3749 08-03-2020 00:48:18 7 C 34 %
3750 08-03-2020 00:58:18 7.1 C 35 %
Sensor: Nr:Datum:Temp:Feuchte:
Aussen-T/F 3751 08-03-2020 01:08:17 7.1 C 34 %
3752 08-03-2020 01:18:17 6.8 C 35 %
3753 08-03-2020 01:28:17 6.9 C 35 %
3754 08-03-2020 01:38:17 6.7 C 35 %
3755 08-03-2020 01:49:17 6.9 C 35 %
3756 08-03-2020 01:59:17 6.7 C 35 %
3757 08-03-2020 02:09:17 6.8 C 35 %
3758 08-03-2020 02:19:17 7 C 35 %
3759 08-03-2020 02:29:17 6.9 C 35 %
3760 08-03-2020 02:38:17 7.3 C 35 %
3761 08-03-2020 02:48:17 7.2 C 35 %
3762 08-03-2020 02:58:17 7 C 35 %
3763 08-03-2020 03:08:18 7.1 C 35 %
3764 08-03-2020 03:19:17 6.7 C 35 %
3765 08-03-2020 03:29:17 6.4 C 36 %
3766 08-03-2020 03:39:17 6.5 C 36 %
3767 08-03-2020 03:48:18 6.6 C 36 %
3768 08-03-2020 03:58:18 6.8 C 35 %
3769 08-03-2020 04:08:18 7 C 35 %
3770 08-03-2020 04:19:17 7.1 C 35 %
3771 08-03-2020 04:29:17 7 C 35 %
3772 08-03-2020 04:39:17 7 C 35 %
3773 08-03-2020 04:49:17 6.8 C 35 %
3774 08-03-2020 04:59:17 6.9 C 35 %
3775 08-03-2020 05:09:17 7 C 35 %
Sensor: Nr:Datum:Temp:Feuchte:
Aussen-T/F 3776 08-03-2020 05:19:17 6.8 C 35 %
3777 08-03-2020 05:29:17 6.5 C 35 %
3778 08-03-2020 05:39:17 6.8 C 35 %
3779 08-03-2020 05:49:17 6.6 C 35 %
3780 08-03-2020 05:59:17 6.4 C 35 %
3781 08-03-2020 06:09:17 6.4 C 35 %
3782 08-03-2020 06:19:17 5.9 C 37 %
3783 08-03-2020 06:29:18 6.3 C 36 %
3784 08-03-2020 06:39:18 6.6 C 36 %
3785 08-03-2020 06:49:17 6.9 C 36 %
3786 08-03-2020 06:59:17 7.3 C 35 %
3787 08-03-2020 07:09:17 7.4 C 35 %
3788 08-03-2020 07:19:17 7.7 C 35 %
3789 08-03-2020 07:29:17 7.8 C 35 %
3790 08-03-2020 07:39:17 7.9 C 35 %
3791 08-03-2020 07:49:17 8 C 35 %
3792 08-03-2020 07:59:17 8.2 C 34 %
3793 08-03-2020 08:09:17 8.2 C 34 %
3794 08-03-2020 08:19:17 8.4 C 34 %
3795 08-03-2020 08:29:17 8.6 C 34 %
3796 08-03-2020 08:39:17 8.5 C 35 %
3797 08-03-2020 08:49:17 8.6 C 34 %
3798 08-03-2020 08:59:17 8.6 C 34 %
3799 08-03-2020 09:09:17 8.6 C 34 %
3800 08-03-2020 09:19:17 8.8 C 34 %
Sensor: Nr:Datum:Temp:Feuchte:
Aussen-T/F 3801 08-03-2020 09:29:18 9.2 C 33 %
3802 08-03-2020 09:39:17 9.6 C 33 %
3803 08-03-2020 09:49:17 10.3 C 32 %
3804 08-03-2020 09:59:17 10.2 C 32 %
3805 08-03-2020 10:09:17 9.9 C 33 %
3806 08-03-2020 10:19:17 10.1 C 32 %
3807 08-03-2020 10:29:17 10.1 C 32 %
3808 08-03-2020 10:39:17 11.4 C 30 %
3809 08-03-2020 10:49:17 11.2 C 30 %
3810 08-03-2020 10:59:18 11.9 C 30 %
3811 08-03-2020 11:09:17 11.9 C 28 %
3812 08-03-2020 11:19:16 11.9 C 29 %
3813 08-03-2020 11:29:16 12.1 C 27 %
3814 08-03-2020 11:39:17 12.5 C 26 %
3815 08-03-2020 11:49:16 12.5 C 26 %
3816 08-03-2020 11:59:16 13.4 C 25 %
3817 08-03-2020 12:09:17 12.8 C 25 %
3818 08-03-2020 12:19:17 13.1 C 25 %
3819 08-03-2020 12:29:17 13.5 C 23 %
3820 08-03-2020 12:39:17 13.2 C 24 %
3821 08-03-2020 12:49:17 14.1 C 22 %
3822 08-03-2020 12:59:18 13.2 C 22 %
3823 08-03-2020 13:09:17 12.2 C 25 %
3824 08-03-2020 13:19:16 12.3 C 25 %
3825 08-03-2020 13:29:16 12.3 C 25 %
Sensor: Nr:Datum:Temp:Feuchte:
Aussen-T/F 3826 08-03-2020 13:39:16 12.7 C 25 %
3827 08-03-2020 13:49:17 12.7 C 25 %
3828 08-03-2020 13:59:17 12.5 C 25 %
3829 08-03-2020 14:09:17 13 C 23 %
3830 08-03-2020 14:19:16 12.8 C 25 %
3831 08-03-2020 14:29:16 12.5 C 25 %
3832 08-03-2020 14:39:16 12.8 C 25 %
3833 08-03-2020 14:49:16 12.7 C 25 %
3834 08-03-2020 14:59:16 12.3 C 25 %
3835 08-03-2020 15:09:16 12.8 C 25 %
3836 08-03-2020 15:19:17 12.5 C 25 %
3837 08-03-2020 15:29:17 12.5 C 25 %
3838 08-03-2020 15:39:17 12.1 C 25 %
3839 08-03-2020 15:49:17 12 C 25 %
3840 08-03-2020 15:59:17 12.1 C 25 %
3841 08-03-2020 16:09:17 12.5 C 25 %
3842 08-03-2020 16:19:17 12.4 C 25 %
3843 08-03-2020 16:29:17 12.1 C 25 %
3844 08-03-2020 16:39:17 12.2 C 26 %
3845 08-03-2020 16:49:17 12.2 C 26 %
3846 08-03-2020 16:59:17 12 C 26 %
3847 08-03-2020 17:09:17 12.6 C 25 %
3848 08-03-2020 17:19:17 12.4 C 26 %
3849 08-03-2020 17:29:17 12.3 C 26 %
3850 08-03-2020 17:39:17 12 C 26 %
Sensor: Nr:Datum:Temp:Feuchte:
Aussen-T/F 3851 08-03-2020 17:49:16 11.5 C 28 %
3852 08-03-2020 17:59:16 11.4 C 29 %
3853 08-03-2020 18:09:17 11.1 C 30 %
3854 08-03-2020 18:19:17 10.9 C 31 %
3855 08-03-2020 18:29:18 10.7 C 31 %
3856 08-03-2020 18:39:17 10.4 C 32 %
3857 08-03-2020 18:49:16 10.2 C 32 %
3858 08-03-2020 18:59:16 9.6 C 35 %
3859 08-03-2020 19:09:17 9.9 C 35 %
3860 08-03-2020 19:19:16 9.8 C 35 %
3861 08-03-2020 19:29:16 9.6 C 36 %
3862 08-03-2020 19:39:17 9.4 C 36 %
3863 08-03-2020 19:49:16 9.5 C 36 %
3864 08-03-2020 19:59:16 9.5 C 36 %
3865 08-03-2020 20:09:16 9.4 C 36 %
3866 08-03-2020 20:19:16 9.3 C 36 %
3867 08-03-2020 20:29:16 9.3 C 37 %
3868 08-03-2020 20:39:17 9.2 C 37 %
3869 08-03-2020 20:49:16 9.2 C 37 %
3870 08-03-2020 20:59:16 9 C 37 %
3871 08-03-2020 21:09:17 9 C 37 %
3872 08-03-2020 21:19:17 9.1 C 37 %
3873 08-03-2020 21:29:17 9.1 C 37 %
3874 08-03-2020 21:39:17 9.3 C 37 %
3875 08-03-2020 21:49:17 9.3 C 37 %
Sensor: Nr:Datum:Temp:Feuchte:
Aussen-T/F 3876 08-03-2020 21:59:17 9.3 C 37 %
3877 08-03-2020 22:09:17 9.3 C 37 %
3878 08-03-2020 22:19:16 9.3 C 37 %
3879 08-03-2020 22:29:16 8.9 C 37 %
3880 08-03-2020 22:39:17 9.2 C 37 %
3881 08-03-2020 22:49:16 8.7 C 37 %
3882 08-03-2020 22:59:16 9 C 37 %
3883 08-03-2020 23:09:16 9.3 C 37 %
3884 08-03-2020 23:19:16 7.9 C 39 %
3885 08-03-2020 23:29:16 7.8 C 40 %
3886 08-03-2020 23:39:16 7.9 C 40 %
3887 08-03-2020 23:49:16 7.9 C 39 %
3888 08-03-2020 23:59:16 7.6 C 40 %
3889 09-03-2020 00:09:17 7.3 C 41 %
3890 09-03-2020 00:19:16 7 C 41 %
3891 09-03-2020 00:29:16 6.8 C 43 %
3892 09-03-2020 00:39:16 6.8 C 44 %
3893 09-03-2020 00:49:16 6.6 C 45 %
3894 09-03-2020 00:59:16 6.8 C 43 %
3895 09-03-2020 01:09:16 6.9 C 42 %
3896 09-03-2020 01:19:16 6.9 C 43 %
3897 09-03-2020 01:29:16 6.7 C 45 %
3898 09-03-2020 01:39:16 6.8 C 43 %
3899 09-03-2020 01:49:16 6.9 C 42 %
3900 09-03-2020 01:59:16 6.7 C 43 %
Sensor: Nr:Datum:Temp:Feuchte:
Aussen-T/F 3901 09-03-2020 02:09:16 6.6 C 43 %
3902 09-03-2020 02:19:16 6.4 C 44 %
3903 09-03-2020 02:29:16 6.3 C 45 %
3904 09-03-2020 02:39:16 6.2 C 45 %
3905 09-03-2020 02:49:17 6.4 C 45 %
3906 09-03-2020 02:59:17 6.4 C 44 %
3907 09-03-2020 03:09:17 6.1 C 44 %
3908 09-03-2020 03:19:17 6.5 C 43 %
3909 09-03-2020 03:29:17 6.7 C 42 %
3910 09-03-2020 03:39:17 6.4 C 42 %
3911 09-03-2020 03:49:17 6.2 C 43 %
3912 09-03-2020 03:59:17 6 C 44 %
3913 09-03-2020 04:09:17 5.7 C 45 %
3914 09-03-2020 04:19:17 5.5 C 45 %
3915 09-03-2020 04:29:17 6.1 C 44 %
3916 09-03-2020 04:39:18 6.3 C 43 %
3917 09-03-2020 04:49:17 6.2 C 43 %
3918 09-03-2020 04:59:17 6.2 C 43 %
3919 09-03-2020 05:09:18 6.2 C 43 %
3920 09-03-2020 05:19:17 6 C 43 %
3921 09-03-2020 05:29:17 5.8 C 44 %
3922 09-03-2020 05:39:17 5.6 C 44 %
3923 09-03-2020 05:49:17 5.2 C 44 %
3924 09-03-2020 05:59:17 5.3 C 43 %
3925 09-03-2020 06:09:17 5 C 43 %
Sensor: Nr:Datum:Temp:Feuchte:
Aussen-T/F 3926 09-03-2020 06:19:17 5.2 C 43 %
3927 09-03-2020 06:29:17 5.1 C 43 %
3928 09-03-2020 06:39:18 5.4 C 42 %
3929 09-03-2020 06:49:17 5.7 C 41 %
3930 09-03-2020 06:59:18 5.7 C 41 %
3931 09-03-2020 07:09:18 5 C 42 %
3932 09-03-2020 07:19:18 4.7 C 44 %
3933 09-03-2020 07:29:18 5.7 C 42 %
3934 09-03-2020 07:39:17 5.8 C 41 %
3935 09-03-2020 07:49:17 5.4 C 41 %
3936 09-03-2020 07:59:17 5.4 C 42 %
3937 09-03-2020 08:09:17 5.4 C 42 %
3938 09-03-2020 08:19:17 5 C 43 %
3939 09-03-2020 08:29:17 5.3 C 43 %
3940 09-03-2020 08:39:18 6.1 C 41 %
3941 09-03-2020 08:49:17 6.8 C 40 %
3942 09-03-2020 08:59:17 7.3 C 38 %
3943 09-03-2020 09:09:17 7.4 C 38 %
3944 09-03-2020 09:19:17 7.7 C 37 %
3945 09-03-2020 09:29:17 8 C 37 %
3946 09-03-2020 09:39:17 8.1 C 37 %
3947 09-03-2020 09:49:17 8 C 37 %
3948 09-03-2020 09:59:17 7.8 C 37 %
3949 09-03-2020 10:09:17 8.3 C 36 %
3950 09-03-2020 10:19:17 8.2 C 36 %
Sensor: Nr:Datum:Temp:Feuchte:
Aussen-T/F 3951 09-03-2020 10:29:17 8.5 C 36 %
3952 09-03-2020 10:39:17 8.6 C 36 %
3953 09-03-2020 10:49:17 8.5 C 36 %
3954 09-03-2020 10:59:17 8.1 C 36 %
3955 09-03-2020 11:09:17 8.1 C 36 %
3956 09-03-2020 11:19:17 8.5 C 36 %
3957 09-03-2020 11:29:17 9.7 C 34 %
3958 09-03-2020 11:39:17 9.1 C 34 %
3959 09-03-2020 11:49:17 10.1 C 33 %
3960 09-03-2020 11:59:17 10.6 C 29 %
3961 09-03-2020 12:09:18 10.9 C 27 %
3962 09-03-2020 12:19:18 11.2 C 25 %
3963 09-03-2020 12:29:18 10.1 C 26 %
3964 09-03-2020 12:39:18 10.3 C 26 %
3965 09-03-2020 12:49:17 11 C 25 %
3966 09-03-2020 12:59:17 10.1 C 26 %
3967 09-03-2020 13:09:17 11.6 C 26 %
3968 09-03-2020 13:19:17 9.8 C 29 %
3969 09-03-2020 13:29:17 9.5 C 31 %
3970 09-03-2020 13:39:17 10.5 C 30 %
3971 09-03-2020 13:49:17 10.4 C 29 %
3972 09-03-2020 13:59:17 10.5 C 29 %
3973 09-03-2020 14:09:17 11.6 C 27 %
3974 09-03-2020 14:19:17 11.5 C 26 %
3975 09-03-2020 14:29:17 10.4 C 27 %
Sensor: Nr:Datum:Temp:Feuchte:
Aussen-T/F 3976 09-03-2020 14:39:17 11.6 C 26 %
3977 09-03-2020 14:49:17 12.8 C 20 %
3978 09-03-2020 14:59:17 13.6 C 20 %
3979 09-03-2020 15:09:18 12.6 C 20 %
3980 09-03-2020 15:19:18 13 C 20 %
3981 09-03-2020 15:29:18 12.9 C 20 %
3982 09-03-2020 15:39:18 14.4 C 20 %
3983 09-03-2020 15:49:17 14 C 20 %
3984 09-03-2020 15:59:17 12.5 C 20 %
3985 09-03-2020 16:09:18 11.2 C 20 %
3986 09-03-2020 16:19:17 10.5 C 22 %
3987 09-03-2020 16:29:17 10.7 C 23 %
3988 09-03-2020 16:39:17 13.3 C 20 %
3989 09-03-2020 16:49:17 14.2 C 20 %
3990 09-03-2020 16:59:18 14.1 C 20 %
3991 09-03-2020 17:09:18 12.2 C 20 %
3992 09-03-2020 17:19:17 10.1 C 20 %
3993 09-03-2020 17:29:17 9.9 C 25 %
3994 09-03-2020 17:39:18 9.8 C 25 %
3995 09-03-2020 17:49:17 9.7 C 27 %
3996 09-03-2020 17:59:18 9.7 C 26 %
3997 09-03-2020 18:09:18 9.5 C 27 %
3998 09-03-2020 18:19:17 9.2 C 28 %
3999 09-03-2020 18:29:17 8.9 C 30 %
4000 09-03-2020 18:39:17 8.7 C 30 %
Sensor: Nr:Datum:Temp:Feuchte:
Aussen-T/F 4001 09-03-2020 18:49:17 8.1 C 30 %
4002 09-03-2020 18:59:17 7.7 C 32 %
4003 09-03-2020 19:09:18 7.5 C 33 %
4004 09-03-2020 19:19:17 7.4 C 33 %
4005 09-03-2020 19:29:17 7.6 C 33 %
4006 09-03-2020 19:39:17 7.4 C 34 %
4007 09-03-2020 19:49:18 7.3 C 33 %
4008 09-03-2020 19:59:18 7.2 C 34 %
4009 09-03-2020 20:09:17 6.5 C 36 %
4010 09-03-2020 20:19:17 6.9 C 35 %
4011 09-03-2020 20:29:17 6.5 C 36 %
4012 09-03-2020 20:39:18 6.5 C 36 %
4013 09-03-2020 20:49:18 6.7 C 36 %
4014 09-03-2020 20:59:18 6.8 C 35 %
4015 09-03-2020 21:09:17 5.9 C 37 %
4016 09-03-2020 21:19:17 5.6 C 38 %
4017 09-03-2020 21:29:17 5.5 C 38 %
4018 09-03-2020 21:39:17 5.4 C 38 %
4019 09-03-2020 21:49:18 5.4 C 38 %
4020 09-03-2020 21:59:18 5.6 C 38 %
4021 09-03-2020 22:09:18 5.4 C 38 %
4022 09-03-2020 22:19:17 5.6 C 38 %
4023 09-03-2020 22:29:17 5.8 C 38 %
4024 09-03-2020 22:39:17 5.8 C 38 %
4025 09-03-2020 22:49:17 5.4 C 38 %
Sensor: Nr:Datum:Temp:Feuchte:
Aussen-T/F 4026 09-03-2020 22:59:17 5.1 C 39 %
4027 09-03-2020 23:09:18 5.1 C 39 %
4028 09-03-2020 23:19:17 5.2 C 39 %
4029 09-03-2020 23:29:17 5 C 39 %
4030 09-03-2020 23:39:17 4.6 C 40 %
4031 09-03-2020 23:49:17 4.6 C 41 %
4032 09-03-2020 23:59:17 4.5 C 41 %
4033 10-03-2020 00:09:17 4.6 C 41 %
4034 10-03-2020 00:19:18 4.7 C 41 %
4035 10-03-2020 00:29:18 5.1 C 40 %
4036 10-03-2020 00:39:18 5.5 C 40 %
4037 10-03-2020 00:49:18 5.5 C 40 %
4038 10-03-2020 00:59:18 5.8 C 39 %
4039 10-03-2020 01:09:18 5.8 C 39 %
4040 10-03-2020 01:19:17 5.9 C 39 %
4041 10-03-2020 01:29:18 6 C 38 %
4042 10-03-2020 01:39:18 6.3 C 38 %
4043 10-03-2020 01:49:17 6.7 C 37 %
4044 10-03-2020 01:59:17 6.6 C 37 %
4045 10-03-2020 02:09:18 6.7 C 37 %
4046 10-03-2020 02:19:17 6.6 C 37 %
4047 10-03-2020 02:29:18 6.7 C 37 %
4048 10-03-2020 02:39:18 6.8 C 37 %
4049 10-03-2020 02:49:17 6.9 C 37 %
4050 10-03-2020 02:59:17 7.1 C 37 %
Sensor: Nr:Datum:Temp:Feuchte:
Aussen-T/F 4051 10-03-2020 03:09:18 6.6 C 38 %
4052 10-03-2020 03:19:18 6.5 C 38 %
4053 10-03-2020 03:29:18 6.3 C 39 %
4054 10-03-2020 03:39:18 6.2 C 39 %
4055 10-03-2020 03:49:17 6 C 40 %
4056 10-03-2020 03:59:17 6 C 40 %
4057 10-03-2020 04:09:17 5.8 C 40 %
4058 10-03-2020 04:19:17 5.8 C 40 %
4059 10-03-2020 04:29:17 5.6 C 41 %
4060 10-03-2020 04:39:17 5.9 C 40 %
4061 10-03-2020 04:49:17 5.6 C 41 %
4062 10-03-2020 04:59:17 5.5 C 41 %
4063 10-03-2020 05:09:17 5.5 C 41 %
4064 10-03-2020 05:19:17 5.2 C 41 %
4065 10-03-2020 05:29:18 5.2 C 41 %
4066 10-03-2020 05:39:18 5.1 C 42 %
4067 10-03-2020 05:49:18 5.1 C 42 %
4068 10-03-2020 05:59:18 5 C 42 %
4069 10-03-2020 06:09:17 4.9 C 43 %
4070 10-03-2020 06:19:17 5 C 42 %
4071 10-03-2020 06:29:17 4.9 C 43 %
4072 10-03-2020 06:39:18 5 C 44 %
4073 10-03-2020 06:49:17 5.1 C 43 %
4074 10-03-2020 06:59:17 5 C 43 %
4075 10-03-2020 07:09:18 5.1 C 42 %
Sensor: Nr:Datum:Temp:Feuchte:
Aussen-T/F 4076 10-03-2020 07:19:18 5.3 C 42 %
4077 10-03-2020 07:29:18 5.8 C 41 %
4078 10-03-2020 07:39:18 5.8 C 42 %
4079 10-03-2020 07:49:18 5.7 C 41 %
4080 10-03-2020 07:59:18 5.9 C 41 %
4081 10-03-2020 08:09:18 6 C 41 %
4082 10-03-2020 08:19:18 6 C 41 %
4083 10-03-2020 08:29:18 6.3 C 41 %
4084 10-03-2020 08:39:18 6.5 C 40 %
4085 10-03-2020 08:49:18 6.3 C 41 %
4086 10-03-2020 08:59:18 6.5 C 41 %
4087 10-03-2020 09:09:17 6.6 C 41 %
4088 10-03-2020 09:19:17 6.6 C 41 %
4089 10-03-2020 09:29:17 6.7 C 42 %
4090 10-03-2020 09:39:17 6.8 C 42 %
4091 10-03-2020 09:49:17 6.9 C 42 %
4092 10-03-2020 09:59:17 7.1 C 41 %
4093 10-03-2020 10:09:18 7.2 C 41 %
4094 10-03-2020 10:19:18 7.3 C 41 %
4095 10-03-2020 10:29:18 7.4 C 41 %
4096 10-03-2020 10:39:18 7.5 C 41 %
4097 10-03-2020 10:49:18 7.8 C 41 %
4098 10-03-2020 10:59:18 7.9 C 41 %
4099 10-03-2020 11:09:18 8.1 C 41 %
4100 10-03-2020 11:19:18 8.2 C 40 %
Sensor: Nr:Datum:Temp:Feuchte:
Aussen-T/F 4101 10-03-2020 11:29:18 8.4 C 40 %
4102 10-03-2020 11:39:18 8.5 C 41 %
4103 10-03-2020 11:49:17 8.7 C 41 %
4104 10-03-2020 11:59:17 8.9 C 41 %
4105 10-03-2020 12:09:17 8.9 C 40 %
4106 10-03-2020 12:19:17 8.9 C 41 %
4107 10-03-2020 12:29:18 9 C 41 %
4108 10-03-2020 12:39:18 9.1 C 41 %
4109 10-03-2020 12:49:17 9.1 C 41 %
4110 10-03-2020 12:59:17 9.3 C 41 %
4111 10-03-2020 13:09:18 9.4 C 40 %
4112 10-03-2020 13:19:17 9.5 C 41 %
4113 10-03-2020 13:29:18 9.5 C 41 %
4114 10-03-2020 13:39:18 9.5 C 41 %
4115 10-03-2020 13:49:17 9.7 C 41 %
4116 10-03-2020 13:59:18 9.8 C 41 %
4117 10-03-2020 14:09:18 9.9 C 41 %
4118 10-03-2020 14:19:18 10.2 C 40 %
4119 10-03-2020 14:29:18 10.5 C 40 %
4120 10-03-2020 14:39:18 10.8 C 40 %
4121 10-03-2020 14:49:17 10.9 C 40 %
4122 10-03-2020 14:59:17 11.3 C 38 %
4123 10-03-2020 15:09:18 11.3 C 38 %
4124 10-03-2020 15:19:18 11.4 C 38 %
4125 10-03-2020 15:29:18 11.8 C 38 %
Sensor: Nr:Datum:Temp:Feuchte:
Aussen-T/F 4126 10-03-2020 15:39:18 12.3 C 37 %
4127 10-03-2020 15:49:17 12.3 C 36 %
4128 10-03-2020 15:59:18 12.5 C 37 %
4129 10-03-2020 16:09:18 13 C 35 %
4130 10-03-2020 16:19:18 12.6 C 36 %
4131 10-03-2020 16:29:18 12.5 C 37 %
4132 10-03-2020 16:39:18 12.4 C 37 %
4133 10-03-2020 16:49:17 12.5 C 37 %
4134 10-03-2020 16:59:18 12.5 C 37 %
4135 10-03-2020 17:09:18 12.7 C 37 %
4136 10-03-2020 17:19:17 12.6 C 37 %
4137 10-03-2020 17:29:18 12.7 C 37 %
4138 10-03-2020 17:39:18 12.6 C 37 %
4139 10-03-2020 17:49:17 12.5 C 37 %
4140 10-03-2020 17:59:18 12.5 C 38 %
4141 10-03-2020 18:09:18 12.3 C 38 %
4142 10-03-2020 18:19:17 12.3 C 38 %
4143 10-03-2020 18:29:18 12.3 C 38 %
4144 10-03-2020 18:39:18 12.5 C 38 %
4145 10-03-2020 18:49:17 12.4 C 38 %
4146 10-03-2020 18:59:17 12.3 C 38 %
4147 10-03-2020 19:09:18 12.5 C 38 %
4148 10-03-2020 19:19:17 12.3 C 38 %
4149 10-03-2020 19:29:17 12.4 C 38 %
4150 10-03-2020 19:39:17 12.5 C 38 %
Sensor: Nr:Datum:Temp:Feuchte:
Aussen-T/F 4151 10-03-2020 19:49:17 12.5 C 38 %
4152 10-03-2020 19:59:17 12.5 C 38 %
4153 10-03-2020 20:09:17 12.5 C 38 %
4154 10-03-2020 20:19:17 12.7 C 38 %
4155 10-03-2020 20:29:18 12.8 C 38 %
4156 10-03-2020 20:39:18 12.8 C 38 %
4157 10-03-2020 20:49:17 12.9 C 38 %
4158 10-03-2020 20:59:17 13.1 C 37 %
4159 10-03-2020 21:09:18 12.8 C 38 %
4160 10-03-2020 21:19:17 13.2 C 37 %
4161 10-03-2020 21:29:18 13.2 C 37 %
4162 10-03-2020 21:39:18 13.2 C 37 %
4163 10-03-2020 21:49:17 13.2 C 37 %
4164 10-03-2020 21:59:18 13.1 C 37 %
4165 10-03-2020 22:09:18 12.8 C 39 %
4166 10-03-2020 22:19:18 12.5 C 40 %
4167 10-03-2020 22:29:18 12.5 C 40 %
4168 10-03-2020 22:39:18 12.7 C 40 %
4169 10-03-2020 22:49:17 12.5 C 40 %
4170 10-03-2020 22:59:17 12.5 C 40 %
4171 10-03-2020 23:09:18 12.8 C 40 %
4172 10-03-2020 23:19:18 12.8 C 39 %
4173 10-03-2020 23:29:18 12.8 C 39 %
4174 10-03-2020 23:39:18 12.8 C 39 %
4175 10-03-2020 23:49:17 12.9 C 39 %
Sensor: Nr:Datum:Temp:Feuchte:
Aussen-T/F 4176 10-03-2020 23:59:17 13.1 C 37 %
Sensor: Nr:Datum:Temp:Feuchte:
G-T/H 1 11-02-2020 00:06:17 9.7 C 74 %
2 11-02-2020 00:16:17 9.7 C 73 %
3 11-02-2020 00:26:17 9.7 C 73 %
4 11-02-2020 00:36:17 9.7 C 73 %
5 11-02-2020 00:46:17 9.7 C 73 %
6 11-02-2020 00:56:17 9.7 C 73 %
7 11-02-2020 01:06:17 9.6 C 73 %
8 11-02-2020 01:16:17 9.7 C 73 %
9 11-02-2020 01:26:17 9.7 C 73 %
10 11-02-2020 01:36:17 9.6 C 73 %
11 11-02-2020 01:46:17 9.6 C 73 %
12 11-02-2020 01:56:17 9.6 C 73 %
13 11-02-2020 02:06:17 9.6 C 73 %
14 11-02-2020 02:16:17 9.6 C 73 %
15 11-02-2020 02:26:17 9.6 C 73 %
16 11-02-2020 02:36:17 9.6 C 73 %
17 11-02-2020 02:46:17 9.6 C 73 %
18 11-02-2020 02:56:17 9.6 C 73 %
19 11-02-2020 03:06:17 9.6 C 73 %
20 11-02-2020 03:16:17 9.5 C 73 %
21 11-02-2020 03:26:17 9.5 C 73 %
22 11-02-2020 03:36:17 9.5 C 73 %
23 11-02-2020 03:46:18 9.5 C 73 %
24 11-02-2020 03:56:18 9.5 C 73 %
25 11-02-2020 04:06:18 9.5 C 73 %
Sensor: Nr:Datum:Temp:Feuchte:
G-T/H 26 11-02-2020 04:16:17 9.5 C 72 %
27 11-02-2020 04:26:17 9.5 C 72 %
28 11-02-2020 04:36:17 9.4 C 72 %
29 11-02-2020 04:46:17 9.5 C 72 %
30 11-02-2020 04:56:17 9.4 C 72 %
31 11-02-2020 05:06:18 9.4 C 72 %
32 11-02-2020 05:16:18 9.4 C 72 %
33 11-02-2020 05:26:18 9.4 C 72 %
34 11-02-2020 05:36:18 9.4 C 72 %
35 11-02-2020 05:46:17 9.3 C 72 %
36 11-02-2020 05:56:18 9.4 C 72 %
37 11-02-2020 06:06:18 9.3 C 72 %
38 11-02-2020 06:16:17 9.3 C 72 %
39 11-02-2020 06:26:17 9.3 C 72 %
40 11-02-2020 06:36:18 9.3 C 72 %
41 11-02-2020 06:46:17 9.3 C 72 %
42 11-02-2020 06:56:18 9.3 C 72 %
43 11-02-2020 07:06:18 9.3 C 72 %
44 11-02-2020 07:16:18 9.2 C 72 %
45 11-02-2020 07:26:18 9.2 C 72 %
46 11-02-2020 07:36:18 9.2 C 72 %
47 11-02-2020 07:46:17 9.2 C 72 %
48 11-02-2020 07:56:17 9.2 C 72 %
49 11-02-2020 08:06:18 9.2 C 72 %
50 11-02-2020 08:16:17 9.2 C 72 %
Sensor: Nr:Datum:Temp:Feuchte:
G-T/H 51 11-02-2020 08:26:17 9.2 C 72 %
52 11-02-2020 08:36:17 9.2 C 72 %
53 11-02-2020 08:46:17 9.2 C 72 %
54 11-02-2020 08:56:17 9.2 C 72 %
55 11-02-2020 09:06:17 9.2 C 72 %
56 11-02-2020 09:16:17 9.1 C 72 %
57 11-02-2020 09:26:17 9.2 C 72 %
58 11-02-2020 09:36:18 9.1 C 72 %
59 11-02-2020 09:46:18 9.1 C 72 %
60 11-02-2020 09:56:18 9.1 C 72 %
61 11-02-2020 10:06:18 9.1 C 72 %
62 11-02-2020 10:16:17 9.1 C 72 %
63 11-02-2020 10:26:17 9.1 C 72 %
64 11-02-2020 10:36:17 9.1 C 72 %
65 11-02-2020 10:46:17 9.1 C 72 %
66 11-02-2020 10:56:17 9.1 C 72 %
67 11-02-2020 11:06:17 9.1 C 72 %
68 11-02-2020 11:16:17 9.1 C 72 %
69 11-02-2020 11:26:17 9.1 C 72 %
70 11-02-2020 11:36:18 9 C 72 %
71 11-02-2020 11:46:18 9.1 C 72 %
72 11-02-2020 11:56:18 9.1 C 72 %
73 11-02-2020 12:06:18 9 C 72 %
74 11-02-2020 12:16:17 9.1 C 72 %
75 11-02-2020 12:26:17 9 C 72 %
Sensor: Nr:Datum:Temp:Feuchte:
G-T/H 76 11-02-2020 12:36:17 9 C 72 %
77 11-02-2020 12:46:17 9 C 72 %
78 11-02-2020 12:56:17 9 C 72 %
79 11-02-2020 13:06:18 9 C 72 %
80 11-02-2020 13:16:18 9 C 72 %
81 11-02-2020 13:26:18 9 C 72 %
82 11-02-2020 13:36:18 9 C 72 %
83 11-02-2020 13:46:17 9 C 72 %
84 11-02-2020 13:56:17 9 C 72 %
85 11-02-2020 14:06:17 9 C 72 %
86 11-02-2020 14:16:17 9 C 72 %
87 11-02-2020 14:26:17 9 C 72 %
88 11-02-2020 14:36:17 9 C 72 %
89 11-02-2020 14:46:17 9 C 72 %
90 11-02-2020 14:56:17 9 C 72 %
91 11-02-2020 15:06:17 9 C 72 %
92 11-02-2020 15:16:17 9 C 72 %
93 11-02-2020 15:26:17 9 C 72 %
94 11-02-2020 15:36:17 9 C 72 %
95 11-02-2020 15:46:17 9 C 72 %
96 11-02-2020 15:56:17 9 C 72 %
97 11-02-2020 16:06:17 9.1 C 72 %
98 11-02-2020 16:16:18 9 C 72 %
99 11-02-2020 16:26:18 9 C 72 %
100 11-02-2020 16:36:17 9 C 72 %
Sensor: Nr:Datum:Temp:Feuchte:
G-T/H 101 11-02-2020 16:46:17 9.1 C 72 %
102 11-02-2020 16:56:17 9.1 C 72 %
103 11-02-2020 17:06:18 9.1 C 72 %
104 11-02-2020 17:16:17 9 C 72 %
105 11-02-2020 17:26:17 9 C 72 %
106 11-02-2020 17:36:17 9 C 72 %
107 11-02-2020 17:46:17 9.1 C 72 %
108 11-02-2020 17:56:17 9 C 72 %
109 11-02-2020 18:06:17 9.1 C 72 %
110 11-02-2020 18:16:17 9.1 C 72 %
111 11-02-2020 18:26:17 9 C 72 %
112 11-02-2020 18:36:17 9 C 72 %
113 11-02-2020 18:46:17 9.1 C 72 %
114 11-02-2020 18:56:18 9 C 72 %
115 11-02-2020 19:06:18 9 C 72 %
116 11-02-2020 19:16:18 9 C 72 %
117 11-02-2020 19:26:18 9.1 C 72 %
118 11-02-2020 19:36:17 9.1 C 72 %
119 11-02-2020 19:46:18 9 C 72 %
120 11-02-2020 19:56:18 9 C 72 %
121 11-02-2020 20:06:17 9 C 72 %
122 11-02-2020 20:16:17 9 C 72 %
123 11-02-2020 20:26:17 9 C 72 %
124 11-02-2020 20:36:17 9 C 72 %
125 11-02-2020 20:46:17 9 C 72 %
Sensor: Nr:Datum:Temp:Feuchte:
G-T/H 126 11-02-2020 20:56:17 9 C 72 %
127 11-02-2020 21:06:18 9 C 72 %
128 11-02-2020 21:16:17 9 C 72 %
129 11-02-2020 21:26:17 9 C 72 %
130 11-02-2020 21:36:17 9 C 72 %
131 11-02-2020 21:46:18 9 C 72 %
132 11-02-2020 21:56:18 9 C 72 %
133 11-02-2020 22:06:17 9 C 72 %
134 11-02-2020 22:16:18 9 C 72 %
135 11-02-2020 22:26:18 9 C 72 %
136 11-02-2020 22:36:17 8.9 C 73 %
137 11-02-2020 22:46:17 8.9 C 73 %
138 11-02-2020 22:56:17 8.9 C 73 %
139 11-02-2020 23:06:17 8.9 C 73 %
140 11-02-2020 23:16:18 8.9 C 73 %
141 11-02-2020 23:26:18 8.9 C 73 %
142 11-02-2020 23:36:17 8.9 C 73 %
143 11-02-2020 23:46:18 8.9 C 73 %
144 11-02-2020 23:56:18 8.9 C 73 %
145 12-02-2020 00:06:18 8.9 C 73 %
146 12-02-2020 00:16:17 8.9 C 73 %
147 12-02-2020 00:26:17 8.9 C 73 %
148 12-02-2020 00:36:18 8.9 C 73 %
149 12-02-2020 00:46:17 8.9 C 73 %
150 12-02-2020 00:56:18 8.9 C 73 %
Sensor: Nr:Datum:Temp:Feuchte:
G-T/H 151 12-02-2020 01:06:18 8.9 C 73 %
152 12-02-2020 01:16:18 8.9 C 73 %
153 12-02-2020 01:26:18 8.9 C 73 %
154 12-02-2020 01:36:17 8.9 C 73 %
155 12-02-2020 01:46:18 8.9 C 73 %
156 12-02-2020 01:56:18 8.9 C 73 %
157 12-02-2020 02:06:18 8.9 C 73 %
158 12-02-2020 02:16:17 8.8 C 73 %
159 12-02-2020 02:26:17 8.8 C 73 %
160 12-02-2020 02:36:18 8.8 C 73 %
161 12-02-2020 02:46:18 8.8 C 73 %
162 12-02-2020 02:56:18 8.8 C 73 %
163 12-02-2020 03:06:18 8.8 C 73 %
164 12-02-2020 03:16:17 8.8 C 73 %
165 12-02-2020 03:26:17 8.8 C 73 %
166 12-02-2020 03:36:17 8.8 C 73 %
167 12-02-2020 03:46:17 8.8 C 73 %
168 12-02-2020 03:56:17 8.8 C 73 %
169 12-02-2020 04:06:17 8.7 C 73 %
170 12-02-2020 04:16:17 8.7 C 73 %
171 12-02-2020 04:26:17 8.8 C 73 %
172 12-02-2020 04:36:18 8.8 C 73 %
173 12-02-2020 04:46:17 8.7 C 73 %
174 12-02-2020 04:56:18 8.7 C 73 %
175 12-02-2020 05:06:18 8.7 C 73 %
Sensor: Nr:Datum:Temp:Feuchte:
G-T/H 176 12-02-2020 05:16:18 8.7 C 73 %
177 12-02-2020 05:26:18 8.7 C 73 %
178 12-02-2020 05:36:18 8.7 C 73 %
179 12-02-2020 05:46:17 8.7 C 73 %
180 12-02-2020 05:56:18 8.7 C 73 %
181 12-02-2020 06:06:17 8.7 C 73 %
182 12-02-2020 06:16:18 8.7 C 73 %
183 12-02-2020 06:26:18 8.7 C 73 %
184 12-02-2020 06:36:17 8.7 C 73 %
185 12-02-2020 06:46:18 8.7 C 73 %
186 12-02-2020 06:56:18 8.7 C 73 %
187 12-02-2020 07:06:17 8.7 C 73 %
188 12-02-2020 07:16:17 8.7 C 73 %
189 12-02-2020 07:26:17 8.7 C 73 %
190 12-02-2020 07:36:17 8.7 C 73 %
191 12-02-2020 07:46:18 8.7 C 73 %
192 12-02-2020 07:56:18 8.7 C 73 %
193 12-02-2020 08:06:17 8.7 C 73 %
194 12-02-2020 08:16:17 8.7 C 73 %
195 12-02-2020 08:26:17 8.7 C 73 %
196 12-02-2020 08:36:17 8.7 C 73 %
197 12-02-2020 08:46:17 8.7 C 73 %
198 12-02-2020 08:56:17 8.7 C 73 %
199 12-02-2020 09:06:17 8.7 C 73 %
200 12-02-2020 09:16:17 8.7 C 73 %
Sensor: Nr:Datum:Temp:Feuchte:
G-T/H 201 12-02-2020 09:26:18 8.7 C 73 %
202 12-02-2020 09:36:18 8.7 C 73 %
203 12-02-2020 09:46:17 8.7 C 73 %
204 12-02-2020 09:56:17 8.7 C 73 %
205 12-02-2020 10:06:17 8.7 C 73 %
206 12-02-2020 10:16:18 8.6 C 73 %
207 12-02-2020 10:26:18 8.7 C 73 %
208 12-02-2020 10:36:17 8.6 C 73 %
209 12-02-2020 10:46:17 8.6 C 73 %
210 12-02-2020 10:56:17 8.7 C 73 %
211 12-02-2020 11:06:17 8.7 C 73 %
212 12-02-2020 11:16:17 8.6 C 73 %
213 12-02-2020 11:26:17 8.7 C 73 %
214 12-02-2020 11:36:17 8.6 C 73 %
215 12-02-2020 11:46:17 8.7 C 73 %
216 12-02-2020 11:56:17 8.7 C 73 %
217 12-02-2020 12:06:18 8.7 C 73 %
218 12-02-2020 12:16:18 8.6 C 73 %
219 12-02-2020 12:26:18 8.6 C 73 %
220 12-02-2020 12:36:17 8.6 C 73 %
221 12-02-2020 12:46:17 8.7 C 73 %
222 12-02-2020 12:56:17 8.7 C 73 %
223 12-02-2020 13:06:18 8.7 C 73 %
224 12-02-2020 13:16:17 8.7 C 73 %
225 12-02-2020 13:26:17 8.6 C 73 %
Sensor: Nr:Datum:Temp:Feuchte:
G-T/H 226 12-02-2020 13:36:17 8.7 C 73 %
227 12-02-2020 13:46:17 8.7 C 73 %
228 12-02-2020 13:56:17 8.7 C 73 %
229 12-02-2020 14:06:17 8.7 C 73 %
230 12-02-2020 14:16:18 8.7 C 73 %
231 12-02-2020 14:26:18 8.7 C 73 %
232 12-02-2020 14:36:17 8.7 C 73 %
233 12-02-2020 14:46:17 8.7 C 73 %
234 12-02-2020 14:56:17 8.7 C 73 %
235 12-02-2020 15:06:17 8.7 C 73 %
236 12-02-2020 15:16:17 8.7 C 73 %
237 12-02-2020 15:26:17 8.7 C 73 %
238 12-02-2020 15:36:18 8.7 C 73 %
239 12-02-2020 15:46:18 8.7 C 73 %
240 12-02-2020 15:56:18 8.7 C 73 %
241 12-02-2020 16:06:18 8.7 C 73 %
242 12-02-2020 16:16:18 8.7 C 73 %
243 12-02-2020 16:26:18 8.7 C 74 %
244 12-02-2020 16:36:17 8.7 C 74 %
245 12-02-2020 16:46:17 8.7 C 74 %
246 12-02-2020 16:56:18 8.7 C 74 %
247 12-02-2020 17:06:18 8.8 C 74 %
248 12-02-2020 17:16:17 8.8 C 74 %
249 12-02-2020 17:26:17 8.8 C 74 %
250 12-02-2020 17:36:17 8.7 C 74 %
Sensor: Nr:Datum:Temp:Feuchte:
G-T/H 251 12-02-2020 17:46:17 8.7 C 74 %
252 12-02-2020 17:56:17 8.8 C 74 %
253 12-02-2020 18:06:17 8.8 C 73 %
254 12-02-2020 18:16:17 8.8 C 73 %
255 12-02-2020 18:26:17 8.7 C 73 %
256 12-02-2020 18:36:17 8.8 C 73 %
257 12-02-2020 18:46:17 8.8 C 73 %
258 12-02-2020 18:56:17 8.8 C 73 %
259 12-02-2020 19:06:18 8.7 C 73 %
260 12-02-2020 19:17:17 8.6 C 73 %
261 12-02-2020 19:27:17 8.5 C 72 %
262 12-02-2020 19:36:17 8.6 C 72 %
263 12-02-2020 19:46:17 8.6 C 72 %
264 12-02-2020 19:56:17 8.6 C 72 %
265 12-02-2020 20:06:17 8.7 C 72 %
266 12-02-2020 20:16:17 8.7 C 72 %
267 12-02-2020 20:26:17 8.7 C 72 %
268 12-02-2020 20:36:18 8.7 C 72 %
269 12-02-2020 20:46:17 8.7 C 72 %
270 12-02-2020 20:56:18 8.7 C 72 %
271 12-02-2020 21:06:18 8.7 C 72 %
272 12-02-2020 21:17:17 8.7 C 72 %
273 12-02-2020 21:27:17 8.7 C 72 %
274 12-02-2020 21:36:17 8.7 C 72 %
275 12-02-2020 21:46:17 8.7 C 72 %
Sensor: Nr:Datum:Temp:Feuchte:
G-T/H 276 12-02-2020 21:56:17 8.7 C 72 %
277 12-02-2020 22:06:17 8.7 C 72 %
278 12-02-2020 22:16:17 8.7 C 72 %
279 12-02-2020 22:26:17 8.7 C 72 %
280 12-02-2020 22:36:17 8.7 C 72 %
281 12-02-2020 22:46:17 8.7 C 72 %
282 12-02-2020 22:56:17 8.7 C 72 %
283 12-02-2020 23:06:18 8.7 C 72 %
284 12-02-2020 23:16:18 8.7 C 72 %
285 12-02-2020 23:26:18 8.6 C 72 %
286 12-02-2020 23:37:17 8.7 C 72 %
287 12-02-2020 23:47:17 8.6 C 72 %
288 12-02-2020 23:57:17 8.6 C 72 %
289 13-02-2020 00:07:17 8.6 C 72 %
290 13-02-2020 00:17:17 8.6 C 72 %
291 13-02-2020 00:27:17 8.6 C 72 %
292 13-02-2020 00:36:18 8.5 C 72 %
293 13-02-2020 00:46:17 8.5 C 72 %
294 13-02-2020 00:56:18 8.6 C 72 %
295 13-02-2020 01:06:18 8.6 C 72 %
296 13-02-2020 01:17:17 8.5 C 72 %
297 13-02-2020 01:27:17 8.5 C 72 %
298 13-02-2020 01:37:17 8.5 C 72 %
299 13-02-2020 01:47:17 8.5 C 72 %
300 13-02-2020 01:57:17 8.5 C 72 %
Sensor: Nr:Datum:Temp:Feuchte:
G-T/H 301 13-02-2020 02:07:18 8.5 C 72 %
302 13-02-2020 02:17:18 8.5 C 72 %
303 13-02-2020 02:27:18 8.5 C 72 %
304 13-02-2020 02:37:17 8.5 C 72 %
305 13-02-2020 02:47:17 8.4 C 72 %
306 13-02-2020 02:57:17 8.4 C 72 %
307 13-02-2020 03:07:17 8.4 C 72 %
308 13-02-2020 03:17:17 8.4 C 72 %
309 13-02-2020 03:27:17 8.4 C 72 %
310 13-02-2020 03:37:17 8.3 C 72 %
311 13-02-2020 03:47:17 8.3 C 72 %
312 13-02-2020 03:57:17 8.3 C 72 %
313 13-02-2020 04:07:17 8.3 C 72 %
314 13-02-2020 04:17:17 8.3 C 72 %
315 13-02-2020 04:27:17 8.3 C 72 %
316 13-02-2020 04:37:18 8.3 C 72 %
317 13-02-2020 04:47:17 8.2 C 72 %
318 13-02-2020 04:57:17 8.2 C 72 %
319 13-02-2020 05:07:18 8.2 C 71 %
320 13-02-2020 05:17:17 8.2 C 71 %
321 13-02-2020 05:27:17 8.2 C 71 %
322 13-02-2020 05:37:17 8.2 C 71 %
323 13-02-2020 05:47:17 8.1 C 71 %
324 13-02-2020 05:57:17 8.1 C 71 %
325 13-02-2020 06:07:17 8.2 C 71 %
Sensor: Nr:Datum:Temp:Feuchte:
G-T/H 326 13-02-2020 06:17:17 8.1 C 71 %
327 13-02-2020 06:27:17 8.1 C 71 %
328 13-02-2020 06:37:18 8.1 C 71 %
329 13-02-2020 06:47:17 8.1 C 71 %
330 13-02-2020 06:57:18 8.1 C 71 %
331 13-02-2020 07:07:18 8.1 C 71 %
332 13-02-2020 07:17:18 7.9 C 72 %
333 13-02-2020 07:27:18 7.9 C 71 %
334 13-02-2020 07:37:17 8 C 70 %
335 13-02-2020 07:47:18 8 C 70 %
336 13-02-2020 07:57:18 8 C 70 %
337 13-02-2020 08:07:17 8 C 70 %
338 13-02-2020 08:17:17 8 C 71 %
339 13-02-2020 08:27:17 8 C 71 %
340 13-02-2020 08:37:17 8 C 71 %
341 13-02-2020 08:47:17 8 C 71 %
342 13-02-2020 08:57:17 8 C 71 %
343 13-02-2020 09:07:18 8 C 71 %
344 13-02-2020 09:17:17 8 C 71 %
345 13-02-2020 09:27:17 8 C 71 %
346 13-02-2020 09:37:17 7.9 C 72 %
347 13-02-2020 09:47:18 7.9 C 72 %
348 13-02-2020 09:57:18 7.9 C 72 %
349 13-02-2020 10:07:17 7.9 C 72 %
350 13-02-2020 10:17:17 7.9 C 72 %
Sensor: Nr:Datum:Temp:Feuchte:
G-T/H 351 13-02-2020 10:27:17 7.9 C 72 %
352 13-02-2020 10:37:17 7.9 C 73 %
353 13-02-2020 10:47:17 8 C 72 %
354 13-02-2020 10:57:17 8 C 72 %
355 13-02-2020 11:07:17 8 C 72 %
356 13-02-2020 11:17:17 8 C 72 %
357 13-02-2020 11:27:17 8 C 72 %
358 13-02-2020 11:37:17 8 C 72 %
359 13-02-2020 11:47:18 7.9 C 73 %
360 13-02-2020 11:57:18 8 C 72 %
361 13-02-2020 12:07:17 8 C 72 %
362 13-02-2020 12:17:17 8 C 72 %
363 13-02-2020 12:27:17 8 C 72 %
364 13-02-2020 12:37:18 8 C 72 %
365 13-02-2020 12:47:17 8 C 72 %
366 13-02-2020 12:57:17 8 C 72 %
367 13-02-2020 13:07:18 8 C 72 %
368 13-02-2020 13:17:17 8 C 72 %
369 13-02-2020 13:27:17 8 C 72 %
370 13-02-2020 13:37:17 8 C 72 %
371 13-02-2020 13:47:17 8 C 73 %
372 13-02-2020 13:57:17 8 C 73 %
373 13-02-2020 14:07:17 8 C 73 %
374 13-02-2020 14:17:17 8 C 73 %
375 13-02-2020 14:27:17 8 C 73 %
Sensor: Nr:Datum:Temp:Feuchte:
G-T/H 376 13-02-2020 14:37:17 8 C 73 %
377 13-02-2020 14:47:17 8.1 C 73 %
378 13-02-2020 14:57:17 8.1 C 73 %
379 13-02-2020 15:07:17 8.1 C 73 %
380 13-02-2020 15:17:17 8.1 C 73 %
381 13-02-2020 15:27:17 8.1 C 73 %
382 13-02-2020 15:37:18 8.1 C 73 %
383 13-02-2020 15:47:18 8.1 C 73 %
384 13-02-2020 15:57:18 8.1 C 73 %
385 13-02-2020 16:07:17 8.1 C 73 %
386 13-02-2020 16:17:17 8.1 C 73 %
387 13-02-2020 16:27:17 8.1 C 73 %
388 13-02-2020 16:37:17 8.1 C 73 %
389 13-02-2020 16:47:18 8.2 C 73 %
390 13-02-2020 16:57:18 8.2 C 73 %
391 13-02-2020 17:07:17 8.2 C 73 %
392 13-02-2020 17:17:17 8.2 C 74 %
393 13-02-2020 17:27:17 8.2 C 74 %
394 13-02-2020 17:37:17 8.2 C 74 %
395 13-02-2020 17:47:17 8.2 C 74 %
396 13-02-2020 17:57:18 8.2 C 74 %
397 13-02-2020 18:07:18 8.2 C 74 %
398 13-02-2020 18:17:17 8.2 C 74 %
399 13-02-2020 18:27:17 8.2 C 74 %
400 13-02-2020 18:37:17 8.2 C 74 %
Sensor: Nr:Datum:Temp:Feuchte:
G-T/H 401 13-02-2020 18:47:17 8.3 C 74 %
402 13-02-2020 18:57:17 8.2 C 74 %
403 13-02-2020 19:07:17 8.3 C 74 %
404 13-02-2020 19:17:17 8.3 C 74 %
405 13-02-2020 19:27:17 8.3 C 74 %
406 13-02-2020 19:37:17 8.3 C 74 %
407 13-02-2020 19:47:17 8.3 C 74 %
408 13-02-2020 19:57:17 8.3 C 74 %
409 13-02-2020 20:07:18 8.3 C 74 %
410 13-02-2020 20:17:17 8.3 C 74 %
411 13-02-2020 20:27:17 8.3 C 74 %
412 13-02-2020 20:37:17 8.3 C 74 %
413 13-02-2020 20:47:18 8.4 C 74 %
414 13-02-2020 20:57:18 8.4 C 74 %
415 13-02-2020 21:07:17 8.4 C 74 %
416 13-02-2020 21:17:17 8.4 C 74 %
417 13-02-2020 21:27:17 8.4 C 74 %
418 13-02-2020 21:37:18 8.4 C 74 %
419 13-02-2020 21:47:18 8.4 C 74 %
420 13-02-2020 21:57:18 8.4 C 74 %
421 13-02-2020 22:07:17 8.4 C 74 %
422 13-02-2020 22:17:17 8.4 C 74 %
423 13-02-2020 22:27:17 8.4 C 74 %
424 13-02-2020 22:37:17 8.4 C 74 %
425 13-02-2020 22:47:17 8.4 C 74 %
Sensor: Nr:Datum:Temp:Feuchte:
G-T/H 426 13-02-2020 22:57:17 8.4 C 74 %
427 13-02-2020 23:07:17 8.4 C 74 %
428 13-02-2020 23:17:17 8.4 C 74 %
429 13-02-2020 23:27:17 8.4 C 74 %
430 13-02-2020 23:37:17 8.4 C 74 %
431 13-02-2020 23:47:18 8.5 C 74 %
432 13-02-2020 23:57:18 8.5 C 74 %
433 14-02-2020 00:07:18 8.5 C 74 %
434 14-02-2020 00:17:17 8.5 C 74 %
435 14-02-2020 00:27:17 8.5 C 74 %
436 14-02-2020 00:37:17 8.5 C 74 %
437 14-02-2020 00:47:17 8.5 C 74 %
438 14-02-2020 00:57:17 8.5 C 75 %
439 14-02-2020 01:07:17 8.5 C 75 %
440 14-02-2020 01:17:18 8.5 C 75 %
441 14-02-2020 01:27:18 8.5 C 75 %
442 14-02-2020 01:37:18 8.5 C 75 %
443 14-02-2020 01:47:18 8.5 C 75 %
444 14-02-2020 01:57:18 8.6 C 75 %
445 14-02-2020 02:07:17 8.5 C 75 %
446 14-02-2020 02:17:17 8.5 C 75 %
447 14-02-2020 02:27:17 8.6 C 75 %
448 14-02-2020 02:37:18 8.6 C 75 %
449 14-02-2020 02:47:18 8.6 C 75 %
450 14-02-2020 02:57:18 8.6 C 75 %
Sensor: Nr:Datum:Temp:Feuchte:
G-T/H 451 14-02-2020 03:07:17 8.6 C 75 %
452 14-02-2020 03:17:17 8.6 C 75 %
453 14-02-2020 03:27:17 8.6 C 75 %
454 14-02-2020 03:37:17 8.6 C 75 %
455 14-02-2020 03:47:17 8.6 C 75 %
456 14-02-2020 03:57:17 8.6 C 75 %
457 14-02-2020 04:07:18 8.6 C 75 %
458 14-02-2020 04:17:18 8.6 C 75 %
459 14-02-2020 04:27:18 8.6 C 75 %
460 14-02-2020 04:37:17 8.6 C 75 %
461 14-02-2020 04:47:18 8.6 C 75 %
462 14-02-2020 04:57:18 8.6 C 75 %
463 14-02-2020 05:07:18 8.6 C 75 %
464 14-02-2020 05:17:17 8.6 C 75 %
465 14-02-2020 05:27:17 8.7 C 75 %
466 14-02-2020 05:37:17 8.7 C 75 %
467 14-02-2020 05:47:17 8.6 C 75 %
468 14-02-2020 05:57:17 8.7 C 75 %
469 14-02-2020 06:07:17 8.7 C 75 %
470 14-02-2020 06:17:17 8.7 C 75 %
471 14-02-2020 06:27:17 8.7 C 75 %
472 14-02-2020 06:37:17 8.7 C 75 %
473 14-02-2020 06:47:17 8.6 C 75 %
474 14-02-2020 06:57:17 8.7 C 75 %
475 14-02-2020 07:07:17 8.7 C 75 %
Sensor: Nr:Datum:Temp:Feuchte:
G-T/H 476 14-02-2020 07:17:17 8.7 C 75 %
477 14-02-2020 07:27:17 8.7 C 75 %
478 14-02-2020 07:37:18 8.7 C 75 %
479 14-02-2020 07:47:17 8.7 C 75 %
480 14-02-2020 07:57:18 8.7 C 75 %
481 14-02-2020 08:07:17 8.7 C 75 %
482 14-02-2020 08:17:17 8.7 C 75 %
483 14-02-2020 08:27:17 8.7 C 75 %
484 14-02-2020 08:37:18 8.7 C 75 %
485 14-02-2020 08:47:18 8.7 C 75 %
486 14-02-2020 08:57:18 8.7 C 75 %
487 14-02-2020 09:07:17 8.7 C 75 %
488 14-02-2020 09:17:17 8.7 C 75 %
489 14-02-2020 09:27:17 8.7 C 75 %
490 14-02-2020 09:37:17 8.7 C 75 %
491 14-02-2020 09:47:17 8.7 C 75 %
492 14-02-2020 09:57:17 8.7 C 75 %
493 14-02-2020 10:07:17 8.7 C 75 %
494 14-02-2020 10:17:17 8.8 C 75 %
495 14-02-2020 10:27:17 8.7 C 75 %
496 14-02-2020 10:37:18 8.7 C 75 %
497 14-02-2020 10:47:17 8.8 C 75 %
498 14-02-2020 10:57:18 8.8 C 75 %
499 14-02-2020 11:07:18 8.8 C 75 %
500 14-02-2020 11:17:18 8.8 C 75 %
Sensor: Nr:Datum:Temp:Feuchte:
G-T/H 501 14-02-2020 11:27:18 8.8 C 75 %
502 14-02-2020 11:37:17 8.8 C 75 %
503 14-02-2020 11:47:18 8.8 C 75 %
504 14-02-2020 11:57:18 8.8 C 75 %
505 14-02-2020 12:07:17 8.8 C 75 %
506 14-02-2020 12:17:17 8.8 C 75 %
507 14-02-2020 12:27:17 8.8 C 75 %